<?xml version="1.0" encoding="UTF-8" standalone="no" ?>
<gpx xmlns="http://www.topografix.com/GPX/1/1" xmlns:xsi="http://www.w3.org/2001/XMLSchema-instance" xsi:schemaLocation="http://www.topografix.com/GPX/1/1 http://www.topografix.com/GPX/1/1/gpx.xsd" version="1.1" creator="VisuGPX - https://www.visugpx.com">
  <metadata>
    <name>Tour du Cantal - GR400 (5 jours)</name>
    <desc><![CDATA[Trek de 5 jours suivant le GR400 (Tour des Volcans du Cantal). Autour du 15 août 2014.

Détail de chaque étape, avec l'index IBP de difficulté : 
[img]http://www.gpsies.com/pictures/cz/large/czhggiityybahumc_large_0004.jpg[/img]

[img]http://www.gpsies.com/pictures/cz/large/czhggiityybahumc_large_0001.jpg[/img]

[img]http://www.gpsies.com/pictures/cz/large/czhggiityybahumc_large_0002.jpg[/img]

[img]http://www.gpsies.com/pictures/cz/large/czhggiityybahumc_large_0003.jpg[/img]]]></desc>
  </metadata>
  <wpt lat="45.02817" lon="2.58223">
    <ele>784.2</ele>
    <name><![CDATA[Hotel (à l'abri)]]></name>
    <desc><![CDATA[]]></desc>
  </wpt>
  <wpt lat="45.0826" lon="2.75041">
    <ele>1242</ele>
    <name><![CDATA[SuperLioran]]></name>
    <desc><![CDATA[]]></desc>
  </wpt>
  <wpt lat="45.07595" lon="2.61303">
    <ele>1337</ele>
    <name><![CDATA[Cabrespine]]></name>
    <desc><![CDATA[]]></desc>
  </wpt>
  <wpt lat="45.06654" lon="2.6479">
    <ele>911</ele>
    <name><![CDATA[Mandailles]]></name>
    <desc><![CDATA[]]></desc>
  </wpt>
  <wpt lat="45.01437" lon="2.66549">
    <ele>811</ele>
    <name><![CDATA[Départ]]></name>
    <desc><![CDATA[]]></desc>
  </wpt>
  <wpt lat="45.01444" lon="2.66535">
    <ele>811</ele>
    <name><![CDATA[Arrivée]]></name>
    <desc><![CDATA[]]></desc>
  </wpt>
  <trk>
    <name><![CDATA[2014-08-13 Tour du Cantal (Complet)]]></name>
    <trkseg>
      <trkpt lat="45.01437" lon="2.66549">
        <ele>811</ele>
        <time>2014-08-13T07:34:58Z</time>
      </trkpt>
      <trkpt lat="45.01454" lon="2.66513">
        <ele>811</ele>
        <time>2014-08-13T07:35:04Z</time>
      </trkpt>
      <trkpt lat="45.01471" lon="2.66452">
        <ele>811.1</ele>
        <time>2014-08-13T07:35:51Z</time>
      </trkpt>
      <trkpt lat="45.01499" lon="2.66422">
        <ele>811.9</ele>
        <time>2014-08-13T07:37:08Z</time>
      </trkpt>
      <trkpt lat="45.01513" lon="2.66462">
        <ele>817.7</ele>
        <time>2014-08-13T07:38:19Z</time>
      </trkpt>
      <trkpt lat="45.01508" lon="2.66506">
        <ele>821</ele>
        <time>2014-08-13T07:39:41Z</time>
      </trkpt>
      <trkpt lat="45.0149" lon="2.66559">
        <ele>815.9</ele>
        <time>2014-08-13T07:40:03Z</time>
      </trkpt>
      <trkpt lat="45.01505" lon="2.66573">
        <ele>824.5</ele>
        <time>2014-08-13T07:40:13Z</time>
      </trkpt>
      <trkpt lat="45.01528" lon="2.66542">
        <ele>828.9</ele>
        <time>2014-08-13T07:40:31Z</time>
      </trkpt>
      <trkpt lat="45.01557" lon="2.66547">
        <ele>834.5</ele>
        <time>2014-08-13T07:40:55Z</time>
      </trkpt>
      <trkpt lat="45.01595" lon="2.66552">
        <ele>850.7</ele>
        <time>2014-08-13T07:41:29Z</time>
      </trkpt>
      <trkpt lat="45.01631" lon="2.66597">
        <ele>859.9</ele>
        <time>2014-08-13T07:42:37Z</time>
      </trkpt>
      <trkpt lat="45.01652" lon="2.66623">
        <ele>863.7</ele>
        <time>2014-08-13T07:43:21Z</time>
      </trkpt>
      <trkpt lat="45.01668" lon="2.66625">
        <ele>874.3</ele>
        <time>2014-08-13T07:43:52Z</time>
      </trkpt>
      <trkpt lat="45.01671" lon="2.66681">
        <ele>886.3</ele>
        <time>2014-08-13T07:45:04Z</time>
      </trkpt>
      <trkpt lat="45.01662" lon="2.66739">
        <ele>876.7</ele>
        <time>2014-08-13T07:46:14Z</time>
      </trkpt>
      <trkpt lat="45.01663" lon="2.66797">
        <ele>889.3</ele>
        <time>2014-08-13T07:47:29Z</time>
      </trkpt>
      <trkpt lat="45.01678" lon="2.66798">
        <ele>908.7</ele>
        <time>2014-08-13T07:48:19Z</time>
      </trkpt>
      <trkpt lat="45.01716" lon="2.66737">
        <ele>915.4</ele>
        <time>2014-08-13T07:50:24Z</time>
      </trkpt>
      <trkpt lat="45.0175" lon="2.66686">
        <ele>940</ele>
        <time>2014-08-13T07:51:00Z</time>
      </trkpt>
      <trkpt lat="45.01757" lon="2.66703">
        <ele>942.3</ele>
        <time>2014-08-13T07:51:28Z</time>
      </trkpt>
      <trkpt lat="45.01749" lon="2.66729">
        <ele>932.3</ele>
        <time>2014-08-13T07:52:12Z</time>
      </trkpt>
      <trkpt lat="45.01762" lon="2.66741">
        <ele>948.3</ele>
        <time>2014-08-13T07:52:55Z</time>
      </trkpt>
      <trkpt lat="45.01778" lon="2.66732">
        <ele>951.2</ele>
        <time>2014-08-13T07:53:31Z</time>
      </trkpt>
      <trkpt lat="45.01793" lon="2.66744">
        <ele>954.1</ele>
        <time>2014-08-13T07:54:06Z</time>
      </trkpt>
      <trkpt lat="45.01826" lon="2.66755">
        <ele>967.1</ele>
        <time>2014-08-13T07:55:19Z</time>
      </trkpt>
      <trkpt lat="45.01844" lon="2.66775">
        <ele>989.6</ele>
        <time>2014-08-13T07:56:27Z</time>
      </trkpt>
      <trkpt lat="45.01912" lon="2.66803">
        <ele>1013</ele>
        <time>2014-08-13T07:57:20Z</time>
      </trkpt>
      <trkpt lat="45.01956" lon="2.66823">
        <ele>1045.8</ele>
        <time>2014-08-13T07:59:53Z</time>
      </trkpt>
      <trkpt lat="45.01981" lon="2.6682">
        <ele>1050.5</ele>
        <time>2014-08-13T08:01:00Z</time>
      </trkpt>
      <trkpt lat="45.01989" lon="2.66795">
        <ele>1054</ele>
        <time>2014-08-13T08:15:10Z</time>
      </trkpt>
      <trkpt lat="45.02007" lon="2.66746">
        <ele>1068.2</ele>
        <time>2014-08-13T08:16:38Z</time>
      </trkpt>
      <trkpt lat="45.02061" lon="2.6674">
        <ele>1078.2</ele>
        <time>2014-08-13T08:18:38Z</time>
      </trkpt>
      <trkpt lat="45.02107" lon="2.66747">
        <ele>1095.6</ele>
        <time>2014-08-13T08:19:51Z</time>
      </trkpt>
      <trkpt lat="45.02123" lon="2.6678">
        <ele>1098.5</ele>
        <time>2014-08-13T08:21:58Z</time>
      </trkpt>
      <trkpt lat="45.02185" lon="2.66806">
        <ele>1115.4</ele>
        <time>2014-08-13T08:23:04Z</time>
      </trkpt>
      <trkpt lat="45.02208" lon="2.66849">
        <ele>1113.8</ele>
        <time>2014-08-13T08:27:21Z</time>
      </trkpt>
      <trkpt lat="45.02258" lon="2.66866">
        <ele>1131.7</ele>
        <time>2014-08-13T08:28:39Z</time>
      </trkpt>
      <trkpt lat="45.02292" lon="2.66908">
        <ele>1134.3</ele>
        <time>2014-08-13T08:29:16Z</time>
      </trkpt>
      <trkpt lat="45.02314" lon="2.66966">
        <ele>1124.5</ele>
        <time>2014-08-13T08:29:52Z</time>
      </trkpt>
      <trkpt lat="45.0234" lon="2.6702">
        <ele>1134.3</ele>
        <time>2014-08-13T08:30:30Z</time>
      </trkpt>
      <trkpt lat="45.02357" lon="2.67079">
        <ele>1131.3</ele>
        <time>2014-08-13T08:31:08Z</time>
      </trkpt>
      <trkpt lat="45.0238" lon="2.67135">
        <ele>1124</ele>
        <time>2014-08-13T08:31:47Z</time>
      </trkpt>
      <trkpt lat="45.02392" lon="2.67199">
        <ele>1119.7</ele>
        <time>2014-08-13T08:32:32Z</time>
      </trkpt>
      <trkpt lat="45.02386" lon="2.67264">
        <ele>1117.4</ele>
        <time>2014-08-13T08:33:17Z</time>
      </trkpt>
      <trkpt lat="45.02386" lon="2.67328">
        <ele>1115.6</ele>
        <time>2014-08-13T08:33:55Z</time>
      </trkpt>
      <trkpt lat="45.02398" lon="2.67391">
        <ele>1115.6</ele>
        <time>2014-08-13T08:34:32Z</time>
      </trkpt>
      <trkpt lat="45.02416" lon="2.67461">
        <ele>1110.2</ele>
        <time>2014-08-13T08:35:09Z</time>
      </trkpt>
      <trkpt lat="45.02446" lon="2.67514">
        <ele>1113.4</ele>
        <time>2014-08-13T08:35:55Z</time>
      </trkpt>
      <trkpt lat="45.02494" lon="2.67522">
        <ele>1115.6</ele>
        <time>2014-08-13T08:36:46Z</time>
      </trkpt>
      <trkpt lat="45.0254" lon="2.67499">
        <ele>1119.5</ele>
        <time>2014-08-13T08:37:28Z</time>
      </trkpt>
      <trkpt lat="45.02569" lon="2.67456">
        <ele>1121.6</ele>
        <time>2014-08-13T08:38:14Z</time>
      </trkpt>
      <trkpt lat="45.02615" lon="2.67453">
        <ele>1127</ele>
        <time>2014-08-13T08:38:52Z</time>
      </trkpt>
      <trkpt lat="45.02656" lon="2.67475">
        <ele>1127.3</ele>
        <time>2014-08-13T08:39:24Z</time>
      </trkpt>
      <trkpt lat="45.027" lon="2.67489">
        <ele>1129.1</ele>
        <time>2014-08-13T08:40:00Z</time>
      </trkpt>
      <trkpt lat="45.02746" lon="2.67494">
        <ele>1127.2</ele>
        <time>2014-08-13T08:40:38Z</time>
      </trkpt>
      <trkpt lat="45.02775" lon="2.67503">
        <ele>1119.3</ele>
        <time>2014-08-13T08:41:04Z</time>
      </trkpt>
      <trkpt lat="45.02785" lon="2.67523">
        <ele>1119.4</ele>
        <time>2014-08-13T08:41:18Z</time>
      </trkpt>
      <trkpt lat="45.02807" lon="2.67581">
        <ele>1121.3</ele>
        <time>2014-08-13T08:41:52Z</time>
      </trkpt>
      <trkpt lat="45.02828" lon="2.67639">
        <ele>1120.1</ele>
        <time>2014-08-13T08:42:27Z</time>
      </trkpt>
      <trkpt lat="45.02851" lon="2.67666">
        <ele>1127.9</ele>
        <time>2014-08-13T08:42:50Z</time>
      </trkpt>
      <trkpt lat="45.02876" lon="2.67674">
        <ele>1124.4</ele>
        <time>2014-08-13T08:43:10Z</time>
      </trkpt>
      <trkpt lat="45.02911" lon="2.67692">
        <ele>1125</ele>
        <time>2014-08-13T08:43:48Z</time>
      </trkpt>
      <trkpt lat="45.02956" lon="2.67707">
        <ele>1129.1</ele>
        <time>2014-08-13T08:44:43Z</time>
      </trkpt>
      <trkpt lat="45.03006" lon="2.67689">
        <ele>1134.4</ele>
        <time>2014-08-13T08:45:32Z</time>
      </trkpt>
      <trkpt lat="45.03048" lon="2.6769">
        <ele>1142.4</ele>
        <time>2014-08-13T08:47:28Z</time>
      </trkpt>
      <trkpt lat="45.03009" lon="2.67642">
        <ele>1162.7</ele>
        <time>2014-08-13T08:49:18Z</time>
      </trkpt>
      <trkpt lat="45.02979" lon="2.67593">
        <ele>1166.4</ele>
        <time>2014-08-13T08:50:26Z</time>
      </trkpt>
      <trkpt lat="45.02954" lon="2.6754">
        <ele>1184.8</ele>
        <time>2014-08-13T08:51:44Z</time>
      </trkpt>
      <trkpt lat="45.02929" lon="2.67488">
        <ele>1202.8</ele>
        <time>2014-08-13T08:52:47Z</time>
      </trkpt>
      <trkpt lat="45.02905" lon="2.67432">
        <ele>1195.3</ele>
        <time>2014-08-13T08:53:58Z</time>
      </trkpt>
      <trkpt lat="45.02894" lon="2.6737">
        <ele>1208.8</ele>
        <time>2014-08-13T08:55:04Z</time>
      </trkpt>
      <trkpt lat="45.0286" lon="2.67325">
        <ele>1223</ele>
        <time>2014-08-13T08:56:11Z</time>
      </trkpt>
      <trkpt lat="45.02826" lon="2.67289">
        <ele>1216</ele>
        <time>2014-08-13T08:58:04Z</time>
      </trkpt>
      <trkpt lat="45.02779" lon="2.6727">
        <ele>1213.7</ele>
        <time>2014-08-13T08:59:16Z</time>
      </trkpt>
      <trkpt lat="45.02738" lon="2.6722">
        <ele>1221.1</ele>
        <time>2014-08-13T09:00:39Z</time>
      </trkpt>
      <trkpt lat="45.02748" lon="2.67201">
        <ele>1222.2</ele>
        <time>2014-08-13T09:06:03Z</time>
      </trkpt>
      <trkpt lat="45.02791" lon="2.67186">
        <ele>1228.3</ele>
        <time>2014-08-13T09:07:06Z</time>
      </trkpt>
      <trkpt lat="45.02837" lon="2.67187">
        <ele>1236.6</ele>
        <time>2014-08-13T09:08:27Z</time>
      </trkpt>
      <trkpt lat="45.02879" lon="2.67213">
        <ele>1240.3</ele>
        <time>2014-08-13T09:09:26Z</time>
      </trkpt>
      <trkpt lat="45.02919" lon="2.67231">
        <ele>1250.3</ele>
        <time>2014-08-13T09:10:33Z</time>
      </trkpt>
      <trkpt lat="45.02966" lon="2.67252">
        <ele>1251</ele>
        <time>2014-08-13T09:11:31Z</time>
      </trkpt>
      <trkpt lat="45.03009" lon="2.67278">
        <ele>1263.7</ele>
        <time>2014-08-13T09:13:10Z</time>
      </trkpt>
      <trkpt lat="45.03052" lon="2.67299">
        <ele>1269.4</ele>
        <time>2014-08-13T09:16:55Z</time>
      </trkpt>
      <trkpt lat="45.0307" lon="2.6729">
        <ele>1272.1</ele>
        <time>2014-08-13T09:17:50Z</time>
      </trkpt>
      <trkpt lat="45.0308" lon="2.67278">
        <ele>1274</ele>
        <time>2014-08-13T09:18:29Z</time>
      </trkpt>
      <trkpt lat="45.03076" lon="2.67209">
        <ele>1286.7</ele>
        <time>2014-08-13T09:19:33Z</time>
      </trkpt>
      <trkpt lat="45.03114" lon="2.67226">
        <ele>1297.7</ele>
        <time>2014-08-13T09:20:25Z</time>
      </trkpt>
      <trkpt lat="45.03145" lon="2.67222">
        <ele>1300.4</ele>
        <time>2014-08-13T09:21:35Z</time>
      </trkpt>
      <trkpt lat="45.03149" lon="2.67207">
        <ele>1301.4</ele>
        <time>2014-08-13T09:22:00Z</time>
      </trkpt>
      <trkpt lat="45.0312" lon="2.67144">
        <ele>1311.3</ele>
        <time>2014-08-13T09:24:01Z</time>
      </trkpt>
      <trkpt lat="45.03134" lon="2.67122">
        <ele>1313.4</ele>
        <time>2014-08-13T09:28:18Z</time>
      </trkpt>
      <trkpt lat="45.03163" lon="2.67116">
        <ele>1316.2</ele>
        <time>2014-08-13T09:34:16Z</time>
      </trkpt>
      <trkpt lat="45.03207" lon="2.67106">
        <ele>1324.7</ele>
        <time>2014-08-13T09:35:41Z</time>
      </trkpt>
      <trkpt lat="45.03252" lon="2.67089">
        <ele>1333.5</ele>
        <time>2014-08-13T09:37:01Z</time>
      </trkpt>
      <trkpt lat="45.03291" lon="2.67059">
        <ele>1348</ele>
        <time>2014-08-13T09:38:24Z</time>
      </trkpt>
      <trkpt lat="45.03333" lon="2.67032">
        <ele>1353.1</ele>
        <time>2014-08-13T09:39:37Z</time>
      </trkpt>
      <trkpt lat="45.03378" lon="2.67025">
        <ele>1363.8</ele>
        <time>2014-08-13T09:40:37Z</time>
      </trkpt>
      <trkpt lat="45.03423" lon="2.67036">
        <ele>1372.2</ele>
        <time>2014-08-13T09:41:38Z</time>
      </trkpt>
      <trkpt lat="45.03442" lon="2.6702">
        <ele>-1</ele>
        <time>2014-08-13T09:42:13Z</time>
      </trkpt>
      <trkpt lat="45.03391" lon="2.66987">
        <ele>1376.7</ele>
        <time>2014-08-13T09:43:43Z</time>
      </trkpt>
      <trkpt lat="45.03359" lon="2.66958">
        <ele>1379</ele>
        <time>2014-08-13T09:45:34Z</time>
      </trkpt>
      <trkpt lat="45.03355" lon="2.66883">
        <ele>1378.6</ele>
        <time>2014-08-13T09:46:20Z</time>
      </trkpt>
      <trkpt lat="45.03357" lon="2.66818">
        <ele>1377</ele>
        <time>2014-08-13T09:47:11Z</time>
      </trkpt>
      <trkpt lat="45.03377" lon="2.66755">
        <ele>1376.4</ele>
        <time>2014-08-13T09:48:11Z</time>
      </trkpt>
      <trkpt lat="45.034" lon="2.667">
        <ele>1376.3</ele>
        <time>2014-08-13T09:49:03Z</time>
      </trkpt>
      <trkpt lat="45.03423" lon="2.66643">
        <ele>1384.4</ele>
        <time>2014-08-13T09:50:29Z</time>
      </trkpt>
      <trkpt lat="45.03437" lon="2.66582">
        <ele>1384.1</ele>
        <time>2014-08-13T09:51:18Z</time>
      </trkpt>
      <trkpt lat="45.03446" lon="2.66519">
        <ele>1383.4</ele>
        <time>2014-08-13T09:52:09Z</time>
      </trkpt>
      <trkpt lat="45.03454" lon="2.66453">
        <ele>1380.9</ele>
        <time>2014-08-13T09:53:09Z</time>
      </trkpt>
      <trkpt lat="45.0347" lon="2.66409">
        <ele>1379.6</ele>
        <time>2014-08-13T09:54:10Z</time>
      </trkpt>
      <trkpt lat="45.03498" lon="2.66473">
        <ele>1389.5</ele>
        <time>2014-08-13T09:55:44Z</time>
      </trkpt>
      <trkpt lat="45.03522" lon="2.66529">
        <ele>1401.8</ele>
        <time>2014-08-13T09:56:37Z</time>
      </trkpt>
      <trkpt lat="45.03545" lon="2.66581">
        <ele>1408.5</ele>
        <time>2014-08-13T09:57:56Z</time>
      </trkpt>
      <trkpt lat="45.03573" lon="2.66631">
        <ele>1418.1</ele>
        <time>2014-08-13T09:58:55Z</time>
      </trkpt>
      <trkpt lat="45.03593" lon="2.66688">
        <ele>1432</ele>
        <time>2014-08-13T09:59:56Z</time>
      </trkpt>
      <trkpt lat="45.03618" lon="2.66745">
        <ele>1433.9</ele>
        <time>2014-08-13T10:00:58Z</time>
      </trkpt>
      <trkpt lat="45.03646" lon="2.66795">
        <ele>1437.8</ele>
        <time>2014-08-13T10:01:56Z</time>
      </trkpt>
      <trkpt lat="45.0366" lon="2.66848">
        <ele>1439.7</ele>
        <time>2014-08-13T10:02:57Z</time>
      </trkpt>
      <trkpt lat="45.03653" lon="2.66881">
        <ele>1441</ele>
        <time>2014-08-13T10:03:58Z</time>
      </trkpt>
      <trkpt lat="45.03748" lon="2.66935">
        <ele>1450</ele>
        <time>2014-08-13T10:05:07Z</time>
      </trkpt>
      <trkpt lat="45.03795" lon="2.66959">
        <ele>1463.2</ele>
        <time>2014-08-13T10:06:12Z</time>
      </trkpt>
      <trkpt lat="45.03826" lon="2.66982">
        <ele>1468.2</ele>
        <time>2014-08-13T10:07:14Z</time>
      </trkpt>
      <trkpt lat="45.03884" lon="2.67044">
        <ele>1483</ele>
        <time>2014-08-13T10:09:14Z</time>
      </trkpt>
      <trkpt lat="45.0392" lon="2.67093">
        <ele>1480</ele>
        <time>2014-08-13T10:10:14Z</time>
      </trkpt>
      <trkpt lat="45.03953" lon="2.67091">
        <ele>1479.5</ele>
        <time>2014-08-13T10:10:29Z</time>
      </trkpt>
      <trkpt lat="45.04024" lon="2.67006">
        <ele>1483.2</ele>
        <time>2014-08-13T10:11:15Z</time>
      </trkpt>
      <trkpt lat="45.04055" lon="2.66948">
        <ele>1493</ele>
        <time>2014-08-13T10:14:32Z</time>
      </trkpt>
      <trkpt lat="45.04098" lon="2.66918">
        <ele>1492</ele>
        <time>2014-08-13T10:15:13Z</time>
      </trkpt>
      <trkpt lat="45.04122" lon="2.66871">
        <ele>1496.8</ele>
        <time>2014-08-13T10:15:51Z</time>
      </trkpt>
      <trkpt lat="45.04171" lon="2.6684">
        <ele>1501.1</ele>
        <time>2014-08-13T10:16:30Z</time>
      </trkpt>
      <trkpt lat="45.04211" lon="2.66817">
        <ele>1499.2</ele>
        <time>2014-08-13T10:17:55Z</time>
      </trkpt>
      <trkpt lat="45.04256" lon="2.66809">
        <ele>1503</ele>
        <time>2014-08-13T10:18:38Z</time>
      </trkpt>
      <trkpt lat="45.04298" lon="2.6678">
        <ele>1500.5</ele>
        <time>2014-08-13T10:19:22Z</time>
      </trkpt>
      <trkpt lat="45.0434" lon="2.66756">
        <ele>1499.4</ele>
        <time>2014-08-13T10:20:06Z</time>
      </trkpt>
      <trkpt lat="45.04384" lon="2.66745">
        <ele>1487.3</ele>
        <time>2014-08-13T10:22:02Z</time>
      </trkpt>
      <trkpt lat="45.04429" lon="2.66759">
        <ele>1498.3</ele>
        <time>2014-08-13T10:22:56Z</time>
      </trkpt>
      <trkpt lat="45.04474" lon="2.66757">
        <ele>1499.5</ele>
        <time>2014-08-13T10:23:48Z</time>
      </trkpt>
      <trkpt lat="45.04519" lon="2.6675">
        <ele>1494.1</ele>
        <time>2014-08-13T10:24:44Z</time>
      </trkpt>
      <trkpt lat="45.04565" lon="2.6675">
        <ele>1504.6</ele>
        <time>2014-08-13T10:25:38Z</time>
      </trkpt>
      <trkpt lat="45.04612" lon="2.6676">
        <ele>1507.4</ele>
        <time>2014-08-13T10:26:35Z</time>
      </trkpt>
      <trkpt lat="45.04654" lon="2.66759">
        <ele>1510</ele>
        <time>2014-08-13T10:27:31Z</time>
      </trkpt>
      <trkpt lat="45.0468" lon="2.66748">
        <ele>1500</ele>
        <time>2014-08-13T10:27:53Z</time>
      </trkpt>
      <trkpt lat="45.04701" lon="2.66763">
        <ele>1502.9</ele>
        <time>2014-08-13T10:28:12Z</time>
      </trkpt>
      <trkpt lat="45.04745" lon="2.66764">
        <ele>1499.6</ele>
        <time>2014-08-13T10:29:53Z</time>
      </trkpt>
      <trkpt lat="45.04789" lon="2.66744">
        <ele>1492.9</ele>
        <time>2014-08-13T10:31:03Z</time>
      </trkpt>
      <trkpt lat="45.04819" lon="2.667">
        <ele>1490.2</ele>
        <time>2014-08-13T10:31:47Z</time>
      </trkpt>
      <trkpt lat="45.04844" lon="2.66675">
        <ele>1487.4</ele>
        <time>2014-08-13T10:32:28Z</time>
      </trkpt>
      <trkpt lat="45.04872" lon="2.66659">
        <ele>1488</ele>
        <time>2014-08-13T10:35:33Z</time>
      </trkpt>
      <trkpt lat="45.04897" lon="2.66658">
        <ele>1486.6</ele>
        <time>2014-08-13T10:38:03Z</time>
      </trkpt>
      <trkpt lat="45.04911" lon="2.6668">
        <ele>1483.7</ele>
        <time>2014-08-13T10:38:28Z</time>
      </trkpt>
      <trkpt lat="45.04929" lon="2.66694">
        <ele>1479.6</ele>
        <time>2014-08-13T10:38:53Z</time>
      </trkpt>
      <trkpt lat="45.04968" lon="2.66702">
        <ele>1477.4</ele>
        <time>2014-08-13T10:39:40Z</time>
      </trkpt>
      <trkpt lat="45.04998" lon="2.667">
        <ele>1478.3</ele>
        <time>2014-08-13T10:42:52Z</time>
      </trkpt>
      <trkpt lat="45.05022" lon="2.66704">
        <ele>1479.3</ele>
        <time>2014-08-13T10:45:31Z</time>
      </trkpt>
      <trkpt lat="45.05045" lon="2.66745">
        <ele>1480.4</ele>
        <time>2014-08-13T10:47:12Z</time>
      </trkpt>
      <trkpt lat="45.05074" lon="2.6674">
        <ele>1480.3</ele>
        <time>2014-08-13T10:47:42Z</time>
      </trkpt>
      <trkpt lat="45.05092" lon="2.6675">
        <ele>1485.6</ele>
        <time>2014-08-13T10:48:01Z</time>
      </trkpt>
      <trkpt lat="45.05091" lon="2.66787">
        <ele>1469.6</ele>
        <time>2014-08-13T10:48:32Z</time>
      </trkpt>
      <trkpt lat="45.05107" lon="2.66814">
        <ele>1464.3</ele>
        <time>2014-08-13T10:49:23Z</time>
      </trkpt>
      <trkpt lat="45.05123" lon="2.66826">
        <ele>1460.5</ele>
        <time>2014-08-13T10:50:01Z</time>
      </trkpt>
      <trkpt lat="45.05154" lon="2.66871">
        <ele>1443.3</ele>
        <time>2014-08-13T10:51:09Z</time>
      </trkpt>
      <trkpt lat="45.05173" lon="2.66866">
        <ele>1445.9</ele>
        <time>2014-08-13T10:51:33Z</time>
      </trkpt>
      <trkpt lat="45.05185" lon="2.66886">
        <ele>1443.8</ele>
        <time>2014-08-13T10:51:57Z</time>
      </trkpt>
      <trkpt lat="45.05193" lon="2.66917">
        <ele>1432.9</ele>
        <time>2014-08-13T10:52:29Z</time>
      </trkpt>
      <trkpt lat="45.05205" lon="2.66943">
        <ele>1428.9</ele>
        <time>2014-08-13T10:52:51Z</time>
      </trkpt>
      <trkpt lat="45.05222" lon="2.66968">
        <ele>1424.5</ele>
        <time>2014-08-13T10:53:16Z</time>
      </trkpt>
      <trkpt lat="45.05267" lon="2.66989">
        <ele>1407.5</ele>
        <time>2014-08-13T10:54:20Z</time>
      </trkpt>
      <trkpt lat="45.05308" lon="2.67016">
        <ele>1395</ele>
        <time>2014-08-13T10:55:01Z</time>
      </trkpt>
      <trkpt lat="45.05308" lon="2.67016">
        <ele>1395</ele>
        <time>2014-08-13T12:03:52Z</time>
      </trkpt>
      <trkpt lat="45.05306" lon="2.67024">
        <ele>1395</ele>
        <time>2014-08-13T12:03:52Z</time>
      </trkpt>
      <trkpt lat="45.05333" lon="2.6704">
        <ele>1382.9</ele>
        <time>2014-08-13T12:04:39Z</time>
      </trkpt>
      <trkpt lat="45.05364" lon="2.67064">
        <ele>1368.6</ele>
        <time>2014-08-13T12:05:36Z</time>
      </trkpt>
      <trkpt lat="45.05378" lon="2.67083">
        <ele>1363.9</ele>
        <time>2014-08-13T12:06:31Z</time>
      </trkpt>
      <trkpt lat="45.05392" lon="2.67097">
        <ele>1359.6</ele>
        <time>2014-08-13T12:06:40Z</time>
      </trkpt>
      <trkpt lat="45.05418" lon="2.67091">
        <ele>1345.3</ele>
        <time>2014-08-13T12:06:57Z</time>
      </trkpt>
      <trkpt lat="45.05443" lon="2.67092">
        <ele>1342.1</ele>
        <time>2014-08-13T12:07:11Z</time>
      </trkpt>
      <trkpt lat="45.05475" lon="2.67138">
        <ele>1336.3</ele>
        <time>2014-08-13T12:08:15Z</time>
      </trkpt>
      <trkpt lat="45.05508" lon="2.67183">
        <ele>1325.5</ele>
        <time>2014-08-13T12:09:04Z</time>
      </trkpt>
      <trkpt lat="45.05548" lon="2.67219">
        <ele>1323</ele>
        <time>2014-08-13T12:10:04Z</time>
      </trkpt>
      <trkpt lat="45.05593" lon="2.67231">
        <ele>1319.6</ele>
        <time>2014-08-13T12:10:57Z</time>
      </trkpt>
      <trkpt lat="45.05638" lon="2.67235">
        <ele>1317.8</ele>
        <time>2014-08-13T12:11:34Z</time>
      </trkpt>
      <trkpt lat="45.05683" lon="2.67246">
        <ele>1309.4</ele>
        <time>2014-08-13T12:12:30Z</time>
      </trkpt>
      <trkpt lat="45.05722" lon="2.67279">
        <ele>1306.7</ele>
        <time>2014-08-13T12:13:15Z</time>
      </trkpt>
      <trkpt lat="45.05759" lon="2.67321">
        <ele>1296.1</ele>
        <time>2014-08-13T12:14:00Z</time>
      </trkpt>
      <trkpt lat="45.05798" lon="2.67338">
        <ele>1301.4</ele>
        <time>2014-08-13T12:15:06Z</time>
      </trkpt>
      <trkpt lat="45.05821" lon="2.67345">
        <ele>1301.8</ele>
        <time>2014-08-13T12:15:28Z</time>
      </trkpt>
      <trkpt lat="45.0581" lon="2.67367">
        <ele>1302.1</ele>
        <time>2014-08-13T12:15:46Z</time>
      </trkpt>
      <trkpt lat="45.05827" lon="2.67397">
        <ele>1302.6</ele>
        <time>2014-08-13T12:16:13Z</time>
      </trkpt>
      <trkpt lat="45.05865" lon="2.67438">
        <ele>1303</ele>
        <time>2014-08-13T12:17:14Z</time>
      </trkpt>
      <trkpt lat="45.05892" lon="2.67498">
        <ele>1305</ele>
        <time>2014-08-13T12:17:56Z</time>
      </trkpt>
      <trkpt lat="45.05937" lon="2.67509">
        <ele>1308.8</ele>
        <time>2014-08-13T12:18:41Z</time>
      </trkpt>
      <trkpt lat="45.06002" lon="2.67562">
        <ele>1313.5</ele>
        <time>2014-08-13T12:19:59Z</time>
      </trkpt>
      <trkpt lat="45.06041" lon="2.67553">
        <ele>1315</ele>
        <time>2014-08-13T12:20:56Z</time>
      </trkpt>
      <trkpt lat="45.06073" lon="2.67549">
        <ele>1316.9</ele>
        <time>2014-08-13T12:21:41Z</time>
      </trkpt>
      <trkpt lat="45.06135" lon="2.67546">
        <ele>1323.2</ele>
        <time>2014-08-13T12:22:30Z</time>
      </trkpt>
      <trkpt lat="45.06162" lon="2.67527">
        <ele>1324.9</ele>
        <time>2014-08-13T12:23:04Z</time>
      </trkpt>
      <trkpt lat="45.0621" lon="2.67489">
        <ele>1327.5</ele>
        <time>2014-08-13T12:23:50Z</time>
      </trkpt>
      <trkpt lat="45.06253" lon="2.67471">
        <ele>1337.9</ele>
        <time>2014-08-13T12:24:36Z</time>
      </trkpt>
      <trkpt lat="45.06279" lon="2.67407">
        <ele>1322.5</ele>
        <time>2014-08-13T12:25:17Z</time>
      </trkpt>
      <trkpt lat="45.06312" lon="2.67382">
        <ele>1318.5</ele>
        <time>2014-08-13T12:26:06Z</time>
      </trkpt>
      <trkpt lat="45.0635" lon="2.67349">
        <ele>1320.7</ele>
        <time>2014-08-13T12:26:35Z</time>
      </trkpt>
      <trkpt lat="45.06375" lon="2.67287">
        <ele>1306.9</ele>
        <time>2014-08-13T12:27:20Z</time>
      </trkpt>
      <trkpt lat="45.06408" lon="2.67241">
        <ele>1286.3</ele>
        <time>2014-08-13T12:27:58Z</time>
      </trkpt>
      <trkpt lat="45.06451" lon="2.6722">
        <ele>1280.3</ele>
        <time>2014-08-13T12:28:45Z</time>
      </trkpt>
      <trkpt lat="45.06497" lon="2.67224">
        <ele>1275.5</ele>
        <time>2014-08-13T12:29:21Z</time>
      </trkpt>
      <trkpt lat="45.0654" lon="2.67245">
        <ele>1268.9</ele>
        <time>2014-08-13T12:30:18Z</time>
      </trkpt>
      <trkpt lat="45.06585" lon="2.67264">
        <ele>1274</ele>
        <time>2014-08-13T12:30:55Z</time>
      </trkpt>
      <trkpt lat="45.06629" lon="2.67279">
        <ele>1273.5</ele>
        <time>2014-08-13T12:31:59Z</time>
      </trkpt>
      <trkpt lat="45.06707" lon="2.6732">
        <ele>1271.3</ele>
        <time>2014-08-13T12:32:35Z</time>
      </trkpt>
      <trkpt lat="45.06631" lon="2.67261">
        <ele>1266.1</ele>
        <time>2014-08-13T12:33:42Z</time>
      </trkpt>
      <trkpt lat="45.06591" lon="2.67228">
        <ele>1249.3</ele>
        <time>2014-08-13T12:34:22Z</time>
      </trkpt>
      <trkpt lat="45.06555" lon="2.67189">
        <ele>1253.5</ele>
        <time>2014-08-13T12:34:58Z</time>
      </trkpt>
      <trkpt lat="45.06527" lon="2.67139">
        <ele>1240.6</ele>
        <time>2014-08-13T12:36:52Z</time>
      </trkpt>
      <trkpt lat="45.06476" lon="2.67123">
        <ele>1245.8</ele>
        <time>2014-08-13T12:37:23Z</time>
      </trkpt>
      <trkpt lat="45.06441" lon="2.67091">
        <ele>1241.5</ele>
        <time>2014-08-13T12:37:59Z</time>
      </trkpt>
      <trkpt lat="45.06398" lon="2.67064">
        <ele>1230.2</ele>
        <time>2014-08-13T12:38:39Z</time>
      </trkpt>
      <trkpt lat="45.06368" lon="2.67062">
        <ele>1227.3</ele>
        <time>2014-08-13T12:39:40Z</time>
      </trkpt>
      <trkpt lat="45.06355" lon="2.67083">
        <ele>1226.7</ele>
        <time>2014-08-13T12:40:19Z</time>
      </trkpt>
      <trkpt lat="45.06327" lon="2.67148">
        <ele>1228.5</ele>
        <time>2014-08-13T12:40:56Z</time>
      </trkpt>
      <trkpt lat="45.0634" lon="2.67076">
        <ele>1223</ele>
        <time>2014-08-13T12:42:05Z</time>
      </trkpt>
      <trkpt lat="45.06344" lon="2.67012">
        <ele>1216.2</ele>
        <time>2014-08-13T12:42:40Z</time>
      </trkpt>
      <trkpt lat="45.06354" lon="2.66973">
        <ele>1204.2</ele>
        <time>2014-08-13T12:43:04Z</time>
      </trkpt>
      <trkpt lat="45.06371" lon="2.66962">
        <ele>1201.5</ele>
        <time>2014-08-13T12:43:19Z</time>
      </trkpt>
      <trkpt lat="45.06363" lon="2.66933">
        <ele>1198.2</ele>
        <time>2014-08-13T12:46:00Z</time>
      </trkpt>
      <trkpt lat="45.06347" lon="2.66912">
        <ele>1189.1</ele>
        <time>2014-08-13T12:48:47Z</time>
      </trkpt>
      <trkpt lat="45.06386" lon="2.66898">
        <ele>1184.7</ele>
        <time>2014-08-13T12:53:40Z</time>
      </trkpt>
      <trkpt lat="45.06431" lon="2.66908">
        <ele>1175.6</ele>
        <time>2014-08-13T12:54:22Z</time>
      </trkpt>
      <trkpt lat="45.06475" lon="2.66927">
        <ele>1180.1</ele>
        <time>2014-08-13T12:54:59Z</time>
      </trkpt>
      <trkpt lat="45.06514" lon="2.66905">
        <ele>1169.5</ele>
        <time>2014-08-13T12:55:37Z</time>
      </trkpt>
      <trkpt lat="45.0656" lon="2.66888">
        <ele>1165.8</ele>
        <time>2014-08-13T12:56:12Z</time>
      </trkpt>
      <trkpt lat="45.06597" lon="2.66928">
        <ele>1160.5</ele>
        <time>2014-08-13T12:56:48Z</time>
      </trkpt>
      <trkpt lat="45.0664" lon="2.66946">
        <ele>1157.2</ele>
        <time>2014-08-13T12:57:33Z</time>
      </trkpt>
      <trkpt lat="45.06686" lon="2.66936">
        <ele>1147.2</ele>
        <time>2014-08-13T12:58:15Z</time>
      </trkpt>
      <trkpt lat="45.06732" lon="2.6694">
        <ele>1145.1</ele>
        <time>2014-08-13T12:58:56Z</time>
      </trkpt>
      <trkpt lat="45.06755" lon="2.66935">
        <ele>1142</ele>
        <time>2014-08-13T12:59:29Z</time>
      </trkpt>
      <trkpt lat="45.06776" lon="2.66942">
        <ele>1141</ele>
        <time>2014-08-13T13:00:02Z</time>
      </trkpt>
      <trkpt lat="45.06807" lon="2.66983">
        <ele>1139.1</ele>
        <time>2014-08-13T13:01:25Z</time>
      </trkpt>
      <trkpt lat="45.0685" lon="2.67001">
        <ele>1135.9</ele>
        <time>2014-08-13T13:02:13Z</time>
      </trkpt>
      <trkpt lat="45.06888" lon="2.67036">
        <ele>1132.8</ele>
        <time>2014-08-13T13:03:00Z</time>
      </trkpt>
      <trkpt lat="45.06926" lon="2.6707">
        <ele>1121.7</ele>
        <time>2014-08-13T13:03:53Z</time>
      </trkpt>
      <trkpt lat="45.06904" lon="2.67126">
        <ele>1137.3</ele>
        <time>2014-08-13T13:05:24Z</time>
      </trkpt>
      <trkpt lat="45.06968" lon="2.67181">
        <ele>1130</ele>
        <time>2014-08-13T13:05:57Z</time>
      </trkpt>
      <trkpt lat="45.07011" lon="2.6716">
        <ele>1105</ele>
        <time>2014-08-13T13:06:19Z</time>
      </trkpt>
      <trkpt lat="45.07055" lon="2.67139">
        <ele>1093.7</ele>
        <time>2014-08-13T13:07:46Z</time>
      </trkpt>
      <trkpt lat="45.071" lon="2.67132">
        <ele>1077.7</ele>
        <time>2014-08-13T13:08:22Z</time>
      </trkpt>
      <trkpt lat="45.07146" lon="2.6712">
        <ele>1071.2</ele>
        <time>2014-08-13T13:09:11Z</time>
      </trkpt>
      <trkpt lat="45.07192" lon="2.67133">
        <ele>1059.6</ele>
        <time>2014-08-13T13:10:14Z</time>
      </trkpt>
      <trkpt lat="45.07236" lon="2.67114">
        <ele>1056.1</ele>
        <time>2014-08-13T13:12:08Z</time>
      </trkpt>
      <trkpt lat="45.07275" lon="2.6713">
        <ele>1046.2</ele>
        <time>2014-08-13T13:12:42Z</time>
      </trkpt>
      <trkpt lat="45.07292" lon="2.67079">
        <ele>1040.7</ele>
        <time>2014-08-13T13:13:21Z</time>
      </trkpt>
      <trkpt lat="45.07312" lon="2.67001">
        <ele>1035</ele>
        <time>2014-08-13T13:14:11Z</time>
      </trkpt>
      <trkpt lat="45.07326" lon="2.66924">
        <ele>1032.3</ele>
        <time>2014-08-13T13:14:47Z</time>
      </trkpt>
      <trkpt lat="45.0732" lon="2.66898">
        <ele>1028.4</ele>
        <time>2014-08-13T13:16:20Z</time>
      </trkpt>
      <trkpt lat="45.07268" lon="2.66844">
        <ele>1024.5</ele>
        <time>2014-08-13T13:17:03Z</time>
      </trkpt>
      <trkpt lat="45.0726" lon="2.66781">
        <ele>1010.1</ele>
        <time>2014-08-13T13:17:40Z</time>
      </trkpt>
      <trkpt lat="45.07224" lon="2.66742">
        <ele>1003</ele>
        <time>2014-08-13T13:18:28Z</time>
      </trkpt>
      <trkpt lat="45.07221" lon="2.66679">
        <ele>996.4</ele>
        <time>2014-08-13T13:19:11Z</time>
      </trkpt>
      <trkpt lat="45.07208" lon="2.66651">
        <ele>988.3</ele>
        <time>2014-08-13T13:20:13Z</time>
      </trkpt>
      <trkpt lat="45.07188" lon="2.66625">
        <ele>984.3</ele>
        <time>2014-08-13T13:20:54Z</time>
      </trkpt>
      <trkpt lat="45.07195" lon="2.66573">
        <ele>972.5</ele>
        <time>2014-08-13T13:21:32Z</time>
      </trkpt>
      <trkpt lat="45.07177" lon="2.66529">
        <ele>969.5</ele>
        <time>2014-08-13T13:22:08Z</time>
      </trkpt>
      <trkpt lat="45.07154" lon="2.66474">
        <ele>963</ele>
        <time>2014-08-13T13:22:57Z</time>
      </trkpt>
      <trkpt lat="45.07125" lon="2.66425">
        <ele>960</ele>
        <time>2014-08-13T13:23:19Z</time>
      </trkpt>
      <trkpt lat="45.07088" lon="2.66387">
        <ele>948.3</ele>
        <time>2014-08-13T13:24:00Z</time>
      </trkpt>
      <trkpt lat="45.07064" lon="2.66327">
        <ele>942.2</ele>
        <time>2014-08-13T13:24:28Z</time>
      </trkpt>
      <trkpt lat="45.0704" lon="2.66289">
        <ele>938.3</ele>
        <time>2014-08-13T13:24:56Z</time>
      </trkpt>
      <trkpt lat="45.07017" lon="2.66232">
        <ele>933.9</ele>
        <time>2014-08-13T13:25:30Z</time>
      </trkpt>
      <trkpt lat="45.07004" lon="2.66174">
        <ele>932.9</ele>
        <time>2014-08-13T13:26:23Z</time>
      </trkpt>
      <trkpt lat="45.07042" lon="2.66117">
        <ele>930.8</ele>
        <time>2014-08-13T13:27:52Z</time>
      </trkpt>
      <trkpt lat="45.07019" lon="2.66097">
        <ele>930.6</ele>
        <time>2014-08-13T13:28:27Z</time>
      </trkpt>
      <trkpt lat="45.07006" lon="2.66073">
        <ele>929.4</ele>
        <time>2014-08-13T13:28:57Z</time>
      </trkpt>
      <trkpt lat="45.06995" lon="2.66009">
        <ele>930.1</ele>
        <time>2014-08-13T13:29:32Z</time>
      </trkpt>
      <trkpt lat="45.0697" lon="2.65955">
        <ele>927.8</ele>
        <time>2014-08-13T13:30:14Z</time>
      </trkpt>
      <trkpt lat="45.06961" lon="2.65892">
        <ele>926.6</ele>
        <time>2014-08-13T13:31:00Z</time>
      </trkpt>
      <trkpt lat="45.06934" lon="2.65839">
        <ele>925.8</ele>
        <time>2014-08-13T13:31:38Z</time>
      </trkpt>
      <trkpt lat="45.06915" lon="2.6578">
        <ele>928.1</ele>
        <time>2014-08-13T13:32:22Z</time>
      </trkpt>
      <trkpt lat="45.06957" lon="2.65778">
        <ele>928.9</ele>
        <time>2014-08-13T13:33:35Z</time>
      </trkpt>
      <trkpt lat="45.07" lon="2.65739">
        <ele>946</ele>
        <time>2014-08-13T13:34:39Z</time>
      </trkpt>
      <trkpt lat="45.07" lon="2.65739">
        <ele>946</ele>
        <time>2014-08-13T14:49:42Z</time>
      </trkpt>
      <trkpt lat="45.06999" lon="2.65729">
        <ele>929</ele>
        <time>2014-08-13T14:49:42Z</time>
      </trkpt>
      <trkpt lat="45.06988" lon="2.65714">
        <ele>931.4</ele>
        <time>2014-08-13T14:49:53Z</time>
      </trkpt>
      <trkpt lat="45.07032" lon="2.65672">
        <ele>940</ele>
        <time>2014-08-13T14:51:06Z</time>
      </trkpt>
      <trkpt lat="45.07035" lon="2.65645">
        <ele>945.5</ele>
        <time>2014-08-13T14:52:42Z</time>
      </trkpt>
      <trkpt lat="45.07006" lon="2.65611">
        <ele>948.4</ele>
        <time>2014-08-13T14:53:09Z</time>
      </trkpt>
      <trkpt lat="45.06983" lon="2.65563">
        <ele>950.6</ele>
        <time>2014-08-13T14:53:40Z</time>
      </trkpt>
      <trkpt lat="45.06951" lon="2.6553">
        <ele>950.9</ele>
        <time>2014-08-13T14:54:26Z</time>
      </trkpt>
      <trkpt lat="45.06916" lon="2.65499">
        <ele>948.9</ele>
        <time>2014-08-13T14:55:02Z</time>
      </trkpt>
      <trkpt lat="45.06885" lon="2.65433">
        <ele>948.5</ele>
        <time>2014-08-13T14:55:42Z</time>
      </trkpt>
      <trkpt lat="45.06862" lon="2.65376">
        <ele>950.9</ele>
        <time>2014-08-13T14:56:20Z</time>
      </trkpt>
      <trkpt lat="45.06855" lon="2.65333">
        <ele>951.9</ele>
        <time>2014-08-13T14:57:01Z</time>
      </trkpt>
      <trkpt lat="45.06848" lon="2.65269">
        <ele>952.9</ele>
        <time>2014-08-13T14:57:47Z</time>
      </trkpt>
      <trkpt lat="45.06847" lon="2.65205">
        <ele>954.3</ele>
        <time>2014-08-13T14:59:00Z</time>
      </trkpt>
      <trkpt lat="45.06839" lon="2.65142">
        <ele>955.4</ele>
        <time>2014-08-13T14:59:38Z</time>
      </trkpt>
      <trkpt lat="45.06825" lon="2.65076">
        <ele>949.3</ele>
        <time>2014-08-13T15:00:45Z</time>
      </trkpt>
      <trkpt lat="45.06798" lon="2.65025">
        <ele>947.7</ele>
        <time>2014-08-13T15:01:14Z</time>
      </trkpt>
      <trkpt lat="45.06776" lon="2.64969">
        <ele>947</ele>
        <time>2014-08-13T15:01:48Z</time>
      </trkpt>
      <trkpt lat="45.06759" lon="2.6491">
        <ele>946.4</ele>
        <time>2014-08-13T15:02:40Z</time>
      </trkpt>
      <trkpt lat="45.0676" lon="2.64846">
        <ele>946.5</ele>
        <time>2014-08-13T15:03:52Z</time>
      </trkpt>
      <trkpt lat="45.06754" lon="2.64782">
        <ele>949.2</ele>
        <time>2014-08-13T15:04:42Z</time>
      </trkpt>
      <trkpt lat="45.06736" lon="2.64724">
        <ele>939.4</ele>
        <time>2014-08-13T15:06:26Z</time>
      </trkpt>
      <trkpt lat="45.06692" lon="2.64707">
        <ele>934.6</ele>
        <time>2014-08-13T15:07:20Z</time>
      </trkpt>
      <trkpt lat="45.06648" lon="2.6472">
        <ele>918.2</ele>
        <time>2014-08-13T15:08:38Z</time>
      </trkpt>
      <trkpt lat="45.06654" lon="2.64784">
        <ele>911</ele>
        <time>2014-08-13T15:10:42Z</time>
      </trkpt>
      <trkpt lat="45.06654" lon="2.6479">
        <ele>911</ele>
        <time>2014-08-14T06:21:30Z</time>
      </trkpt>
      <trkpt lat="45.06658" lon="2.64757">
        <ele>917.3</ele>
        <time>2014-08-14T06:21:34Z</time>
      </trkpt>
      <trkpt lat="45.06688" lon="2.64708">
        <ele>929.7</ele>
        <time>2014-08-14T06:22:53Z</time>
      </trkpt>
      <trkpt lat="45.06733" lon="2.64724">
        <ele>936</ele>
        <time>2014-08-14T06:23:55Z</time>
      </trkpt>
      <trkpt lat="45.06723" lon="2.64661">
        <ele>946.6</ele>
        <time>2014-08-14T06:25:58Z</time>
      </trkpt>
      <trkpt lat="45.0671" lon="2.646">
        <ele>949.8</ele>
        <time>2014-08-14T06:26:40Z</time>
      </trkpt>
      <trkpt lat="45.06695" lon="2.6454">
        <ele>953.7</ele>
        <time>2014-08-14T06:27:26Z</time>
      </trkpt>
      <trkpt lat="45.06686" lon="2.64477">
        <ele>954.9</ele>
        <time>2014-08-14T06:28:16Z</time>
      </trkpt>
      <trkpt lat="45.06666" lon="2.64417">
        <ele>942.7</ele>
        <time>2014-08-14T06:28:55Z</time>
      </trkpt>
      <trkpt lat="45.06654" lon="2.64386">
        <ele>942.3</ele>
        <time>2014-08-14T06:29:14Z</time>
      </trkpt>
      <trkpt lat="45.06626" lon="2.64369">
        <ele>939.7</ele>
        <time>2014-08-14T06:29:39Z</time>
      </trkpt>
      <trkpt lat="45.06604" lon="2.64322">
        <ele>942</ele>
        <time>2014-08-14T06:30:14Z</time>
      </trkpt>
      <trkpt lat="45.06591" lon="2.64261">
        <ele>941.2</ele>
        <time>2014-08-14T06:30:51Z</time>
      </trkpt>
      <trkpt lat="45.06589" lon="2.64195">
        <ele>941.6</ele>
        <time>2014-08-14T06:31:30Z</time>
      </trkpt>
      <trkpt lat="45.0659" lon="2.64161">
        <ele>937.4</ele>
        <time>2014-08-14T06:31:51Z</time>
      </trkpt>
      <trkpt lat="45.06572" lon="2.64135">
        <ele>926.3</ele>
        <time>2014-08-14T06:32:17Z</time>
      </trkpt>
      <trkpt lat="45.06527" lon="2.6414">
        <ele>920.7</ele>
        <time>2014-08-14T06:32:55Z</time>
      </trkpt>
      <trkpt lat="45.06503" lon="2.64145">
        <ele>917.8</ele>
        <time>2014-08-14T06:33:13Z</time>
      </trkpt>
      <trkpt lat="45.06483" lon="2.64123">
        <ele>913.6</ele>
        <time>2014-08-14T06:33:32Z</time>
      </trkpt>
      <trkpt lat="45.06471" lon="2.64062">
        <ele>910.5</ele>
        <time>2014-08-14T06:34:09Z</time>
      </trkpt>
      <trkpt lat="45.06462" lon="2.64016">
        <ele>908.9</ele>
        <time>2014-08-14T06:34:48Z</time>
      </trkpt>
      <trkpt lat="45.06446" lon="2.64022">
        <ele>908.1</ele>
        <time>2014-08-14T06:35:06Z</time>
      </trkpt>
      <trkpt lat="45.06434" lon="2.6402">
        <ele>907.6</ele>
        <time>2014-08-14T06:35:21Z</time>
      </trkpt>
      <trkpt lat="45.06394" lon="2.64051">
        <ele>902</ele>
        <time>2014-08-14T06:36:16Z</time>
      </trkpt>
      <trkpt lat="45.06384" lon="2.64077">
        <ele>901.1</ele>
        <time>2014-08-14T06:36:39Z</time>
      </trkpt>
      <trkpt lat="45.06379" lon="2.64131">
        <ele>899.9</ele>
        <time>2014-08-14T06:37:21Z</time>
      </trkpt>
      <trkpt lat="45.06351" lon="2.64059">
        <ele>898.1</ele>
        <time>2014-08-14T06:38:04Z</time>
      </trkpt>
      <trkpt lat="45.0636" lon="2.63995">
        <ele>896.9</ele>
        <time>2014-08-14T06:38:41Z</time>
      </trkpt>
      <trkpt lat="45.06351" lon="2.63927">
        <ele>896.4</ele>
        <time>2014-08-14T06:39:42Z</time>
      </trkpt>
      <trkpt lat="45.06322" lon="2.63882">
        <ele>897.5</ele>
        <time>2014-08-14T06:40:37Z</time>
      </trkpt>
      <trkpt lat="45.06353" lon="2.63928">
        <ele>896</ele>
        <time>2014-08-14T06:43:45Z</time>
      </trkpt>
      <trkpt lat="45.06365" lon="2.63991">
        <ele>896.5</ele>
        <time>2014-08-14T06:44:41Z</time>
      </trkpt>
      <trkpt lat="45.06384" lon="2.64005">
        <ele>897.9</ele>
        <time>2014-08-14T06:45:00Z</time>
      </trkpt>
      <trkpt lat="45.06394" lon="2.64041">
        <ele>898.8</ele>
        <time>2014-08-14T06:45:26Z</time>
      </trkpt>
      <trkpt lat="45.0643" lon="2.64014">
        <ele>903.9</ele>
        <time>2014-08-14T06:46:19Z</time>
      </trkpt>
      <trkpt lat="45.06453" lon="2.63977">
        <ele>903.7</ele>
        <time>2014-08-14T06:52:42Z</time>
      </trkpt>
      <trkpt lat="45.06464" lon="2.63892">
        <ele>903.9</ele>
        <time>2014-08-14T06:53:17Z</time>
      </trkpt>
      <trkpt lat="45.06469" lon="2.63829">
        <ele>904.4</ele>
        <time>2014-08-14T06:53:51Z</time>
      </trkpt>
      <trkpt lat="45.06455" lon="2.63768">
        <ele>902.7</ele>
        <time>2014-08-14T06:54:29Z</time>
      </trkpt>
      <trkpt lat="45.06418" lon="2.63729">
        <ele>903</ele>
        <time>2014-08-14T06:55:09Z</time>
      </trkpt>
      <trkpt lat="45.06406" lon="2.63666">
        <ele>896</ele>
        <time>2014-08-14T06:55:50Z</time>
      </trkpt>
      <trkpt lat="45.06411" lon="2.63602">
        <ele>900.2</ele>
        <time>2014-08-14T06:56:22Z</time>
      </trkpt>
      <trkpt lat="45.0642" lon="2.6354">
        <ele>912.7</ele>
        <time>2014-08-14T06:56:57Z</time>
      </trkpt>
      <trkpt lat="45.06422" lon="2.63476">
        <ele>916.9</ele>
        <time>2014-08-14T06:57:33Z</time>
      </trkpt>
      <trkpt lat="45.06435" lon="2.63413">
        <ele>918</ele>
        <time>2014-08-14T06:58:14Z</time>
      </trkpt>
      <trkpt lat="45.06453" lon="2.63354">
        <ele>920.4</ele>
        <time>2014-08-14T06:59:00Z</time>
      </trkpt>
      <trkpt lat="45.06469" lon="2.63326">
        <ele>925.7</ele>
        <time>2014-08-14T06:59:31Z</time>
      </trkpt>
      <trkpt lat="45.06457" lon="2.6329">
        <ele>927</ele>
        <time>2014-08-14T07:00:06Z</time>
      </trkpt>
      <trkpt lat="45.06456" lon="2.63227">
        <ele>930.6</ele>
        <time>2014-08-14T07:01:01Z</time>
      </trkpt>
      <trkpt lat="45.06474" lon="2.63165">
        <ele>932.7</ele>
        <time>2014-08-14T07:01:54Z</time>
      </trkpt>
      <trkpt lat="45.06483" lon="2.63102">
        <ele>936.8</ele>
        <time>2014-08-14T07:02:42Z</time>
      </trkpt>
      <trkpt lat="45.06499" lon="2.63038">
        <ele>941.9</ele>
        <time>2014-08-14T07:03:39Z</time>
      </trkpt>
      <trkpt lat="45.06505" lon="2.62996">
        <ele>953.3</ele>
        <time>2014-08-14T07:04:22Z</time>
      </trkpt>
      <trkpt lat="45.06504" lon="2.62961">
        <ele>955.1</ele>
        <time>2014-08-14T07:04:46Z</time>
      </trkpt>
      <trkpt lat="45.06535" lon="2.62935">
        <ele>957.7</ele>
        <time>2014-08-14T07:05:22Z</time>
      </trkpt>
      <trkpt lat="45.06554" lon="2.62939">
        <ele>959.1</ele>
        <time>2014-08-14T07:05:48Z</time>
      </trkpt>
      <trkpt lat="45.06546" lon="2.62916">
        <ele>963.5</ele>
        <time>2014-08-14T07:06:14Z</time>
      </trkpt>
      <trkpt lat="45.06546" lon="2.62866">
        <ele>966</ele>
        <time>2014-08-14T07:07:03Z</time>
      </trkpt>
      <trkpt lat="45.06522" lon="2.62813">
        <ele>971.8</ele>
        <time>2014-08-14T07:08:13Z</time>
      </trkpt>
      <trkpt lat="45.06506" lon="2.62767">
        <ele>972.9</ele>
        <time>2014-08-14T07:08:55Z</time>
      </trkpt>
      <trkpt lat="45.06482" lon="2.62757">
        <ele>971.1</ele>
        <time>2014-08-14T07:09:26Z</time>
      </trkpt>
      <trkpt lat="45.0646" lon="2.62691">
        <ele>975.1</ele>
        <time>2014-08-14T07:10:24Z</time>
      </trkpt>
      <trkpt lat="45.06467" lon="2.62643">
        <ele>973.3</ele>
        <time>2014-08-14T07:11:14Z</time>
      </trkpt>
      <trkpt lat="45.06495" lon="2.62593">
        <ele>974</ele>
        <time>2014-08-14T07:11:57Z</time>
      </trkpt>
      <trkpt lat="45.06538" lon="2.62572">
        <ele>978.9</ele>
        <time>2014-08-14T07:12:42Z</time>
      </trkpt>
      <trkpt lat="45.06571" lon="2.62529">
        <ele>985.9</ele>
        <time>2014-08-14T07:13:35Z</time>
      </trkpt>
      <trkpt lat="45.06604" lon="2.6247">
        <ele>1006.4</ele>
        <time>2014-08-14T07:14:24Z</time>
      </trkpt>
      <trkpt lat="45.06607" lon="2.62442">
        <ele>1006.3</ele>
        <time>2014-08-14T07:14:57Z</time>
      </trkpt>
      <trkpt lat="45.06596" lon="2.62423">
        <ele>1006.3</ele>
        <time>2014-08-14T07:15:27Z</time>
      </trkpt>
      <trkpt lat="45.06575" lon="2.62418">
        <ele>996.3</ele>
        <time>2014-08-14T07:15:50Z</time>
      </trkpt>
      <trkpt lat="45.06548" lon="2.62398">
        <ele>1002.3</ele>
        <time>2014-08-14T07:16:23Z</time>
      </trkpt>
      <trkpt lat="45.06505" lon="2.6237">
        <ele>1002.2</ele>
        <time>2014-08-14T07:17:07Z</time>
      </trkpt>
      <trkpt lat="45.06469" lon="2.62333">
        <ele>997.5</ele>
        <time>2014-08-14T07:17:49Z</time>
      </trkpt>
      <trkpt lat="45.06464" lon="2.62269">
        <ele>998.7</ele>
        <time>2014-08-14T07:18:33Z</time>
      </trkpt>
      <trkpt lat="45.06434" lon="2.62222">
        <ele>1006</ele>
        <time>2014-08-14T07:19:42Z</time>
      </trkpt>
      <trkpt lat="45.06399" lon="2.62179">
        <ele>993.5</ele>
        <time>2014-08-14T07:28:28Z</time>
      </trkpt>
      <trkpt lat="45.064" lon="2.62085">
        <ele>990.8</ele>
        <time>2014-08-14T07:29:29Z</time>
      </trkpt>
      <trkpt lat="45.06419" lon="2.62029">
        <ele>1004.4</ele>
        <time>2014-08-14T07:30:22Z</time>
      </trkpt>
      <trkpt lat="45.06396" lon="2.61991">
        <ele>994.3</ele>
        <time>2014-08-14T07:32:01Z</time>
      </trkpt>
      <trkpt lat="45.06379" lon="2.61964">
        <ele>994.4</ele>
        <time>2014-08-14T07:32:24Z</time>
      </trkpt>
      <trkpt lat="45.06384" lon="2.6193">
        <ele>995.4</ele>
        <time>2014-08-14T07:32:48Z</time>
      </trkpt>
      <trkpt lat="45.06404" lon="2.61871">
        <ele>999.6</ele>
        <time>2014-08-14T07:33:32Z</time>
      </trkpt>
      <trkpt lat="45.06387" lon="2.61808">
        <ele>1005.8</ele>
        <time>2014-08-14T07:34:20Z</time>
      </trkpt>
      <trkpt lat="45.06371" lon="2.61748">
        <ele>1010.2</ele>
        <time>2014-08-14T07:35:03Z</time>
      </trkpt>
      <trkpt lat="45.06368" lon="2.61684">
        <ele>1010.2</ele>
        <time>2014-08-14T07:36:39Z</time>
      </trkpt>
      <trkpt lat="45.06327" lon="2.61656">
        <ele>1007.8</ele>
        <time>2014-08-14T07:37:39Z</time>
      </trkpt>
      <trkpt lat="45.06288" lon="2.61624">
        <ele>1006.9</ele>
        <time>2014-08-14T07:38:21Z</time>
      </trkpt>
      <trkpt lat="45.06271" lon="2.61564">
        <ele>1005.3</ele>
        <time>2014-08-14T07:38:56Z</time>
      </trkpt>
      <trkpt lat="45.06265" lon="2.61501">
        <ele>1004.7</ele>
        <time>2014-08-14T07:39:37Z</time>
      </trkpt>
      <trkpt lat="45.06264" lon="2.61471">
        <ele>1004.2</ele>
        <time>2014-08-14T07:39:59Z</time>
      </trkpt>
      <trkpt lat="45.0627" lon="2.61444">
        <ele>1003</ele>
        <time>2014-08-14T07:40:22Z</time>
      </trkpt>
      <trkpt lat="45.06279" lon="2.6142">
        <ele>1001.1</ele>
        <time>2014-08-14T07:40:31Z</time>
      </trkpt>
      <trkpt lat="45.06269" lon="2.61351">
        <ele>994.2</ele>
        <time>2014-08-14T07:40:55Z</time>
      </trkpt>
      <trkpt lat="45.06285" lon="2.61327">
        <ele>985.4</ele>
        <time>2014-08-14T07:41:44Z</time>
      </trkpt>
      <trkpt lat="45.06316" lon="2.6128">
        <ele>983.1</ele>
        <time>2014-08-14T07:42:29Z</time>
      </trkpt>
      <trkpt lat="45.0636" lon="2.6126">
        <ele>984.7</ele>
        <time>2014-08-14T07:43:12Z</time>
      </trkpt>
      <trkpt lat="45.06406" lon="2.6125">
        <ele>977</ele>
        <time>2014-08-14T07:43:58Z</time>
      </trkpt>
      <trkpt lat="45.06451" lon="2.61239">
        <ele>994.4</ele>
        <time>2014-08-14T07:44:37Z</time>
      </trkpt>
      <trkpt lat="45.06477" lon="2.61244">
        <ele>1000.8</ele>
        <time>2014-08-14T07:45:13Z</time>
      </trkpt>
      <trkpt lat="45.06504" lon="2.6128">
        <ele>1022.5</ele>
        <time>2014-08-14T07:46:12Z</time>
      </trkpt>
      <trkpt lat="45.06516" lon="2.61262">
        <ele>1022.8</ele>
        <time>2014-08-14T07:47:15Z</time>
      </trkpt>
      <trkpt lat="45.06529" lon="2.61215">
        <ele>1018.8</ele>
        <time>2014-08-14T07:49:30Z</time>
      </trkpt>
      <trkpt lat="45.06546" lon="2.61201">
        <ele>1019.1</ele>
        <time>2014-08-14T07:49:55Z</time>
      </trkpt>
      <trkpt lat="45.06563" lon="2.61171">
        <ele>1019.6</ele>
        <time>2014-08-14T07:50:31Z</time>
      </trkpt>
      <trkpt lat="45.06607" lon="2.61159">
        <ele>1016.4</ele>
        <time>2014-08-14T07:51:34Z</time>
      </trkpt>
      <trkpt lat="45.06632" lon="2.61177">
        <ele>1026.7</ele>
        <time>2014-08-14T07:52:01Z</time>
      </trkpt>
      <trkpt lat="45.06656" lon="2.61157">
        <ele>1020.9</ele>
        <time>2014-08-14T07:52:27Z</time>
      </trkpt>
      <trkpt lat="45.06694" lon="2.61163">
        <ele>1026.7</ele>
        <time>2014-08-14T07:53:32Z</time>
      </trkpt>
      <trkpt lat="45.06732" lon="2.61198">
        <ele>1033.6</ele>
        <time>2014-08-14T07:54:14Z</time>
      </trkpt>
      <trkpt lat="45.06761" lon="2.61247">
        <ele>1043.5</ele>
        <time>2014-08-14T07:55:04Z</time>
      </trkpt>
      <trkpt lat="45.06799" lon="2.61283">
        <ele>1048.5</ele>
        <time>2014-08-14T07:56:07Z</time>
      </trkpt>
      <trkpt lat="45.06844" lon="2.61282">
        <ele>1063</ele>
        <time>2014-08-14T08:00:23Z</time>
      </trkpt>
      <trkpt lat="45.06868" lon="2.61226">
        <ele>1069.6</ele>
        <time>2014-08-14T08:14:08Z</time>
      </trkpt>
      <trkpt lat="45.0686" lon="2.61162">
        <ele>1072.1</ele>
        <time>2014-08-14T08:15:08Z</time>
      </trkpt>
      <trkpt lat="45.0687" lon="2.61099">
        <ele>1076.6</ele>
        <time>2014-08-14T08:16:15Z</time>
      </trkpt>
      <trkpt lat="45.06911" lon="2.61068">
        <ele>1079.6</ele>
        <time>2014-08-14T08:17:21Z</time>
      </trkpt>
      <trkpt lat="45.06959" lon="2.61079">
        <ele>1096.2</ele>
        <time>2014-08-14T08:18:09Z</time>
      </trkpt>
      <trkpt lat="45.06981" lon="2.61077">
        <ele>1098.8</ele>
        <time>2014-08-14T08:18:54Z</time>
      </trkpt>
      <trkpt lat="45.06969" lon="2.61037">
        <ele>1102.3</ele>
        <time>2014-08-14T08:19:56Z</time>
      </trkpt>
      <trkpt lat="45.06952" lon="2.61006">
        <ele>1105.5</ele>
        <time>2014-08-14T08:20:53Z</time>
      </trkpt>
      <trkpt lat="45.06934" lon="2.60948">
        <ele>1117</ele>
        <time>2014-08-14T08:21:33Z</time>
      </trkpt>
      <trkpt lat="45.06952" lon="2.60911">
        <ele>1120.4</ele>
        <time>2014-08-14T08:22:16Z</time>
      </trkpt>
      <trkpt lat="45.06941" lon="2.60885">
        <ele>1121</ele>
        <time>2014-08-14T08:22:46Z</time>
      </trkpt>
      <trkpt lat="45.06937" lon="2.60853">
        <ele>1121.5</ele>
        <time>2014-08-14T08:23:12Z</time>
      </trkpt>
      <trkpt lat="45.06948" lon="2.60831">
        <ele>1124.3</ele>
        <time>2014-08-14T08:23:35Z</time>
      </trkpt>
      <trkpt lat="45.06942" lon="2.60792">
        <ele>1125</ele>
        <time>2014-08-14T08:24:07Z</time>
      </trkpt>
      <trkpt lat="45.069" lon="2.60786">
        <ele>1115.4</ele>
        <time>2014-08-14T08:24:59Z</time>
      </trkpt>
      <trkpt lat="45.06864" lon="2.60756">
        <ele>1114.2</ele>
        <time>2014-08-14T08:25:44Z</time>
      </trkpt>
      <trkpt lat="45.06847" lon="2.60699">
        <ele>1120.1</ele>
        <time>2014-08-14T08:26:46Z</time>
      </trkpt>
      <trkpt lat="45.06819" lon="2.60688">
        <ele>1112.3</ele>
        <time>2014-08-14T08:27:31Z</time>
      </trkpt>
      <trkpt lat="45.06772" lon="2.60724">
        <ele>1108.6</ele>
        <time>2014-08-14T08:28:45Z</time>
      </trkpt>
      <trkpt lat="45.06743" lon="2.60747">
        <ele>1104.2</ele>
        <time>2014-08-14T08:29:22Z</time>
      </trkpt>
      <trkpt lat="45.06714" lon="2.60728">
        <ele>1102.6</ele>
        <time>2014-08-14T08:30:45Z</time>
      </trkpt>
      <trkpt lat="45.06655" lon="2.60757">
        <ele>1078.7</ele>
        <time>2014-08-14T08:31:51Z</time>
      </trkpt>
      <trkpt lat="45.0661" lon="2.60746">
        <ele>1082.7</ele>
        <time>2014-08-14T08:32:40Z</time>
      </trkpt>
      <trkpt lat="45.06569" lon="2.60717">
        <ele>1065.5</ele>
        <time>2014-08-14T08:34:16Z</time>
      </trkpt>
      <trkpt lat="45.06524" lon="2.60729">
        <ele>1057.4</ele>
        <time>2014-08-14T08:35:04Z</time>
      </trkpt>
      <trkpt lat="45.06478" lon="2.60729">
        <ele>1045</ele>
        <time>2014-08-14T08:35:54Z</time>
      </trkpt>
      <trkpt lat="45.06436" lon="2.60709">
        <ele>1046.5</ele>
        <time>2014-08-14T08:36:39Z</time>
      </trkpt>
      <trkpt lat="45.06395" lon="2.60682">
        <ele>1045.3</ele>
        <time>2014-08-14T08:37:49Z</time>
      </trkpt>
      <trkpt lat="45.06359" lon="2.60642">
        <ele>1053.1</ele>
        <time>2014-08-14T08:39:01Z</time>
      </trkpt>
      <trkpt lat="45.06315" lon="2.60631">
        <ele>1049.9</ele>
        <time>2014-08-14T08:40:16Z</time>
      </trkpt>
      <trkpt lat="45.06271" lon="2.60649">
        <ele>1049</ele>
        <time>2014-08-14T08:41:51Z</time>
      </trkpt>
      <trkpt lat="45.06227" lon="2.60668">
        <ele>1040.4</ele>
        <time>2014-08-14T08:42:35Z</time>
      </trkpt>
      <trkpt lat="45.06135" lon="2.60661">
        <ele>1036.8</ele>
        <time>2014-08-14T08:43:23Z</time>
      </trkpt>
      <trkpt lat="45.06201" lon="2.60603">
        <ele>1050.3</ele>
        <time>2014-08-14T08:46:53Z</time>
      </trkpt>
      <trkpt lat="45.0624" lon="2.6057">
        <ele>1061.8</ele>
        <time>2014-08-14T08:48:28Z</time>
      </trkpt>
      <trkpt lat="45.06268" lon="2.60519">
        <ele>1077.1</ele>
        <time>2014-08-14T08:49:41Z</time>
      </trkpt>
      <trkpt lat="45.06306" lon="2.60484">
        <ele>1089.7</ele>
        <time>2014-08-14T08:53:03Z</time>
      </trkpt>
      <trkpt lat="45.06343" lon="2.60447">
        <ele>1109</ele>
        <time>2014-08-14T08:54:09Z</time>
      </trkpt>
      <trkpt lat="45.06377" lon="2.60401">
        <ele>1114.4</ele>
        <time>2014-08-14T08:55:25Z</time>
      </trkpt>
      <trkpt lat="45.06398" lon="2.60345">
        <ele>1117.3</ele>
        <time>2014-08-14T08:56:17Z</time>
      </trkpt>
      <trkpt lat="45.0641" lon="2.60282">
        <ele>1119.3</ele>
        <time>2014-08-14T08:57:11Z</time>
      </trkpt>
      <trkpt lat="45.06428" lon="2.60224">
        <ele>1135.1</ele>
        <time>2014-08-14T08:58:03Z</time>
      </trkpt>
      <trkpt lat="45.06464" lon="2.60186">
        <ele>1139.7</ele>
        <time>2014-08-14T08:58:55Z</time>
      </trkpt>
      <trkpt lat="45.06484" lon="2.60128">
        <ele>1139.6</ele>
        <time>2014-08-14T08:59:51Z</time>
      </trkpt>
      <trkpt lat="45.06509" lon="2.60075">
        <ele>1167.3</ele>
        <time>2014-08-14T09:00:55Z</time>
      </trkpt>
      <trkpt lat="45.06535" lon="2.60001">
        <ele>1181.1</ele>
        <time>2014-08-14T09:06:53Z</time>
      </trkpt>
      <trkpt lat="45.0652" lon="2.59941">
        <ele>1189</ele>
        <time>2014-08-14T09:10:37Z</time>
      </trkpt>
      <trkpt lat="45.06548" lon="2.5989">
        <ele>1201.9</ele>
        <time>2014-08-14T09:12:35Z</time>
      </trkpt>
      <trkpt lat="45.06532" lon="2.59828">
        <ele>1218.9</ele>
        <time>2014-08-14T09:16:55Z</time>
      </trkpt>
      <trkpt lat="45.0651" lon="2.59772">
        <ele>1223.9</ele>
        <time>2014-08-14T09:19:25Z</time>
      </trkpt>
      <trkpt lat="45.06547" lon="2.59746">
        <ele>1232.8</ele>
        <time>2014-08-14T09:21:25Z</time>
      </trkpt>
      <trkpt lat="45.06571" lon="2.59761">
        <ele>1231.3</ele>
        <time>2014-08-14T09:22:36Z</time>
      </trkpt>
      <trkpt lat="45.06593" lon="2.59739">
        <ele>1250.4</ele>
        <time>2014-08-14T09:24:04Z</time>
      </trkpt>
      <trkpt lat="45.06586" lon="2.597">
        <ele>1255.6</ele>
        <time>2014-08-14T09:25:22Z</time>
      </trkpt>
      <trkpt lat="45.06629" lon="2.59677">
        <ele>1264.2</ele>
        <time>2014-08-14T09:26:48Z</time>
      </trkpt>
      <trkpt lat="45.0666" lon="2.59674">
        <ele>1269.9</ele>
        <time>2014-08-14T09:27:32Z</time>
      </trkpt>
      <trkpt lat="45.06687" lon="2.59683">
        <ele>1280.6</ele>
        <time>2014-08-14T09:28:16Z</time>
      </trkpt>
      <trkpt lat="45.06721" lon="2.5966">
        <ele>1297.7</ele>
        <time>2014-08-14T09:30:11Z</time>
      </trkpt>
      <trkpt lat="45.06764" lon="2.5964">
        <ele>1316</ele>
        <time>2014-08-14T09:31:22Z</time>
      </trkpt>
      <trkpt lat="45.0682" lon="2.59689">
        <ele>1311.8</ele>
        <time>2014-08-14T09:32:48Z</time>
      </trkpt>
      <trkpt lat="45.06858" lon="2.59682">
        <ele>1323.9</ele>
        <time>2014-08-14T09:34:09Z</time>
      </trkpt>
      <trkpt lat="45.06902" lon="2.59677">
        <ele>1326.4</ele>
        <time>2014-08-14T09:35:53Z</time>
      </trkpt>
      <trkpt lat="45.06913" lon="2.59665">
        <ele>1335.3</ele>
        <time>2014-08-14T09:36:57Z</time>
      </trkpt>
      <trkpt lat="45.06901" lon="2.59652">
        <ele>1336.9</ele>
        <time>2014-08-14T09:37:56Z</time>
      </trkpt>
      <trkpt lat="45.06863" lon="2.59639">
        <ele>1341.3</ele>
        <time>2014-08-14T09:40:40Z</time>
      </trkpt>
      <trkpt lat="45.06845" lon="2.5959">
        <ele>1343</ele>
        <time>2014-08-14T09:41:45Z</time>
      </trkpt>
      <trkpt lat="45.06814" lon="2.59542">
        <ele>1338.8</ele>
        <time>2014-08-14T09:42:52Z</time>
      </trkpt>
      <trkpt lat="45.06772" lon="2.5952">
        <ele>1336.2</ele>
        <time>2014-08-14T09:43:50Z</time>
      </trkpt>
      <trkpt lat="45.06731" lon="2.59491">
        <ele>1331</ele>
        <time>2014-08-14T09:44:57Z</time>
      </trkpt>
      <trkpt lat="45.0671" lon="2.59507">
        <ele>1316</ele>
        <time>2014-08-14T11:40:56Z</time>
      </trkpt>
      <trkpt lat="45.06725" lon="2.59446">
        <ele>1324.4</ele>
        <time>2014-08-14T11:42:02Z</time>
      </trkpt>
      <trkpt lat="45.06713" lon="2.59384">
        <ele>1329.9</ele>
        <time>2014-08-14T11:42:49Z</time>
      </trkpt>
      <trkpt lat="45.06708" lon="2.59321">
        <ele>1330.3</ele>
        <time>2014-08-14T11:43:37Z</time>
      </trkpt>
      <trkpt lat="45.06738" lon="2.59335">
        <ele>1336.2</ele>
        <time>2014-08-14T11:44:20Z</time>
      </trkpt>
      <trkpt lat="45.06745" lon="2.59361">
        <ele>1338</ele>
        <time>2014-08-14T11:44:47Z</time>
      </trkpt>
      <trkpt lat="45.06784" lon="2.59393">
        <ele>1345.9</ele>
        <time>2014-08-14T11:45:37Z</time>
      </trkpt>
      <trkpt lat="45.06829" lon="2.59402">
        <ele>1349.9</ele>
        <time>2014-08-14T11:46:30Z</time>
      </trkpt>
      <trkpt lat="45.06875" lon="2.59397">
        <ele>1358.6</ele>
        <time>2014-08-14T11:47:21Z</time>
      </trkpt>
      <trkpt lat="45.06921" lon="2.59401">
        <ele>1367.5</ele>
        <time>2014-08-14T11:48:52Z</time>
      </trkpt>
      <trkpt lat="45.06966" lon="2.59392">
        <ele>1372.1</ele>
        <time>2014-08-14T11:49:55Z</time>
      </trkpt>
      <trkpt lat="45.07007" lon="2.59367">
        <ele>1373.2</ele>
        <time>2014-08-14T11:50:48Z</time>
      </trkpt>
      <trkpt lat="45.07053" lon="2.59382">
        <ele>1369.9</ele>
        <time>2014-08-14T11:51:53Z</time>
      </trkpt>
      <trkpt lat="45.07096" lon="2.59405">
        <ele>1360.4</ele>
        <time>2014-08-14T11:52:37Z</time>
      </trkpt>
      <trkpt lat="45.07137" lon="2.5943">
        <ele>1361.8</ele>
        <time>2014-08-14T11:53:29Z</time>
      </trkpt>
      <trkpt lat="45.07174" lon="2.59468">
        <ele>1355.5</ele>
        <time>2014-08-14T11:54:45Z</time>
      </trkpt>
      <trkpt lat="45.07218" lon="2.59485">
        <ele>1353.7</ele>
        <time>2014-08-14T11:55:29Z</time>
      </trkpt>
      <trkpt lat="45.07263" lon="2.59494">
        <ele>1353.8</ele>
        <time>2014-08-14T11:56:45Z</time>
      </trkpt>
      <trkpt lat="45.07309" lon="2.59491">
        <ele>1355</ele>
        <time>2014-08-14T11:57:49Z</time>
      </trkpt>
      <trkpt lat="45.07354" lon="2.59503">
        <ele>1365.4</ele>
        <time>2014-08-14T11:58:31Z</time>
      </trkpt>
      <trkpt lat="45.07389" lon="2.59542">
        <ele>1368.8</ele>
        <time>2014-08-14T11:59:21Z</time>
      </trkpt>
      <trkpt lat="45.0742" lon="2.59589">
        <ele>1369.8</ele>
        <time>2014-08-14T12:00:04Z</time>
      </trkpt>
      <trkpt lat="45.0744" lon="2.59646">
        <ele>1371.5</ele>
        <time>2014-08-14T12:00:49Z</time>
      </trkpt>
      <trkpt lat="45.07456" lon="2.59707">
        <ele>1375.9</ele>
        <time>2014-08-14T12:01:29Z</time>
      </trkpt>
      <trkpt lat="45.07469" lon="2.59768">
        <ele>1378.5</ele>
        <time>2014-08-14T12:02:11Z</time>
      </trkpt>
      <trkpt lat="45.07484" lon="2.59829">
        <ele>1379.8</ele>
        <time>2014-08-14T12:02:51Z</time>
      </trkpt>
      <trkpt lat="45.0749" lon="2.59892">
        <ele>1382.7</ele>
        <time>2014-08-14T12:03:37Z</time>
      </trkpt>
      <trkpt lat="45.07493" lon="2.59956">
        <ele>1384.6</ele>
        <time>2014-08-14T12:04:20Z</time>
      </trkpt>
      <trkpt lat="45.075" lon="2.6002">
        <ele>1378.4</ele>
        <time>2014-08-14T12:05:03Z</time>
      </trkpt>
      <trkpt lat="45.07491" lon="2.60083">
        <ele>1387</ele>
        <time>2014-08-14T12:06:08Z</time>
      </trkpt>
      <trkpt lat="45.0749" lon="2.60147">
        <ele>1383</ele>
        <time>2014-08-14T12:07:06Z</time>
      </trkpt>
      <trkpt lat="45.07485" lon="2.60212">
        <ele>1376.2</ele>
        <time>2014-08-14T12:07:45Z</time>
      </trkpt>
      <trkpt lat="45.07475" lon="2.60274">
        <ele>1367.9</ele>
        <time>2014-08-14T12:08:28Z</time>
      </trkpt>
      <trkpt lat="45.0748" lon="2.60337">
        <ele>1364.4</ele>
        <time>2014-08-14T12:09:14Z</time>
      </trkpt>
      <trkpt lat="45.07486" lon="2.60401">
        <ele>1361.8</ele>
        <time>2014-08-14T12:10:14Z</time>
      </trkpt>
      <trkpt lat="45.07487" lon="2.60464">
        <ele>1358</ele>
        <time>2014-08-14T12:10:53Z</time>
      </trkpt>
      <trkpt lat="45.07482" lon="2.60526">
        <ele>1354</ele>
        <time>2014-08-14T12:11:43Z</time>
      </trkpt>
      <trkpt lat="45.07477" lon="2.60589">
        <ele>1348.7</ele>
        <time>2014-08-14T12:12:14Z</time>
      </trkpt>
      <trkpt lat="45.07471" lon="2.60679">
        <ele>1343.9</ele>
        <time>2014-08-14T12:12:53Z</time>
      </trkpt>
      <trkpt lat="45.07493" lon="2.60712">
        <ele>1340.7</ele>
        <time>2014-08-14T12:13:37Z</time>
      </trkpt>
      <trkpt lat="45.07521" lon="2.60764">
        <ele>1331</ele>
        <time>2014-08-14T12:14:19Z</time>
      </trkpt>
      <trkpt lat="45.07552" lon="2.60813">
        <ele>1331.9</ele>
        <time>2014-08-14T12:15:06Z</time>
      </trkpt>
      <trkpt lat="45.07566" lon="2.60874">
        <ele>1338.4</ele>
        <time>2014-08-14T12:16:09Z</time>
      </trkpt>
      <trkpt lat="45.0757" lon="2.60939">
        <ele>1338.3</ele>
        <time>2014-08-14T12:16:51Z</time>
      </trkpt>
      <trkpt lat="45.07579" lon="2.61003">
        <ele>1334</ele>
        <time>2014-08-14T12:17:31Z</time>
      </trkpt>
      <trkpt lat="45.07584" lon="2.61067">
        <ele>1321.6</ele>
        <time>2014-08-14T12:18:07Z</time>
      </trkpt>
      <trkpt lat="45.07581" lon="2.61131">
        <ele>1330.3</ele>
        <time>2014-08-14T12:18:50Z</time>
      </trkpt>
      <trkpt lat="45.07568" lon="2.61193">
        <ele>1334.1</ele>
        <time>2014-08-14T12:19:48Z</time>
      </trkpt>
      <trkpt lat="45.0757" lon="2.61224">
        <ele>1334.8</ele>
        <time>2014-08-14T12:20:12Z</time>
      </trkpt>
      <trkpt lat="45.07591" lon="2.61285">
        <ele>1337</ele>
        <time>2014-08-14T12:21:05Z</time>
      </trkpt>
      <trkpt lat="45.07595" lon="2.61303">
        <ele>1337</ele>
        <time>2014-08-15T10:08:27Z</time>
      </trkpt>
      <trkpt lat="45.07593" lon="2.61289">
        <ele>1338.5</ele>
        <time>2014-08-15T10:08:29Z</time>
      </trkpt>
      <trkpt lat="45.07609" lon="2.61287">
        <ele>1341</ele>
        <time>2014-08-15T10:09:03Z</time>
      </trkpt>
      <trkpt lat="45.07619" lon="2.61306">
        <ele>1343.5</ele>
        <time>2014-08-15T10:09:36Z</time>
      </trkpt>
      <trkpt lat="45.0761" lon="2.61324">
        <ele>1347.1</ele>
        <time>2014-08-15T10:10:10Z</time>
      </trkpt>
      <trkpt lat="45.07613" lon="2.61369">
        <ele>1354.3</ele>
        <time>2014-08-15T10:11:16Z</time>
      </trkpt>
      <trkpt lat="45.07619" lon="2.61433">
        <ele>1367.7</ele>
        <time>2014-08-15T10:12:33Z</time>
      </trkpt>
      <trkpt lat="45.07633" lon="2.61494">
        <ele>1373.4</ele>
        <time>2014-08-15T10:13:37Z</time>
      </trkpt>
      <trkpt lat="45.0766" lon="2.61546">
        <ele>1385.5</ele>
        <time>2014-08-15T10:14:46Z</time>
      </trkpt>
      <trkpt lat="45.07672" lon="2.61602">
        <ele>1390.9</ele>
        <time>2014-08-15T10:16:42Z</time>
      </trkpt>
      <trkpt lat="45.07671" lon="2.61639">
        <ele>1394.8</ele>
        <time>2014-08-15T10:17:16Z</time>
      </trkpt>
      <trkpt lat="45.07676" lon="2.61669">
        <ele>1405.8</ele>
        <time>2014-08-15T10:17:48Z</time>
      </trkpt>
      <trkpt lat="45.07692" lon="2.61703">
        <ele>1410.2</ele>
        <time>2014-08-15T10:18:28Z</time>
      </trkpt>
      <trkpt lat="45.07708" lon="2.61733">
        <ele>1414.2</ele>
        <time>2014-08-15T10:19:05Z</time>
      </trkpt>
      <trkpt lat="45.07732" lon="2.61769">
        <ele>1424.5</ele>
        <time>2014-08-15T10:20:24Z</time>
      </trkpt>
      <trkpt lat="45.07735" lon="2.61791">
        <ele>1425.5</ele>
        <time>2014-08-15T10:21:04Z</time>
      </trkpt>
      <trkpt lat="45.07728" lon="2.61825">
        <ele>1427.1</ele>
        <time>2014-08-15T10:22:12Z</time>
      </trkpt>
      <trkpt lat="45.07704" lon="2.61881">
        <ele>1430.5</ele>
        <time>2014-08-15T10:23:04Z</time>
      </trkpt>
      <trkpt lat="45.07687" lon="2.6194">
        <ele>1433.5</ele>
        <time>2014-08-15T10:24:47Z</time>
      </trkpt>
      <trkpt lat="45.07677" lon="2.62002">
        <ele>1443.7</ele>
        <time>2014-08-15T10:25:44Z</time>
      </trkpt>
      <trkpt lat="45.07673" lon="2.62065">
        <ele>1450.6</ele>
        <time>2014-08-15T10:26:49Z</time>
      </trkpt>
      <trkpt lat="45.07663" lon="2.62081">
        <ele>1458.9</ele>
        <time>2014-08-15T10:27:16Z</time>
      </trkpt>
      <trkpt lat="45.0766" lon="2.62104">
        <ele>1466</ele>
        <time>2014-08-15T10:27:46Z</time>
      </trkpt>
      <trkpt lat="45.07663" lon="2.62128">
        <ele>1468.9</ele>
        <time>2014-08-15T10:28:14Z</time>
      </trkpt>
      <trkpt lat="45.07664" lon="2.62187">
        <ele>1482.5</ele>
        <time>2014-08-15T10:29:40Z</time>
      </trkpt>
      <trkpt lat="45.07668" lon="2.62212">
        <ele>1479.3</ele>
        <time>2014-08-15T10:30:20Z</time>
      </trkpt>
      <trkpt lat="45.0766" lon="2.62233">
        <ele>1488.7</ele>
        <time>2014-08-15T10:31:04Z</time>
      </trkpt>
      <trkpt lat="45.07663" lon="2.62258">
        <ele>1496.8</ele>
        <time>2014-08-15T10:31:48Z</time>
      </trkpt>
      <trkpt lat="45.07698" lon="2.62304">
        <ele>1496.5</ele>
        <time>2014-08-15T10:36:41Z</time>
      </trkpt>
      <trkpt lat="45.07719" lon="2.62361">
        <ele>1505.1</ele>
        <time>2014-08-15T10:38:25Z</time>
      </trkpt>
      <trkpt lat="45.0774" lon="2.62417">
        <ele>1509</ele>
        <time>2014-08-15T10:39:08Z</time>
      </trkpt>
      <trkpt lat="45.07754" lon="2.62454">
        <ele>1495.8</ele>
        <time>2014-08-15T10:39:39Z</time>
      </trkpt>
      <trkpt lat="45.07755" lon="2.62479">
        <ele>1494.2</ele>
        <time>2014-08-15T10:39:58Z</time>
      </trkpt>
      <trkpt lat="45.07748" lon="2.62536">
        <ele>1499.2</ele>
        <time>2014-08-15T10:41:27Z</time>
      </trkpt>
      <trkpt lat="45.07763" lon="2.62606">
        <ele>1489.7</ele>
        <time>2014-08-15T10:42:08Z</time>
      </trkpt>
      <trkpt lat="45.0778" lon="2.62665">
        <ele>1491.2</ele>
        <time>2014-08-15T10:42:57Z</time>
      </trkpt>
      <trkpt lat="45.07798" lon="2.62724">
        <ele>1500.9</ele>
        <time>2014-08-15T10:44:12Z</time>
      </trkpt>
      <trkpt lat="45.07812" lon="2.62784">
        <ele>1511.5</ele>
        <time>2014-08-15T10:45:15Z</time>
      </trkpt>
      <trkpt lat="45.0783" lon="2.62843">
        <ele>1519.2</ele>
        <time>2014-08-15T10:46:19Z</time>
      </trkpt>
      <trkpt lat="45.07836" lon="2.62866">
        <ele>1510.3</ele>
        <time>2014-08-15T10:46:54Z</time>
      </trkpt>
      <trkpt lat="45.07832" lon="2.62904">
        <ele>1523.1</ele>
        <time>2014-08-15T10:47:50Z</time>
      </trkpt>
      <trkpt lat="45.07836" lon="2.62942">
        <ele>1521.8</ele>
        <time>2014-08-15T10:48:19Z</time>
      </trkpt>
      <trkpt lat="45.07851" lon="2.62974">
        <ele>1523.9</ele>
        <time>2014-08-15T10:48:48Z</time>
      </trkpt>
      <trkpt lat="45.07871" lon="2.63024">
        <ele>1533.2</ele>
        <time>2014-08-15T10:50:54Z</time>
      </trkpt>
      <trkpt lat="45.07885" lon="2.63085">
        <ele>1540.2</ele>
        <time>2014-08-15T10:52:02Z</time>
      </trkpt>
      <trkpt lat="45.07911" lon="2.63138">
        <ele>1542.4</ele>
        <time>2014-08-15T10:52:55Z</time>
      </trkpt>
      <trkpt lat="45.0792" lon="2.63157">
        <ele>1534.8</ele>
        <time>2014-08-15T10:54:58Z</time>
      </trkpt>
      <trkpt lat="45.07934" lon="2.63167">
        <ele>1544.9</ele>
        <time>2014-08-15T10:57:06Z</time>
      </trkpt>
      <trkpt lat="45.0793" lon="2.63191">
        <ele>1545.7</ele>
        <time>2014-08-15T10:59:09Z</time>
      </trkpt>
      <trkpt lat="45.07955" lon="2.63249">
        <ele>1548</ele>
        <time>2014-08-15T11:00:29Z</time>
      </trkpt>
      <trkpt lat="45.07993" lon="2.63285">
        <ele>1550.1</ele>
        <time>2014-08-15T11:02:17Z</time>
      </trkpt>
      <trkpt lat="45.0803" lon="2.63328">
        <ele>1540</ele>
        <time>2014-08-15T11:03:08Z</time>
      </trkpt>
      <trkpt lat="45.08066" lon="2.63363">
        <ele>1542.9</ele>
        <time>2014-08-15T11:03:53Z</time>
      </trkpt>
      <trkpt lat="45.081" lon="2.63404">
        <ele>1525.3</ele>
        <time>2014-08-15T11:04:35Z</time>
      </trkpt>
      <trkpt lat="45.08131" lon="2.63452">
        <ele>1535.8</ele>
        <time>2014-08-15T11:05:15Z</time>
      </trkpt>
      <trkpt lat="45.08158" lon="2.63478">
        <ele>1537.8</ele>
        <time>2014-08-15T11:06:02Z</time>
      </trkpt>
      <trkpt lat="45.08163" lon="2.63497">
        <ele>1538.6</ele>
        <time>2014-08-15T11:08:25Z</time>
      </trkpt>
      <trkpt lat="45.08173" lon="2.63504">
        <ele>1532</ele>
        <time>2014-08-15T11:10:39Z</time>
      </trkpt>
      <trkpt lat="45.08185" lon="2.63552">
        <ele>1534.2</ele>
        <time>2014-08-15T11:16:56Z</time>
      </trkpt>
      <trkpt lat="45.0819" lon="2.63564">
        <ele>1534.8</ele>
        <time>2014-08-15T11:17:12Z</time>
      </trkpt>
      <trkpt lat="45.08192" lon="2.6358">
        <ele>1535.5</ele>
        <time>2014-08-15T11:17:30Z</time>
      </trkpt>
      <trkpt lat="45.08184" lon="2.63597">
        <ele>1543.7</ele>
        <time>2014-08-15T11:17:56Z</time>
      </trkpt>
      <trkpt lat="45.08185" lon="2.63617">
        <ele>1545.2</ele>
        <time>2014-08-15T11:18:19Z</time>
      </trkpt>
      <trkpt lat="45.08191" lon="2.6368">
        <ele>1556.6</ele>
        <time>2014-08-15T11:19:29Z</time>
      </trkpt>
      <trkpt lat="45.08215" lon="2.63713">
        <ele>1558.5</ele>
        <time>2014-08-15T11:20:47Z</time>
      </trkpt>
      <trkpt lat="45.08215" lon="2.63736">
        <ele>1559.5</ele>
        <time>2014-08-15T11:21:27Z</time>
      </trkpt>
      <trkpt lat="45.08235" lon="2.63745">
        <ele>1560.7</ele>
        <time>2014-08-15T11:21:59Z</time>
      </trkpt>
      <trkpt lat="45.08252" lon="2.63777">
        <ele>1557.1</ele>
        <time>2014-08-15T11:22:42Z</time>
      </trkpt>
      <trkpt lat="45.08276" lon="2.63827">
        <ele>1558.1</ele>
        <time>2014-08-15T11:23:40Z</time>
      </trkpt>
      <trkpt lat="45.08293" lon="2.63859">
        <ele>1565.2</ele>
        <time>2014-08-15T11:24:04Z</time>
      </trkpt>
      <trkpt lat="45.08318" lon="2.63888">
        <ele>1566</ele>
        <time>2014-08-15T11:24:32Z</time>
      </trkpt>
      <trkpt lat="45.08332" lon="2.63931">
        <ele>1566.6</ele>
        <time>2014-08-15T11:25:59Z</time>
      </trkpt>
      <trkpt lat="45.08355" lon="2.63986">
        <ele>1549.9</ele>
        <time>2014-08-15T11:27:19Z</time>
      </trkpt>
      <trkpt lat="45.08375" lon="2.64043">
        <ele>1548.9</ele>
        <time>2014-08-15T11:28:48Z</time>
      </trkpt>
      <trkpt lat="45.08398" lon="2.64099">
        <ele>1548.4</ele>
        <time>2014-08-15T11:29:42Z</time>
      </trkpt>
      <trkpt lat="45.08409" lon="2.64161">
        <ele>1546.1</ele>
        <time>2014-08-15T11:30:29Z</time>
      </trkpt>
      <trkpt lat="45.08432" lon="2.64216">
        <ele>1538.9</ele>
        <time>2014-08-15T11:31:48Z</time>
      </trkpt>
      <trkpt lat="45.08464" lon="2.64263">
        <ele>1540.8</ele>
        <time>2014-08-15T11:33:04Z</time>
      </trkpt>
      <trkpt lat="45.08496" lon="2.64311">
        <ele>1539.4</ele>
        <time>2014-08-15T11:33:46Z</time>
      </trkpt>
      <trkpt lat="45.08524" lon="2.64358">
        <ele>1534.1</ele>
        <time>2014-08-15T11:34:36Z</time>
      </trkpt>
      <trkpt lat="45.08555" lon="2.64406">
        <ele>1534.9</ele>
        <time>2014-08-15T11:36:01Z</time>
      </trkpt>
      <trkpt lat="45.08518" lon="2.64444">
        <ele>1536.9</ele>
        <time>2014-08-15T11:42:16Z</time>
      </trkpt>
      <trkpt lat="45.08499" lon="2.6446">
        <ele>1539.1</ele>
        <time>2014-08-15T11:43:06Z</time>
      </trkpt>
      <trkpt lat="45.08484" lon="2.64477">
        <ele>1534.4</ele>
        <time>2014-08-15T11:43:51Z</time>
      </trkpt>
      <trkpt lat="45.08455" lon="2.64538">
        <ele>1511</ele>
        <time>2014-08-15T11:45:27Z</time>
      </trkpt>
      <trkpt lat="45.08432" lon="2.64594">
        <ele>1486.2</ele>
        <time>2014-08-15T11:47:09Z</time>
      </trkpt>
      <trkpt lat="45.08399" lon="2.64638">
        <ele>1490.8</ele>
        <time>2014-08-15T11:48:29Z</time>
      </trkpt>
      <trkpt lat="45.08379" lon="2.64632">
        <ele>1488.6</ele>
        <time>2014-08-15T11:49:25Z</time>
      </trkpt>
      <trkpt lat="45.08364" lon="2.64633">
        <ele>1487</ele>
        <time>2014-08-15T11:50:06Z</time>
      </trkpt>
      <trkpt lat="45.08354" lon="2.64663">
        <ele>1484.6</ele>
        <time>2014-08-15T11:51:47Z</time>
      </trkpt>
      <trkpt lat="45.08345" lon="2.64688">
        <ele>1471.1</ele>
        <time>2014-08-15T11:52:55Z</time>
      </trkpt>
      <trkpt lat="45.08313" lon="2.64733">
        <ele>1467.6</ele>
        <time>2014-08-15T11:53:45Z</time>
      </trkpt>
      <trkpt lat="45.08279" lon="2.64776">
        <ele>1449.8</ele>
        <time>2014-08-15T11:54:43Z</time>
      </trkpt>
      <trkpt lat="45.08238" lon="2.64802">
        <ele>1449</ele>
        <time>2014-08-15T11:55:44Z</time>
      </trkpt>
      <trkpt lat="45.08192" lon="2.64801">
        <ele>1439.7</ele>
        <time>2014-08-15T11:56:17Z</time>
      </trkpt>
      <trkpt lat="45.08158" lon="2.64757">
        <ele>1420.2</ele>
        <time>2014-08-15T11:58:02Z</time>
      </trkpt>
      <trkpt lat="45.08119" lon="2.64791">
        <ele>1410.8</ele>
        <time>2014-08-15T12:00:02Z</time>
      </trkpt>
      <trkpt lat="45.08097" lon="2.64848">
        <ele>1392.5</ele>
        <time>2014-08-15T12:02:27Z</time>
      </trkpt>
      <trkpt lat="45.08083" lon="2.64863">
        <ele>1375.5</ele>
        <time>2014-08-15T12:03:15Z</time>
      </trkpt>
      <trkpt lat="45.08085" lon="2.64874">
        <ele>1385</ele>
        <time>2014-08-15T12:03:39Z</time>
      </trkpt>
      <trkpt lat="45.08073" lon="2.64884">
        <ele>1369.5</ele>
        <time>2014-08-15T12:04:20Z</time>
      </trkpt>
      <trkpt lat="45.08055" lon="2.64875">
        <ele>1364.5</ele>
        <time>2014-08-15T12:04:59Z</time>
      </trkpt>
      <trkpt lat="45.08065" lon="2.64937">
        <ele>1348</ele>
        <time>2014-08-15T12:06:05Z</time>
      </trkpt>
      <trkpt lat="45.08083" lon="2.64996">
        <ele>1337.9</ele>
        <time>2014-08-15T12:07:13Z</time>
      </trkpt>
      <trkpt lat="45.08083" lon="2.6506">
        <ele>1318.3</ele>
        <time>2014-08-15T12:08:14Z</time>
      </trkpt>
      <trkpt lat="45.08046" lon="2.6509">
        <ele>1299.6</ele>
        <time>2014-08-15T12:14:47Z</time>
      </trkpt>
      <trkpt lat="45.08025" lon="2.65099">
        <ele>1294.7</ele>
        <time>2014-08-15T12:15:08Z</time>
      </trkpt>
      <trkpt lat="45.08013" lon="2.65121">
        <ele>1290.3</ele>
        <time>2014-08-15T12:15:28Z</time>
      </trkpt>
      <trkpt lat="45.08009" lon="2.6514">
        <ele>1287.1</ele>
        <time>2014-08-15T12:15:42Z</time>
      </trkpt>
      <trkpt lat="45.0798" lon="2.65184">
        <ele>1267</ele>
        <time>2014-08-15T12:16:28Z</time>
      </trkpt>
      <trkpt lat="45.07956" lon="2.65238">
        <ele>1258.6</ele>
        <time>2014-08-15T12:17:13Z</time>
      </trkpt>
      <trkpt lat="45.0794" lon="2.65298">
        <ele>1244.2</ele>
        <time>2014-08-15T12:18:02Z</time>
      </trkpt>
      <trkpt lat="45.07925" lon="2.65378">
        <ele>1226</ele>
        <time>2014-08-15T12:18:55Z</time>
      </trkpt>
      <trkpt lat="45.07888" lon="2.65347">
        <ele>1225.5</ele>
        <time>2014-08-15T12:19:58Z</time>
      </trkpt>
      <trkpt lat="45.07864" lon="2.65322">
        <ele>1227.1</ele>
        <time>2014-08-15T12:20:47Z</time>
      </trkpt>
      <trkpt lat="45.07856" lon="2.65334">
        <ele>1224</ele>
        <time>2014-08-15T12:21:08Z</time>
      </trkpt>
      <trkpt lat="45.07857" lon="2.65374">
        <ele>1220.5</ele>
        <time>2014-08-15T12:21:55Z</time>
      </trkpt>
      <trkpt lat="45.07871" lon="2.65407">
        <ele>1217.1</ele>
        <time>2014-08-15T12:22:41Z</time>
      </trkpt>
      <trkpt lat="45.07864" lon="2.65421">
        <ele>1207.8</ele>
        <time>2014-08-15T12:22:57Z</time>
      </trkpt>
      <trkpt lat="45.07825" lon="2.65414">
        <ele>1200.6</ele>
        <time>2014-08-15T12:23:41Z</time>
      </trkpt>
      <trkpt lat="45.07808" lon="2.654">
        <ele>1197.6</ele>
        <time>2014-08-15T12:24:02Z</time>
      </trkpt>
      <trkpt lat="45.07779" lon="2.65412">
        <ele>1192.6</ele>
        <time>2014-08-15T12:24:34Z</time>
      </trkpt>
      <trkpt lat="45.07734" lon="2.65418">
        <ele>1174.8</ele>
        <time>2014-08-15T12:26:00Z</time>
      </trkpt>
      <trkpt lat="45.0769" lon="2.6543">
        <ele>1167.3</ele>
        <time>2014-08-15T12:26:55Z</time>
      </trkpt>
      <trkpt lat="45.07645" lon="2.65439">
        <ele>1154.2</ele>
        <time>2014-08-15T12:27:33Z</time>
      </trkpt>
      <trkpt lat="45.07601" lon="2.65421">
        <ele>1148.2</ele>
        <time>2014-08-15T12:28:22Z</time>
      </trkpt>
      <trkpt lat="45.07556" lon="2.65432">
        <ele>1135.7</ele>
        <time>2014-08-15T12:29:09Z</time>
      </trkpt>
      <trkpt lat="45.07515" lon="2.65402">
        <ele>1127</ele>
        <time>2014-08-15T12:30:30Z</time>
      </trkpt>
      <trkpt lat="45.07474" lon="2.65371">
        <ele>1112.6</ele>
        <time>2014-08-15T12:31:24Z</time>
      </trkpt>
      <trkpt lat="45.07431" lon="2.65348">
        <ele>1105.6</ele>
        <time>2014-08-15T12:32:00Z</time>
      </trkpt>
      <trkpt lat="45.07401" lon="2.65299">
        <ele>1091.8</ele>
        <time>2014-08-15T12:32:36Z</time>
      </trkpt>
      <trkpt lat="45.07385" lon="2.65283">
        <ele>1089.9</ele>
        <time>2014-08-15T12:32:55Z</time>
      </trkpt>
      <trkpt lat="45.07371" lon="2.65274">
        <ele>1088.5</ele>
        <time>2014-08-15T12:33:10Z</time>
      </trkpt>
      <trkpt lat="45.07352" lon="2.65247">
        <ele>1080.6</ele>
        <time>2014-08-15T12:33:26Z</time>
      </trkpt>
      <trkpt lat="45.07312" lon="2.65228">
        <ele>1083.2</ele>
        <time>2014-08-15T12:33:50Z</time>
      </trkpt>
      <trkpt lat="45.07284" lon="2.65259">
        <ele>1090.3</ele>
        <time>2014-08-15T12:35:19Z</time>
      </trkpt>
      <trkpt lat="45.07253" lon="2.65308">
        <ele>1092.5</ele>
        <time>2014-08-15T12:36:17Z</time>
      </trkpt>
      <trkpt lat="45.07256" lon="2.65325">
        <ele>1091.9</ele>
        <time>2014-08-15T12:36:30Z</time>
      </trkpt>
      <trkpt lat="45.07282" lon="2.65363">
        <ele>1086.9</ele>
        <time>2014-08-15T12:37:13Z</time>
      </trkpt>
      <trkpt lat="45.0729" lon="2.65389">
        <ele>1084.1</ele>
        <time>2014-08-15T12:37:56Z</time>
      </trkpt>
      <trkpt lat="45.07289" lon="2.6544">
        <ele>1072</ele>
        <time>2014-08-15T12:38:17Z</time>
      </trkpt>
      <trkpt lat="45.07308" lon="2.65488">
        <ele>1066.5</ele>
        <time>2014-08-15T12:38:41Z</time>
      </trkpt>
      <trkpt lat="45.07288" lon="2.6554">
        <ele>1051</ele>
        <time>2014-08-15T12:40:10Z</time>
      </trkpt>
      <trkpt lat="45.07249" lon="2.65578">
        <ele>1034.4</ele>
        <time>2014-08-15T12:41:28Z</time>
      </trkpt>
      <trkpt lat="45.07286" lon="2.65617">
        <ele>1027.7</ele>
        <time>2014-08-15T12:42:35Z</time>
      </trkpt>
      <trkpt lat="45.07298" lon="2.65631">
        <ele>1025.1</ele>
        <time>2014-08-15T12:43:08Z</time>
      </trkpt>
      <trkpt lat="45.07297" lon="2.65649">
        <ele>1023</ele>
        <time>2014-08-15T12:43:35Z</time>
      </trkpt>
      <trkpt lat="45.07288" lon="2.65662">
        <ele>1020.9</ele>
        <time>2014-08-15T12:44:02Z</time>
      </trkpt>
      <trkpt lat="45.07279" lon="2.65661">
        <ele>1019.3</ele>
        <time>2014-08-15T12:44:23Z</time>
      </trkpt>
      <trkpt lat="45.07268" lon="2.65673">
        <ele>1012.7</ele>
        <time>2014-08-15T12:44:39Z</time>
      </trkpt>
      <trkpt lat="45.07231" lon="2.65697">
        <ele>998.5</ele>
        <time>2014-08-15T12:45:26Z</time>
      </trkpt>
      <trkpt lat="45.07186" lon="2.65696">
        <ele>995.1</ele>
        <time>2014-08-15T12:46:02Z</time>
      </trkpt>
      <trkpt lat="45.07147" lon="2.65663">
        <ele>989.1</ele>
        <time>2014-08-15T12:46:47Z</time>
      </trkpt>
      <trkpt lat="45.071" lon="2.65651">
        <ele>985.5</ele>
        <time>2014-08-15T12:47:28Z</time>
      </trkpt>
      <trkpt lat="45.07088" lon="2.65631">
        <ele>983</ele>
        <time>2014-08-15T12:47:43Z</time>
      </trkpt>
      <trkpt lat="45.07081" lon="2.65597">
        <ele>969.7</ele>
        <time>2014-08-15T12:48:07Z</time>
      </trkpt>
      <trkpt lat="45.07039" lon="2.65582">
        <ele>969.9</ele>
        <time>2014-08-15T12:48:50Z</time>
      </trkpt>
      <trkpt lat="45.07029" lon="2.65582">
        <ele>968.5</ele>
        <time>2014-08-15T12:49:12Z</time>
      </trkpt>
      <trkpt lat="45.07018" lon="2.65569">
        <ele>966.6</ele>
        <time>2014-08-15T12:49:44Z</time>
      </trkpt>
      <trkpt lat="45.07001" lon="2.65589">
        <ele>958</ele>
        <time>2014-08-15T12:50:36Z</time>
      </trkpt>
      <trkpt lat="45.07019" lon="2.65624">
        <ele>955</ele>
        <time>2014-08-15T12:50:48Z</time>
      </trkpt>
      <trkpt lat="45.07037" lon="2.65636">
        <ele>953.1</ele>
        <time>2014-08-15T12:50:56Z</time>
      </trkpt>
      <trkpt lat="45.0704" lon="2.65658">
        <ele>951.6</ele>
        <time>2014-08-15T12:51:03Z</time>
      </trkpt>
      <trkpt lat="45.07034" lon="2.65672">
        <ele>946.5</ele>
        <time>2014-08-15T12:51:08Z</time>
      </trkpt>
      <trkpt lat="45.07009" lon="2.65692">
        <ele>943.7</ele>
        <time>2014-08-15T12:51:20Z</time>
      </trkpt>
      <trkpt lat="45.06994" lon="2.65716">
        <ele>934.4</ele>
        <time>2014-08-15T12:54:17Z</time>
      </trkpt>
      <trkpt lat="45.07001" lon="2.65742">
        <ele>937</ele>
        <time>2014-08-15T12:57:25Z</time>
      </trkpt>
      <trkpt lat="45.06987" lon="2.65747">
        <ele>929</ele>
        <time>2014-08-15T13:00:02Z</time>
      </trkpt>
      <trkpt lat="45.07013" lon="2.65762">
        <ele>937</ele>
        <time>2014-08-15T14:42:42Z</time>
      </trkpt>
      <trkpt lat="45.06998" lon="2.65743">
        <ele>935.1</ele>
        <time>2014-08-15T14:43:20Z</time>
      </trkpt>
      <trkpt lat="45.06938" lon="2.65786">
        <ele>928.7</ele>
        <time>2014-08-15T14:44:00Z</time>
      </trkpt>
      <trkpt lat="45.06864" lon="2.65719">
        <ele>924.4</ele>
        <time>2014-08-15T14:44:45Z</time>
      </trkpt>
      <trkpt lat="45.0682" lon="2.65633">
        <ele>923</ele>
        <time>2014-08-15T14:45:30Z</time>
      </trkpt>
      <trkpt lat="45.06778" lon="2.65595">
        <ele>922.7</ele>
        <time>2014-08-15T14:46:15Z</time>
      </trkpt>
      <trkpt lat="45.06746" lon="2.65506">
        <ele>926</ele>
        <time>2014-08-15T14:47:39Z</time>
      </trkpt>
      <trkpt lat="45.06732" lon="2.65442">
        <ele>924.6</ele>
        <time>2014-08-15T14:48:23Z</time>
      </trkpt>
      <trkpt lat="45.0671" lon="2.65387">
        <ele>919.8</ele>
        <time>2014-08-15T14:48:58Z</time>
      </trkpt>
      <trkpt lat="45.06688" lon="2.6533">
        <ele>917.2</ele>
        <time>2014-08-15T14:49:28Z</time>
      </trkpt>
      <trkpt lat="45.06672" lon="2.6527">
        <ele>918.1</ele>
        <time>2014-08-15T14:50:09Z</time>
      </trkpt>
      <trkpt lat="45.06641" lon="2.65222">
        <ele>921.3</ele>
        <time>2014-08-15T14:50:39Z</time>
      </trkpt>
      <trkpt lat="45.06622" lon="2.65163">
        <ele>921.8</ele>
        <time>2014-08-15T14:51:16Z</time>
      </trkpt>
      <trkpt lat="45.0662" lon="2.65098">
        <ele>921</ele>
        <time>2014-08-15T14:51:49Z</time>
      </trkpt>
      <trkpt lat="45.06617" lon="2.65033">
        <ele>918.5</ele>
        <time>2014-08-15T14:52:23Z</time>
      </trkpt>
      <trkpt lat="45.06609" lon="2.6497">
        <ele>915.7</ele>
        <time>2014-08-15T14:52:56Z</time>
      </trkpt>
      <trkpt lat="45.06593" lon="2.6491">
        <ele>915.9</ele>
        <time>2014-08-15T14:53:28Z</time>
      </trkpt>
      <trkpt lat="45.06573" lon="2.64852">
        <ele>918.6</ele>
        <time>2014-08-15T14:54:00Z</time>
      </trkpt>
      <trkpt lat="45.06568" lon="2.64788">
        <ele>917.7</ele>
        <time>2014-08-15T14:54:30Z</time>
      </trkpt>
      <trkpt lat="45.06568" lon="2.64724">
        <ele>915.8</ele>
        <time>2014-08-15T14:55:02Z</time>
      </trkpt>
      <trkpt lat="45.06564" lon="2.64661">
        <ele>914.2</ele>
        <time>2014-08-15T14:55:36Z</time>
      </trkpt>
      <trkpt lat="45.06533" lon="2.64612">
        <ele>913.3</ele>
        <time>2014-08-15T14:56:09Z</time>
      </trkpt>
      <trkpt lat="45.06503" lon="2.64561">
        <ele>913.2</ele>
        <time>2014-08-15T14:56:42Z</time>
      </trkpt>
      <trkpt lat="45.06474" lon="2.64512">
        <ele>908.6</ele>
        <time>2014-08-15T14:57:12Z</time>
      </trkpt>
      <trkpt lat="45.06459" lon="2.64451">
        <ele>907.4</ele>
        <time>2014-08-15T14:57:45Z</time>
      </trkpt>
      <trkpt lat="45.06445" lon="2.6439">
        <ele>906.9</ele>
        <time>2014-08-15T14:58:16Z</time>
      </trkpt>
      <trkpt lat="45.06433" lon="2.64327">
        <ele>906.7</ele>
        <time>2014-08-15T14:58:46Z</time>
      </trkpt>
      <trkpt lat="45.06415" lon="2.64267">
        <ele>901.2</ele>
        <time>2014-08-15T14:59:19Z</time>
      </trkpt>
      <trkpt lat="45.06397" lon="2.64208">
        <ele>899.2</ele>
        <time>2014-08-15T14:59:51Z</time>
      </trkpt>
      <trkpt lat="45.06381" lon="2.64148">
        <ele>898.6</ele>
        <time>2014-08-15T15:00:24Z</time>
      </trkpt>
      <trkpt lat="45.06355" lon="2.64095">
        <ele>898.1</ele>
        <time>2014-08-15T15:00:57Z</time>
      </trkpt>
      <trkpt lat="45.06357" lon="2.64031">
        <ele>897.2</ele>
        <time>2014-08-15T15:01:31Z</time>
      </trkpt>
      <trkpt lat="45.06357" lon="2.63968">
        <ele>896</ele>
        <time>2014-08-15T15:02:09Z</time>
      </trkpt>
      <trkpt lat="45.06342" lon="2.63908">
        <ele>896.7</ele>
        <time>2014-08-15T15:02:44Z</time>
      </trkpt>
      <trkpt lat="45.06305" lon="2.63873">
        <ele>899.4</ele>
        <time>2014-08-15T15:03:18Z</time>
      </trkpt>
      <trkpt lat="45.06263" lon="2.63848">
        <ele>900.4</ele>
        <time>2014-08-15T15:03:54Z</time>
      </trkpt>
      <trkpt lat="45.06234" lon="2.63799">
        <ele>902</ele>
        <time>2014-08-15T15:04:29Z</time>
      </trkpt>
      <trkpt lat="45.06236" lon="2.63735">
        <ele>899.5</ele>
        <time>2014-08-15T15:05:00Z</time>
      </trkpt>
      <trkpt lat="45.06239" lon="2.63671">
        <ele>896.6</ele>
        <time>2014-08-15T15:05:37Z</time>
      </trkpt>
      <trkpt lat="45.06226" lon="2.63609">
        <ele>891.9</ele>
        <time>2014-08-15T15:06:11Z</time>
      </trkpt>
      <trkpt lat="45.06205" lon="2.63551">
        <ele>885.8</ele>
        <time>2014-08-15T15:06:50Z</time>
      </trkpt>
      <trkpt lat="45.0619" lon="2.63489">
        <ele>883.5</ele>
        <time>2014-08-15T15:07:25Z</time>
      </trkpt>
      <trkpt lat="45.06185" lon="2.63424">
        <ele>884.8</ele>
        <time>2014-08-15T15:08:00Z</time>
      </trkpt>
      <trkpt lat="45.06159" lon="2.63372">
        <ele>890.2</ele>
        <time>2014-08-15T15:08:33Z</time>
      </trkpt>
      <trkpt lat="45.06127" lon="2.63325">
        <ele>886.1</ele>
        <time>2014-08-15T15:09:07Z</time>
      </trkpt>
      <trkpt lat="45.06099" lon="2.63272">
        <ele>886.4</ele>
        <time>2014-08-15T15:09:39Z</time>
      </trkpt>
      <trkpt lat="45.06067" lon="2.63227">
        <ele>890</ele>
        <time>2014-08-15T15:10:14Z</time>
      </trkpt>
      <trkpt lat="45.06043" lon="2.63172">
        <ele>888</ele>
        <time>2014-08-15T15:10:46Z</time>
      </trkpt>
      <trkpt lat="45.06038" lon="2.63108">
        <ele>883.9</ele>
        <time>2014-08-15T15:11:16Z</time>
      </trkpt>
      <trkpt lat="45.0603" lon="2.63044">
        <ele>881.4</ele>
        <time>2014-08-15T15:11:48Z</time>
      </trkpt>
      <trkpt lat="45.06031" lon="2.62979">
        <ele>876.2</ele>
        <time>2014-08-15T15:14:26Z</time>
      </trkpt>
      <trkpt lat="45.06017" lon="2.62917">
        <ele>874</ele>
        <time>2014-08-15T15:15:04Z</time>
      </trkpt>
      <trkpt lat="45.06004" lon="2.62855">
        <ele>873.3</ele>
        <time>2014-08-15T15:15:41Z</time>
      </trkpt>
      <trkpt lat="45.05993" lon="2.62792">
        <ele>879.3</ele>
        <time>2014-08-15T15:16:18Z</time>
      </trkpt>
      <trkpt lat="45.05985" lon="2.62728">
        <ele>879.6</ele>
        <time>2014-08-15T15:16:52Z</time>
      </trkpt>
      <trkpt lat="45.05975" lon="2.62664">
        <ele>876</ele>
        <time>2014-08-15T15:17:26Z</time>
      </trkpt>
      <trkpt lat="45.0596" lon="2.62603">
        <ele>874.6</ele>
        <time>2014-08-15T15:18:09Z</time>
      </trkpt>
      <trkpt lat="45.05931" lon="2.62554">
        <ele>871.5</ele>
        <time>2014-08-15T15:18:43Z</time>
      </trkpt>
      <trkpt lat="45.05901" lon="2.62504">
        <ele>875.2</ele>
        <time>2014-08-15T15:19:17Z</time>
      </trkpt>
      <trkpt lat="45.05878" lon="2.6245">
        <ele>875</ele>
        <time>2014-08-15T15:19:49Z</time>
      </trkpt>
      <trkpt lat="45.05861" lon="2.6239">
        <ele>874</ele>
        <time>2014-08-15T15:20:22Z</time>
      </trkpt>
      <trkpt lat="45.05846" lon="2.62329">
        <ele>870.5</ele>
        <time>2014-08-15T15:20:56Z</time>
      </trkpt>
      <trkpt lat="45.05819" lon="2.62277">
        <ele>874.3</ele>
        <time>2014-08-15T15:21:30Z</time>
      </trkpt>
      <trkpt lat="45.05779" lon="2.62246">
        <ele>869.3</ele>
        <time>2014-08-15T15:22:05Z</time>
      </trkpt>
      <trkpt lat="45.05741" lon="2.62209">
        <ele>870.7</ele>
        <time>2014-08-15T15:22:39Z</time>
      </trkpt>
      <trkpt lat="45.05714" lon="2.62157">
        <ele>866</ele>
        <time>2014-08-15T15:24:38Z</time>
      </trkpt>
      <trkpt lat="45.0569" lon="2.62102">
        <ele>865.7</ele>
        <time>2014-08-15T15:25:12Z</time>
      </trkpt>
      <trkpt lat="45.05673" lon="2.62041">
        <ele>862.8</ele>
        <time>2014-08-15T15:25:47Z</time>
      </trkpt>
      <trkpt lat="45.05654" lon="2.61982">
        <ele>865.2</ele>
        <time>2014-08-15T15:26:21Z</time>
      </trkpt>
      <trkpt lat="45.05635" lon="2.61924">
        <ele>864</ele>
        <time>2014-08-15T15:27:04Z</time>
      </trkpt>
      <trkpt lat="45.0562" lon="2.61863">
        <ele>861.6</ele>
        <time>2014-08-15T15:27:42Z</time>
      </trkpt>
      <trkpt lat="45.05602" lon="2.61804">
        <ele>859.2</ele>
        <time>2014-08-15T15:28:14Z</time>
      </trkpt>
      <trkpt lat="45.05587" lon="2.61742">
        <ele>860.2</ele>
        <time>2014-08-15T15:29:08Z</time>
      </trkpt>
      <trkpt lat="45.05573" lon="2.61681">
        <ele>864.8</ele>
        <time>2014-08-15T15:29:59Z</time>
      </trkpt>
      <trkpt lat="45.05551" lon="2.61626">
        <ele>861.6</ele>
        <time>2014-08-15T15:30:34Z</time>
      </trkpt>
      <trkpt lat="45.05516" lon="2.61584">
        <ele>861</ele>
        <time>2014-08-15T15:31:09Z</time>
      </trkpt>
      <trkpt lat="45.05483" lon="2.6154">
        <ele>860.5</ele>
        <time>2014-08-15T15:31:42Z</time>
      </trkpt>
      <trkpt lat="45.05449" lon="2.61493">
        <ele>859.2</ele>
        <time>2014-08-15T15:32:22Z</time>
      </trkpt>
      <trkpt lat="45.0542" lon="2.61443">
        <ele>859.9</ele>
        <time>2014-08-15T15:32:59Z</time>
      </trkpt>
      <trkpt lat="45.0542" lon="2.61443">
        <ele>859.9</ele>
        <time>2014-08-15T15:32:59Z</time>
      </trkpt>
      <trkpt lat="45.05323" lon="2.61438">
        <ele>864.1</ele>
        <time>2014-08-15T15:35:03Z</time>
      </trkpt>
      <trkpt lat="45.11399" lon="2.67189">
        <ele>1579</ele>
        <time>2014-08-16T09:08:47Z</time>
      </trkpt>
      <trkpt lat="45.11358" lon="2.6722">
        <ele>1581.8</ele>
        <time>2014-08-16T09:10:49Z</time>
      </trkpt>
      <trkpt lat="45.11316" lon="2.67246">
        <ele>1582.9</ele>
        <time>2014-08-16T09:11:45Z</time>
      </trkpt>
      <trkpt lat="45.11316" lon="2.67246">
        <ele>1582.9</ele>
        <time>2014-08-16T09:11:45Z</time>
      </trkpt>
      <trkpt lat="45.11275" lon="2.67272">
        <ele>1590.2</ele>
        <time>2014-08-16T09:12:59Z</time>
      </trkpt>
      <trkpt lat="45.11235" lon="2.67302">
        <ele>1603</ele>
        <time>2014-08-16T09:14:18Z</time>
      </trkpt>
      <trkpt lat="45.11192" lon="2.67326">
        <ele>1610</ele>
        <time>2014-08-16T09:15:33Z</time>
      </trkpt>
      <trkpt lat="45.11153" lon="2.67357">
        <ele>1631.3</ele>
        <time>2014-08-16T09:18:08Z</time>
      </trkpt>
      <trkpt lat="45.11111" lon="2.67387">
        <ele>1641.2</ele>
        <time>2014-08-16T09:19:38Z</time>
      </trkpt>
      <trkpt lat="45.11076" lon="2.67428">
        <ele>1662.8</ele>
        <time>2014-08-16T09:22:18Z</time>
      </trkpt>
      <trkpt lat="45.11035" lon="2.67454">
        <ele>1672.4</ele>
        <time>2014-08-16T09:24:38Z</time>
      </trkpt>
      <trkpt lat="45.10994" lon="2.67482">
        <ele>1688.2</ele>
        <time>2014-08-16T09:26:36Z</time>
      </trkpt>
      <trkpt lat="45.10954" lon="2.67512">
        <ele>1701.9</ele>
        <time>2014-08-16T09:30:09Z</time>
      </trkpt>
      <trkpt lat="45.10945" lon="2.67574">
        <ele>1708.9</ele>
        <time>2014-08-16T09:32:46Z</time>
      </trkpt>
      <trkpt lat="45.10934" lon="2.67636">
        <ele>1710.7</ele>
        <time>2014-08-16T09:42:31Z</time>
      </trkpt>
      <trkpt lat="45.10923" lon="2.67699">
        <ele>1699.9</ele>
        <time>2014-08-16T09:46:45Z</time>
      </trkpt>
      <trkpt lat="45.10899" lon="2.67753">
        <ele>1718.1</ele>
        <time>2014-08-16T09:50:35Z</time>
      </trkpt>
      <trkpt lat="45.10864" lon="2.67793">
        <ele>1713.2</ele>
        <time>2014-08-16T09:54:35Z</time>
      </trkpt>
      <trkpt lat="45.10828" lon="2.67832">
        <ele>1695.9</ele>
        <time>2014-08-16T09:57:33Z</time>
      </trkpt>
      <trkpt lat="45.10791" lon="2.67868">
        <ele>1680.7</ele>
        <time>2014-08-16T09:59:11Z</time>
      </trkpt>
      <trkpt lat="45.1076" lon="2.67914">
        <ele>1669.6</ele>
        <time>2014-08-16T10:01:12Z</time>
      </trkpt>
      <trkpt lat="45.10727" lon="2.67959">
        <ele>1646</ele>
        <time>2014-08-16T10:04:16Z</time>
      </trkpt>
      <trkpt lat="45.10698" lon="2.68009">
        <ele>1628.7</ele>
        <time>2014-08-16T10:05:33Z</time>
      </trkpt>
      <trkpt lat="45.1067" lon="2.68059">
        <ele>1619.5</ele>
        <time>2014-08-16T10:06:57Z</time>
      </trkpt>
      <trkpt lat="45.10664" lon="2.68087">
        <ele>1606.5</ele>
        <time>2014-08-16T10:07:54Z</time>
      </trkpt>
      <trkpt lat="45.10716" lon="2.68064">
        <ele>1611.2</ele>
        <time>2014-08-16T10:10:04Z</time>
      </trkpt>
      <trkpt lat="45.1076" lon="2.68048">
        <ele>1605.2</ele>
        <time>2014-08-16T10:10:42Z</time>
      </trkpt>
      <trkpt lat="45.10805" lon="2.68037">
        <ele>1599.1</ele>
        <time>2014-08-16T10:11:17Z</time>
      </trkpt>
      <trkpt lat="45.10851" lon="2.68036">
        <ele>1593.1</ele>
        <time>2014-08-16T10:12:07Z</time>
      </trkpt>
      <trkpt lat="45.10893" lon="2.68061">
        <ele>1587</ele>
        <time>2014-08-16T10:13:18Z</time>
      </trkpt>
      <trkpt lat="45.10934" lon="2.68088">
        <ele>1581</ele>
        <time>2014-08-16T10:14:09Z</time>
      </trkpt>
      <trkpt lat="45.10972" lon="2.68122">
        <ele>1576.1</ele>
        <time>2014-08-16T10:15:06Z</time>
      </trkpt>
      <trkpt lat="45.11014" lon="2.68146">
        <ele>1564.4</ele>
        <time>2014-08-16T10:15:50Z</time>
      </trkpt>
      <trkpt lat="45.1104" lon="2.68157">
        <ele>1561.4</ele>
        <time>2014-08-16T10:16:13Z</time>
      </trkpt>
      <trkpt lat="45.11059" lon="2.68133">
        <ele>1558.9</ele>
        <time>2014-08-16T10:16:34Z</time>
      </trkpt>
      <trkpt lat="45.1109" lon="2.68088">
        <ele>1545</ele>
        <time>2014-08-16T10:17:13Z</time>
      </trkpt>
      <trkpt lat="45.11109" lon="2.68029">
        <ele>1544</ele>
        <time>2014-08-16T10:18:06Z</time>
      </trkpt>
      <trkpt lat="45.11153" lon="2.68015">
        <ele>1532.3</ele>
        <time>2014-08-16T10:20:42Z</time>
      </trkpt>
      <trkpt lat="45.11197" lon="2.67996">
        <ele>1503.3</ele>
        <time>2014-08-16T10:22:44Z</time>
      </trkpt>
      <trkpt lat="45.11204" lon="2.68059">
        <ele>1488.4</ele>
        <time>2014-08-16T10:24:19Z</time>
      </trkpt>
      <trkpt lat="45.11189" lon="2.68091">
        <ele>1486.2</ele>
        <time>2014-08-16T10:24:39Z</time>
      </trkpt>
      <trkpt lat="45.11196" lon="2.68123">
        <ele>1485.7</ele>
        <time>2014-08-16T10:24:58Z</time>
      </trkpt>
      <trkpt lat="45.11189" lon="2.68186">
        <ele>1482.8</ele>
        <time>2014-08-16T10:25:34Z</time>
      </trkpt>
      <trkpt lat="45.11145" lon="2.68209">
        <ele>1504.6</ele>
        <time>2014-08-16T10:26:06Z</time>
      </trkpt>
      <trkpt lat="45.11155" lon="2.68272">
        <ele>1495.4</ele>
        <time>2014-08-16T10:26:41Z</time>
      </trkpt>
      <trkpt lat="45.11137" lon="2.68332">
        <ele>1493.8</ele>
        <time>2014-08-16T10:27:15Z</time>
      </trkpt>
      <trkpt lat="45.11105" lon="2.68377">
        <ele>1491.8</ele>
        <time>2014-08-16T10:27:51Z</time>
      </trkpt>
      <trkpt lat="45.11058" lon="2.68377">
        <ele>1503.9</ele>
        <time>2014-08-16T10:28:29Z</time>
      </trkpt>
      <trkpt lat="45.11016" lon="2.68351">
        <ele>1505.4</ele>
        <time>2014-08-16T10:29:15Z</time>
      </trkpt>
      <trkpt lat="45.10975" lon="2.68321">
        <ele>1516.6</ele>
        <time>2014-08-16T10:29:49Z</time>
      </trkpt>
      <trkpt lat="45.10931" lon="2.68298">
        <ele>1517.8</ele>
        <time>2014-08-16T10:30:23Z</time>
      </trkpt>
      <trkpt lat="45.10901" lon="2.68302">
        <ele>1510.5</ele>
        <time>2014-08-16T10:31:58Z</time>
      </trkpt>
      <trkpt lat="45.10853" lon="2.68272">
        <ele>1510.4</ele>
        <time>2014-08-16T10:34:33Z</time>
      </trkpt>
      <trkpt lat="45.10808" lon="2.6826">
        <ele>1509.8</ele>
        <time>2014-08-16T10:35:26Z</time>
      </trkpt>
      <trkpt lat="45.10762" lon="2.68258">
        <ele>1510.8</ele>
        <time>2014-08-16T10:36:17Z</time>
      </trkpt>
      <trkpt lat="45.10739" lon="2.6825">
        <ele>1525.5</ele>
        <time>2014-08-16T10:40:45Z</time>
      </trkpt>
      <trkpt lat="45.10705" lon="2.68267">
        <ele>1526</ele>
        <time>2014-08-16T10:41:36Z</time>
      </trkpt>
      <trkpt lat="45.10683" lon="2.68277">
        <ele>1528.9</ele>
        <time>2014-08-16T10:42:10Z</time>
      </trkpt>
      <trkpt lat="45.1066" lon="2.68297">
        <ele>1531.8</ele>
        <time>2014-08-16T10:42:36Z</time>
      </trkpt>
      <trkpt lat="45.10643" lon="2.68307">
        <ele>1529.8</ele>
        <time>2014-08-16T10:42:53Z</time>
      </trkpt>
      <trkpt lat="45.10625" lon="2.68333">
        <ele>1527</ele>
        <time>2014-08-16T10:43:18Z</time>
      </trkpt>
      <trkpt lat="45.10594" lon="2.68366">
        <ele>1513.4</ele>
        <time>2014-08-16T10:44:14Z</time>
      </trkpt>
      <trkpt lat="45.1057" lon="2.68421">
        <ele>1511.9</ele>
        <time>2014-08-16T10:45:39Z</time>
      </trkpt>
      <trkpt lat="45.10537" lon="2.68463">
        <ele>1512.6</ele>
        <time>2014-08-16T10:46:33Z</time>
      </trkpt>
      <trkpt lat="45.10515" lon="2.68525">
        <ele>1500</ele>
        <time>2014-08-16T10:47:27Z</time>
      </trkpt>
      <trkpt lat="45.10493" lon="2.68581">
        <ele>1530.9</ele>
        <time>2014-08-16T10:49:40Z</time>
      </trkpt>
      <trkpt lat="45.10493" lon="2.68602">
        <ele>1518.9</ele>
        <time>2014-08-16T10:50:03Z</time>
      </trkpt>
      <trkpt lat="45.10483" lon="2.68654">
        <ele>1517</ele>
        <time>2014-08-16T10:50:53Z</time>
      </trkpt>
      <trkpt lat="45.1048" lon="2.68704">
        <ele>1510.6</ele>
        <time>2014-08-16T10:52:12Z</time>
      </trkpt>
      <trkpt lat="45.10465" lon="2.68766">
        <ele>1510</ele>
        <time>2014-08-16T10:54:54Z</time>
      </trkpt>
      <trkpt lat="45.10476" lon="2.68828">
        <ele>1510.4</ele>
        <time>2014-08-16T10:55:55Z</time>
      </trkpt>
      <trkpt lat="45.10486" lon="2.68891">
        <ele>1517.2</ele>
        <time>2014-08-16T10:57:14Z</time>
      </trkpt>
      <trkpt lat="45.10501" lon="2.68951">
        <ele>1509.7</ele>
        <time>2014-08-16T10:58:37Z</time>
      </trkpt>
      <trkpt lat="45.10516" lon="2.69011">
        <ele>1520.6</ele>
        <time>2014-08-16T10:59:43Z</time>
      </trkpt>
      <trkpt lat="45.10525" lon="2.69037">
        <ele>1522.6</ele>
        <time>2014-08-16T11:00:12Z</time>
      </trkpt>
      <trkpt lat="45.10528" lon="2.69073">
        <ele>1525</ele>
        <time>2014-08-16T11:00:48Z</time>
      </trkpt>
      <trkpt lat="45.10538" lon="2.69136">
        <ele>1530.6</ele>
        <time>2014-08-16T11:01:58Z</time>
      </trkpt>
      <trkpt lat="45.10521" lon="2.6917">
        <ele>1537.2</ele>
        <time>2014-08-16T11:07:29Z</time>
      </trkpt>
      <trkpt lat="45.10502" lon="2.69175">
        <ele>1539.4</ele>
        <time>2014-08-16T11:11:05Z</time>
      </trkpt>
      <trkpt lat="45.1047" lon="2.69225">
        <ele>1552.5</ele>
        <time>2014-08-16T11:11:57Z</time>
      </trkpt>
      <trkpt lat="45.10445" lon="2.69272">
        <ele>1549.6</ele>
        <time>2014-08-16T11:12:53Z</time>
      </trkpt>
      <trkpt lat="45.10424" lon="2.69325">
        <ele>1550.4</ele>
        <time>2014-08-16T11:13:52Z</time>
      </trkpt>
      <trkpt lat="45.10409" lon="2.69384">
        <ele>1556.1</ele>
        <time>2014-08-16T11:15:08Z</time>
      </trkpt>
      <trkpt lat="45.10409" lon="2.69448">
        <ele>1561.9</ele>
        <time>2014-08-16T11:16:00Z</time>
      </trkpt>
      <trkpt lat="45.10416" lon="2.69511">
        <ele>1565.8</ele>
        <time>2014-08-16T11:16:46Z</time>
      </trkpt>
      <trkpt lat="45.10429" lon="2.69541">
        <ele>1551.3</ele>
        <time>2014-08-16T11:17:12Z</time>
      </trkpt>
      <trkpt lat="45.10426" lon="2.69574">
        <ele>1554</ele>
        <time>2014-08-16T11:17:34Z</time>
      </trkpt>
      <trkpt lat="45.10438" lon="2.69635">
        <ele>1564.1</ele>
        <time>2014-08-16T11:18:24Z</time>
      </trkpt>
      <trkpt lat="45.10453" lon="2.69696">
        <ele>1579.6</ele>
        <time>2014-08-16T11:19:13Z</time>
      </trkpt>
      <trkpt lat="45.10433" lon="2.69754">
        <ele>1590</ele>
        <time>2014-08-16T11:21:32Z</time>
      </trkpt>
      <trkpt lat="45.10388" lon="2.69764">
        <ele>1607</ele>
        <time>2014-08-16T11:23:13Z</time>
      </trkpt>
      <trkpt lat="45.10401" lon="2.69826">
        <ele>1614.7</ele>
        <time>2014-08-16T11:28:46Z</time>
      </trkpt>
      <trkpt lat="45.10419" lon="2.69885">
        <ele>1612.6</ele>
        <time>2014-08-16T11:30:24Z</time>
      </trkpt>
      <trkpt lat="45.10451" lon="2.6993">
        <ele>1619.4</ele>
        <time>2014-08-16T11:31:25Z</time>
      </trkpt>
      <trkpt lat="45.10487" lon="2.6997">
        <ele>1620.3</ele>
        <time>2014-08-16T11:32:11Z</time>
      </trkpt>
      <trkpt lat="45.1052" lon="2.70014">
        <ele>1618.1</ele>
        <time>2014-08-16T11:32:58Z</time>
      </trkpt>
      <trkpt lat="45.10541" lon="2.70071">
        <ele>1619.2</ele>
        <time>2014-08-16T11:35:48Z</time>
      </trkpt>
      <trkpt lat="45.10555" lon="2.70132">
        <ele>1625.8</ele>
        <time>2014-08-16T11:37:26Z</time>
      </trkpt>
      <trkpt lat="45.10558" lon="2.70196">
        <ele>1633.6</ele>
        <time>2014-08-16T11:38:10Z</time>
      </trkpt>
      <trkpt lat="45.10553" lon="2.70259">
        <ele>1638.7</ele>
        <time>2014-08-16T11:38:45Z</time>
      </trkpt>
      <trkpt lat="45.1054" lon="2.70321">
        <ele>1642.2</ele>
        <time>2014-08-16T11:39:17Z</time>
      </trkpt>
      <trkpt lat="45.10564" lon="2.70375">
        <ele>1642.4</ele>
        <time>2014-08-16T11:40:01Z</time>
      </trkpt>
      <trkpt lat="45.10588" lon="2.70429">
        <ele>1654.4</ele>
        <time>2014-08-16T11:40:39Z</time>
      </trkpt>
      <trkpt lat="45.10591" lon="2.70494">
        <ele>1656.8</ele>
        <time>2014-08-16T11:42:55Z</time>
      </trkpt>
      <trkpt lat="45.10586" lon="2.70558">
        <ele>1652.4</ele>
        <time>2014-08-16T11:44:09Z</time>
      </trkpt>
      <trkpt lat="45.10598" lon="2.70595">
        <ele>1642.1</ele>
        <time>2014-08-16T11:50:39Z</time>
      </trkpt>
      <trkpt lat="45.10611" lon="2.70627">
        <ele>1639.9</ele>
        <time>2014-08-16T11:56:26Z</time>
      </trkpt>
      <trkpt lat="45.10628" lon="2.70647">
        <ele>1639.6</ele>
        <time>2014-08-16T11:56:47Z</time>
      </trkpt>
      <trkpt lat="45.10647" lon="2.70663">
        <ele>1638.9</ele>
        <time>2014-08-16T11:57:10Z</time>
      </trkpt>
      <trkpt lat="45.1068" lon="2.70711">
        <ele>1643.7</ele>
        <time>2014-08-16T11:57:54Z</time>
      </trkpt>
      <trkpt lat="45.10691" lon="2.70777">
        <ele>1633.5</ele>
        <time>2014-08-16T11:58:38Z</time>
      </trkpt>
      <trkpt lat="45.10697" lon="2.70846">
        <ele>1631.9</ele>
        <time>2014-08-16T11:59:22Z</time>
      </trkpt>
      <trkpt lat="45.10683" lon="2.70912">
        <ele>1631.3</ele>
        <time>2014-08-16T12:00:06Z</time>
      </trkpt>
      <trkpt lat="45.1067" lon="2.70934">
        <ele>1631.4</ele>
        <time>2014-08-16T12:00:35Z</time>
      </trkpt>
      <trkpt lat="45.10686" lon="2.70976">
        <ele>1625.3</ele>
        <time>2014-08-16T12:01:25Z</time>
      </trkpt>
      <trkpt lat="45.1069" lon="2.70993">
        <ele>1623.1</ele>
        <time>2014-08-16T12:01:42Z</time>
      </trkpt>
      <trkpt lat="45.10683" lon="2.7104">
        <ele>1614.6</ele>
        <time>2014-08-16T12:02:32Z</time>
      </trkpt>
      <trkpt lat="45.10652" lon="2.71087">
        <ele>1593.6</ele>
        <time>2014-08-16T12:03:27Z</time>
      </trkpt>
      <trkpt lat="45.10614" lon="2.7112">
        <ele>1589.3</ele>
        <time>2014-08-16T12:04:05Z</time>
      </trkpt>
      <trkpt lat="45.10589" lon="2.71144">
        <ele>1586.5</ele>
        <time>2014-08-16T12:04:30Z</time>
      </trkpt>
      <trkpt lat="45.10587" lon="2.71174">
        <ele>1594.2</ele>
        <time>2014-08-16T12:04:49Z</time>
      </trkpt>
      <trkpt lat="45.10553" lon="2.71212">
        <ele>1577.8</ele>
        <time>2014-08-16T12:05:36Z</time>
      </trkpt>
      <trkpt lat="45.1053" lon="2.71268">
        <ele>1578.5</ele>
        <time>2014-08-16T12:06:29Z</time>
      </trkpt>
      <trkpt lat="45.10495" lon="2.71312">
        <ele>1557.2</ele>
        <time>2014-08-16T12:07:26Z</time>
      </trkpt>
      <trkpt lat="45.10451" lon="2.71327">
        <ele>1552.3</ele>
        <time>2014-08-16T12:09:18Z</time>
      </trkpt>
      <trkpt lat="45.10437" lon="2.71388">
        <ele>1563.5</ele>
        <time>2014-08-16T12:10:06Z</time>
      </trkpt>
      <trkpt lat="45.10443" lon="2.71451">
        <ele>1565.6</ele>
        <time>2014-08-16T12:12:00Z</time>
      </trkpt>
      <trkpt lat="45.10432" lon="2.71514">
        <ele>1549.9</ele>
        <time>2014-08-16T12:12:40Z</time>
      </trkpt>
      <trkpt lat="45.10411" lon="2.71571">
        <ele>1536.3</ele>
        <time>2014-08-16T12:13:26Z</time>
      </trkpt>
      <trkpt lat="45.10375" lon="2.7161">
        <ele>1526</ele>
        <time>2014-08-16T12:14:37Z</time>
      </trkpt>
      <trkpt lat="45.10315" lon="2.71634">
        <ele>1521</ele>
        <time>2014-08-16T12:15:27Z</time>
      </trkpt>
      <trkpt lat="45.10312" lon="2.71636">
        <ele>1521</ele>
        <time>2014-08-16T13:21:42Z</time>
      </trkpt>
      <trkpt lat="45.103" lon="2.71653">
        <ele>1521</ele>
        <time>2014-08-16T13:21:44Z</time>
      </trkpt>
      <trkpt lat="45.10299" lon="2.71673">
        <ele>1521</ele>
        <time>2014-08-16T13:22:48Z</time>
      </trkpt>
      <trkpt lat="45.10273" lon="2.71725">
        <ele>1521</ele>
        <time>2014-08-16T13:24:25Z</time>
      </trkpt>
      <trkpt lat="45.10237" lon="2.71764">
        <ele>1530.3</ele>
        <time>2014-08-16T13:26:27Z</time>
      </trkpt>
      <trkpt lat="45.1025" lon="2.71703">
        <ele>1520.2</ele>
        <time>2014-08-16T13:31:42Z</time>
      </trkpt>
      <trkpt lat="45.10223" lon="2.71653">
        <ele>1513.6</ele>
        <time>2014-08-16T13:33:08Z</time>
      </trkpt>
      <trkpt lat="45.10179" lon="2.71633">
        <ele>1511</ele>
        <time>2014-08-16T13:34:22Z</time>
      </trkpt>
      <trkpt lat="45.10135" lon="2.71649">
        <ele>1505.8</ele>
        <time>2014-08-16T13:35:23Z</time>
      </trkpt>
      <trkpt lat="45.10093" lon="2.71676">
        <ele>1514.5</ele>
        <time>2014-08-16T13:36:16Z</time>
      </trkpt>
      <trkpt lat="45.10048" lon="2.71662">
        <ele>1497.3</ele>
        <time>2014-08-16T13:37:03Z</time>
      </trkpt>
      <trkpt lat="45.10001" lon="2.71656">
        <ele>1496.9</ele>
        <time>2014-08-16T13:39:05Z</time>
      </trkpt>
      <trkpt lat="45.09955" lon="2.71658">
        <ele>1502.2</ele>
        <time>2014-08-16T13:40:00Z</time>
      </trkpt>
      <trkpt lat="45.09907" lon="2.71662">
        <ele>1506.9</ele>
        <time>2014-08-16T13:40:52Z</time>
      </trkpt>
      <trkpt lat="45.09864" lon="2.71673">
        <ele>1526.2</ele>
        <time>2014-08-16T13:41:41Z</time>
      </trkpt>
      <trkpt lat="45.09821" lon="2.71698">
        <ele>1530.6</ele>
        <time>2014-08-16T13:42:26Z</time>
      </trkpt>
      <trkpt lat="45.09776" lon="2.71707">
        <ele>1537</ele>
        <time>2014-08-16T13:43:13Z</time>
      </trkpt>
      <trkpt lat="45.09733" lon="2.71729">
        <ele>1532.7</ele>
        <time>2014-08-16T13:44:10Z</time>
      </trkpt>
      <trkpt lat="45.0969" lon="2.71746">
        <ele>1531.7</ele>
        <time>2014-08-16T13:45:37Z</time>
      </trkpt>
      <trkpt lat="45.09645" lon="2.71763">
        <ele>1541.5</ele>
        <time>2014-08-16T13:46:28Z</time>
      </trkpt>
      <trkpt lat="45.0959" lon="2.71809">
        <ele>1546.3</ele>
        <time>2014-08-16T13:47:53Z</time>
      </trkpt>
      <trkpt lat="45.09626" lon="2.71858">
        <ele>1553.2</ele>
        <time>2014-08-16T13:54:39Z</time>
      </trkpt>
      <trkpt lat="45.09668" lon="2.71882">
        <ele>1559.3</ele>
        <time>2014-08-16T13:55:34Z</time>
      </trkpt>
      <trkpt lat="45.09704" lon="2.71921">
        <ele>1545.8</ele>
        <time>2014-08-16T13:59:51Z</time>
      </trkpt>
      <trkpt lat="45.09739" lon="2.71964">
        <ele>1544.5</ele>
        <time>2014-08-16T14:00:42Z</time>
      </trkpt>
      <trkpt lat="45.09774" lon="2.72003">
        <ele>1551</ele>
        <time>2014-08-16T14:02:41Z</time>
      </trkpt>
      <trkpt lat="45.09779" lon="2.72028">
        <ele>1550</ele>
        <time>2014-08-16T14:03:08Z</time>
      </trkpt>
      <trkpt lat="45.09771" lon="2.72067">
        <ele>1548.5</ele>
        <time>2014-08-16T14:03:51Z</time>
      </trkpt>
      <trkpt lat="45.09762" lon="2.7213">
        <ele>1533.7</ele>
        <time>2014-08-16T14:05:19Z</time>
      </trkpt>
      <trkpt lat="45.09764" lon="2.72176">
        <ele>1522.6</ele>
        <time>2014-08-16T14:06:01Z</time>
      </trkpt>
      <trkpt lat="45.09753" lon="2.72193">
        <ele>1518.2</ele>
        <time>2014-08-16T14:06:23Z</time>
      </trkpt>
      <trkpt lat="45.09731" lon="2.7225">
        <ele>1489.1</ele>
        <time>2014-08-16T14:07:13Z</time>
      </trkpt>
      <trkpt lat="45.09724" lon="2.7231">
        <ele>1485.1</ele>
        <time>2014-08-16T14:08:23Z</time>
      </trkpt>
      <trkpt lat="45.0973" lon="2.72344">
        <ele>1478.6</ele>
        <time>2014-08-16T14:09:35Z</time>
      </trkpt>
      <trkpt lat="45.09715" lon="2.72375">
        <ele>1475.2</ele>
        <time>2014-08-16T14:10:50Z</time>
      </trkpt>
      <trkpt lat="45.09699" lon="2.72376">
        <ele>1473.1</ele>
        <time>2014-08-16T14:12:05Z</time>
      </trkpt>
      <trkpt lat="45.09675" lon="2.72366">
        <ele>1467.1</ele>
        <time>2014-08-16T14:13:15Z</time>
      </trkpt>
      <trkpt lat="45.09657" lon="2.72376">
        <ele>1453.5</ele>
        <time>2014-08-16T14:14:00Z</time>
      </trkpt>
      <trkpt lat="45.09639" lon="2.72511">
        <ele>1420</ele>
        <time>2014-08-16T14:14:45Z</time>
      </trkpt>
      <trkpt lat="45.09637" lon="2.72517">
        <ele>1420</ele>
        <time>2014-08-16T14:53:58Z</time>
      </trkpt>
      <trkpt lat="45.09631" lon="2.72545">
        <ele>1417.2</ele>
        <time>2014-08-16T14:54:21Z</time>
      </trkpt>
      <trkpt lat="45.09602" lon="2.72589">
        <ele>1411.5</ele>
        <time>2014-08-16T14:55:10Z</time>
      </trkpt>
      <trkpt lat="45.09571" lon="2.72634">
        <ele>1392.1</ele>
        <time>2014-08-16T14:55:58Z</time>
      </trkpt>
      <trkpt lat="45.0954" lon="2.72683">
        <ele>1389.3</ele>
        <time>2014-08-16T14:56:55Z</time>
      </trkpt>
      <trkpt lat="45.09514" lon="2.72718">
        <ele>1380.3</ele>
        <time>2014-08-16T14:58:13Z</time>
      </trkpt>
      <trkpt lat="45.09472" lon="2.72634">
        <ele>1345</ele>
        <time>2014-08-16T14:59:13Z</time>
      </trkpt>
      <trkpt lat="45.09451" lon="2.72629">
        <ele>1342.4</ele>
        <time>2014-08-16T14:59:51Z</time>
      </trkpt>
      <trkpt lat="45.09437" lon="2.72647">
        <ele>1340.2</ele>
        <time>2014-08-16T15:00:26Z</time>
      </trkpt>
      <trkpt lat="45.09413" lon="2.72672">
        <ele>1328.7</ele>
        <time>2014-08-16T15:00:51Z</time>
      </trkpt>
      <trkpt lat="45.09407" lon="2.72716">
        <ele>1324.9</ele>
        <time>2014-08-16T15:01:17Z</time>
      </trkpt>
      <trkpt lat="45.09377" lon="2.72751">
        <ele>1318.9</ele>
        <time>2014-08-16T15:02:14Z</time>
      </trkpt>
      <trkpt lat="45.09354" lon="2.72759">
        <ele>1316</ele>
        <time>2014-08-16T15:03:00Z</time>
      </trkpt>
      <trkpt lat="45.09341" lon="2.72761">
        <ele>1314.2</ele>
        <time>2014-08-16T15:03:28Z</time>
      </trkpt>
      <trkpt lat="45.09331" lon="2.72751">
        <ele>1304.8</ele>
        <time>2014-08-16T15:03:40Z</time>
      </trkpt>
      <trkpt lat="45.09316" lon="2.72698">
        <ele>1299.7</ele>
        <time>2014-08-16T15:04:13Z</time>
      </trkpt>
      <trkpt lat="45.09321" lon="2.7267">
        <ele>1297.3</ele>
        <time>2014-08-16T15:04:46Z</time>
      </trkpt>
      <trkpt lat="45.09314" lon="2.72653">
        <ele>1299.7</ele>
        <time>2014-08-16T15:05:09Z</time>
      </trkpt>
      <trkpt lat="45.09298" lon="2.72648">
        <ele>1298.9</ele>
        <time>2014-08-16T15:05:36Z</time>
      </trkpt>
      <trkpt lat="45.09269" lon="2.72659">
        <ele>1297.4</ele>
        <time>2014-08-16T15:05:59Z</time>
      </trkpt>
      <trkpt lat="45.09237" lon="2.72641">
        <ele>1291.7</ele>
        <time>2014-08-16T15:06:26Z</time>
      </trkpt>
      <trkpt lat="45.09183" lon="2.72665">
        <ele>1289</ele>
        <time>2014-08-16T15:08:13Z</time>
      </trkpt>
      <trkpt lat="45.09138" lon="2.72676">
        <ele>1282.6</ele>
        <time>2014-08-16T15:08:53Z</time>
      </trkpt>
      <trkpt lat="45.091" lon="2.72692">
        <ele>1280.5</ele>
        <time>2014-08-16T15:09:29Z</time>
      </trkpt>
      <trkpt lat="45.0906" lon="2.72723">
        <ele>1281.7</ele>
        <time>2014-08-16T15:10:05Z</time>
      </trkpt>
      <trkpt lat="45.09043" lon="2.72785">
        <ele>1269.2</ele>
        <time>2014-08-16T15:10:54Z</time>
      </trkpt>
      <trkpt lat="45.09025" lon="2.72844">
        <ele>1258.7</ele>
        <time>2014-08-16T15:11:40Z</time>
      </trkpt>
      <trkpt lat="45.09028" lon="2.72909">
        <ele>1253.6</ele>
        <time>2014-08-16T15:12:37Z</time>
      </trkpt>
      <trkpt lat="45.09025" lon="2.72972">
        <ele>1245</ele>
        <time>2014-08-16T15:13:22Z</time>
      </trkpt>
      <trkpt lat="45.09045" lon="2.7303">
        <ele>1238.2</ele>
        <time>2014-08-16T15:14:10Z</time>
      </trkpt>
      <trkpt lat="45.0903" lon="2.7309">
        <ele>1236.3</ele>
        <time>2014-08-16T15:14:57Z</time>
      </trkpt>
      <trkpt lat="45.09026" lon="2.73141">
        <ele>1235</ele>
        <time>2014-08-16T15:15:15Z</time>
      </trkpt>
      <trkpt lat="45.09014" lon="2.73142">
        <ele>1235</ele>
        <time>2014-08-16T16:15:25Z</time>
      </trkpt>
      <trkpt lat="45.08996" lon="2.73165">
        <ele>1232.8</ele>
        <time>2014-08-16T16:16:42Z</time>
      </trkpt>
      <trkpt lat="45.08998" lon="2.7323">
        <ele>1228.5</ele>
        <time>2014-08-16T16:17:18Z</time>
      </trkpt>
      <trkpt lat="45.08991" lon="2.73293">
        <ele>1224.2</ele>
        <time>2014-08-16T16:18:06Z</time>
      </trkpt>
      <trkpt lat="45.08998" lon="2.73357">
        <ele>1219.8</ele>
        <time>2014-08-16T16:18:44Z</time>
      </trkpt>
      <trkpt lat="45.08993" lon="2.7342">
        <ele>1219</ele>
        <time>2014-08-16T16:19:25Z</time>
      </trkpt>
      <trkpt lat="45.08982" lon="2.73484">
        <ele>1218.5</ele>
        <time>2014-08-16T16:20:03Z</time>
      </trkpt>
      <trkpt lat="45.08969" lon="2.73545">
        <ele>1220.7</ele>
        <time>2014-08-16T16:20:43Z</time>
      </trkpt>
      <trkpt lat="45.08942" lon="2.73598">
        <ele>1221.3</ele>
        <time>2014-08-16T16:21:19Z</time>
      </trkpt>
      <trkpt lat="45.08919" lon="2.73654">
        <ele>1221.3</ele>
        <time>2014-08-16T16:21:56Z</time>
      </trkpt>
      <trkpt lat="45.08888" lon="2.73703">
        <ele>1215.4</ele>
        <time>2014-08-16T16:22:34Z</time>
      </trkpt>
      <trkpt lat="45.08852" lon="2.73742">
        <ele>1214</ele>
        <time>2014-08-16T16:23:08Z</time>
      </trkpt>
      <trkpt lat="45.08835" lon="2.73801">
        <ele>1211.9</ele>
        <time>2014-08-16T16:23:49Z</time>
      </trkpt>
      <trkpt lat="45.08835" lon="2.73866">
        <ele>1212.9</ele>
        <time>2014-08-16T16:24:25Z</time>
      </trkpt>
      <trkpt lat="45.08829" lon="2.73929">
        <ele>1209.4</ele>
        <time>2014-08-16T16:25:07Z</time>
      </trkpt>
      <trkpt lat="45.08838" lon="2.73992">
        <ele>1215</ele>
        <time>2014-08-16T16:25:52Z</time>
      </trkpt>
      <trkpt lat="45.08833" lon="2.74056">
        <ele>1208.3</ele>
        <time>2014-08-16T16:26:24Z</time>
      </trkpt>
      <trkpt lat="45.08831" lon="2.74118">
        <ele>1207.6</ele>
        <time>2014-08-16T16:27:00Z</time>
      </trkpt>
      <trkpt lat="45.08832" lon="2.74185">
        <ele>1204.8</ele>
        <time>2014-08-16T16:27:36Z</time>
      </trkpt>
      <trkpt lat="45.08826" lon="2.74246">
        <ele>1204.5</ele>
        <time>2014-08-16T16:28:12Z</time>
      </trkpt>
      <trkpt lat="45.08819" lon="2.7431">
        <ele>1204.6</ele>
        <time>2014-08-16T16:28:48Z</time>
      </trkpt>
      <trkpt lat="45.08806" lon="2.74371">
        <ele>1206.9</ele>
        <time>2014-08-16T16:29:24Z</time>
      </trkpt>
      <trkpt lat="45.08772" lon="2.74415">
        <ele>1205.9</ele>
        <time>2014-08-16T16:31:52Z</time>
      </trkpt>
      <trkpt lat="45.08747" lon="2.74361">
        <ele>1200.8</ele>
        <time>2014-08-16T16:32:35Z</time>
      </trkpt>
      <trkpt lat="45.08701" lon="2.74349">
        <ele>1203</ele>
        <time>2014-08-16T16:33:07Z</time>
      </trkpt>
      <trkpt lat="45.0866" lon="2.74378">
        <ele>1212.8</ele>
        <time>2014-08-16T16:33:54Z</time>
      </trkpt>
      <trkpt lat="45.08629" lon="2.74424">
        <ele>1211.8</ele>
        <time>2014-08-16T16:34:51Z</time>
      </trkpt>
      <trkpt lat="45.08614" lon="2.74485">
        <ele>1213.7</ele>
        <time>2014-08-16T16:35:39Z</time>
      </trkpt>
      <trkpt lat="45.08598" lon="2.74545">
        <ele>1215</ele>
        <time>2014-08-16T16:36:29Z</time>
      </trkpt>
      <trkpt lat="45.08584" lon="2.74606">
        <ele>1217.9</ele>
        <time>2014-08-16T16:37:26Z</time>
      </trkpt>
      <trkpt lat="45.08571" lon="2.74667">
        <ele>1237</ele>
        <time>2014-08-16T16:38:31Z</time>
      </trkpt>
      <trkpt lat="45.08562" lon="2.74731">
        <ele>1243</ele>
        <time>2014-08-16T16:39:48Z</time>
      </trkpt>
      <trkpt lat="45.08536" lon="2.74783">
        <ele>1250.3</ele>
        <time>2014-08-16T16:40:57Z</time>
      </trkpt>
      <trkpt lat="45.08493" lon="2.74762">
        <ele>1257.7</ele>
        <time>2014-08-16T16:41:37Z</time>
      </trkpt>
      <trkpt lat="45.08448" lon="2.74773">
        <ele>1261</ele>
        <time>2014-08-16T16:42:20Z</time>
      </trkpt>
      <trkpt lat="45.08403" lon="2.74772">
        <ele>1254</ele>
        <time>2014-08-16T16:43:02Z</time>
      </trkpt>
      <trkpt lat="45.0836" lon="2.74797">
        <ele>1250</ele>
        <time>2014-08-16T16:43:50Z</time>
      </trkpt>
      <trkpt lat="45.08337" lon="2.74853">
        <ele>1241</ele>
        <time>2014-08-16T16:44:31Z</time>
      </trkpt>
      <trkpt lat="45.08291" lon="2.74851">
        <ele>1241.9</ele>
        <time>2014-08-16T16:46:00Z</time>
      </trkpt>
      <trkpt lat="45.0825" lon="2.74879">
        <ele>1241.4</ele>
        <time>2014-08-16T16:47:14Z</time>
      </trkpt>
      <trkpt lat="45.08219" lon="2.74926">
        <ele>1243.9</ele>
        <time>2014-08-16T16:48:18Z</time>
      </trkpt>
      <trkpt lat="45.08236" lon="2.74986">
        <ele>1244</ele>
        <time>2014-08-16T16:49:30Z</time>
      </trkpt>
      <trkpt lat="45.0826" lon="2.75041">
        <ele>1242</ele>
        <time>2014-08-16T16:50:15Z</time>
      </trkpt>
      <trkpt lat="45.0822" lon="2.75007">
        <ele>1243.4</ele>
        <time>2014-08-16T16:52:44Z</time>
      </trkpt>
      <trkpt lat="45.08197" lon="2.74952">
        <ele>1244</ele>
        <time>2014-08-16T16:53:22Z</time>
      </trkpt>
      <trkpt lat="45.08156" lon="2.74927">
        <ele>1241.5</ele>
        <time>2014-08-16T16:54:18Z</time>
      </trkpt>
      <trkpt lat="45.08112" lon="2.74906">
        <ele>1240.6</ele>
        <time>2014-08-16T16:54:57Z</time>
      </trkpt>
      <trkpt lat="45.08078" lon="2.74865">
        <ele>1238.6</ele>
        <time>2014-08-16T16:55:37Z</time>
      </trkpt>
      <trkpt lat="45.0804" lon="2.7483">
        <ele>1237.5</ele>
        <time>2014-08-16T16:56:30Z</time>
      </trkpt>
      <trkpt lat="45.08014" lon="2.74776">
        <ele>1237.8</ele>
        <time>2014-08-16T16:57:10Z</time>
      </trkpt>
      <trkpt lat="45.07984" lon="2.74729">
        <ele>1241.9</ele>
        <time>2014-08-16T16:58:00Z</time>
      </trkpt>
      <trkpt lat="45.07948" lon="2.74691">
        <ele>1243.7</ele>
        <time>2014-08-16T16:58:59Z</time>
      </trkpt>
      <trkpt lat="45.07948" lon="2.74691">
        <ele>1243.7</ele>
        <time>2014-08-16T16:58:59Z</time>
      </trkpt>
      <trkpt lat="45.07947" lon="2.74756">
        <ele>1245.5</ele>
        <time>2014-08-16T17:01:19Z</time>
      </trkpt>
      <trkpt lat="45.07981" lon="2.74799">
        <ele>1245.8</ele>
        <time>2014-08-16T17:02:53Z</time>
      </trkpt>
      <trkpt lat="45.08011" lon="2.74847">
        <ele>1241</ele>
        <time>2014-08-16T17:03:55Z</time>
      </trkpt>
      <trkpt lat="45.08053" lon="2.74873">
        <ele>1241.3</ele>
        <time>2014-08-16T17:04:41Z</time>
      </trkpt>
      <trkpt lat="45.08094" lon="2.74845">
        <ele>1242.7</ele>
        <time>2014-08-16T17:05:24Z</time>
      </trkpt>
      <trkpt lat="45.08139" lon="2.7484">
        <ele>1243</ele>
        <time>2014-08-16T17:06:01Z</time>
      </trkpt>
      <trkpt lat="45.08184" lon="2.74831">
        <ele>1246.1</ele>
        <time>2014-08-16T17:06:38Z</time>
      </trkpt>
      <trkpt lat="45.08225" lon="2.74858">
        <ele>1244.2</ele>
        <time>2014-08-16T17:07:27Z</time>
      </trkpt>
      <trkpt lat="45.0827" lon="2.7487">
        <ele>1242.2</ele>
        <time>2014-08-16T17:08:09Z</time>
      </trkpt>
      <trkpt lat="45.08326" lon="2.74864">
        <ele>1241.3</ele>
        <time>2014-08-16T17:10:10Z</time>
      </trkpt>
      <trkpt lat="45.08333" lon="2.7484">
        <ele>1241</ele>
        <time>2014-08-16T17:10:24Z</time>
      </trkpt>
      <trkpt lat="45.0635" lon="2.76091">
        <ele>1770</ele>
        <time>2014-08-17T07:54:51Z</time>
      </trkpt>
      <trkpt lat="45.063" lon="2.76102">
        <ele>1783.5</ele>
        <time>2014-08-17T07:54:53Z</time>
      </trkpt>
      <trkpt lat="45.06277" lon="2.76123">
        <ele>1786.2</ele>
        <time>2014-08-17T08:00:50Z</time>
      </trkpt>
      <trkpt lat="45.06232" lon="2.7613">
        <ele>1791.6</ele>
        <time>2014-08-17T08:01:30Z</time>
      </trkpt>
      <trkpt lat="45.06187" lon="2.76122">
        <ele>1796</ele>
        <time>2014-08-17T08:02:09Z</time>
      </trkpt>
      <trkpt lat="45.06146" lon="2.7615">
        <ele>1798.8</ele>
        <time>2014-08-17T08:02:52Z</time>
      </trkpt>
      <trkpt lat="45.06101" lon="2.76161">
        <ele>1801</ele>
        <time>2014-08-17T08:03:37Z</time>
      </trkpt>
      <trkpt lat="45.06056" lon="2.76172">
        <ele>1806.3</ele>
        <time>2014-08-17T08:04:18Z</time>
      </trkpt>
      <trkpt lat="45.06011" lon="2.76179">
        <ele>1808.6</ele>
        <time>2014-08-17T08:05:04Z</time>
      </trkpt>
      <trkpt lat="45.05966" lon="2.76165">
        <ele>1811</ele>
        <time>2014-08-17T08:06:53Z</time>
      </trkpt>
      <trkpt lat="45.05925" lon="2.76193">
        <ele>1816.6</ele>
        <time>2014-08-17T08:08:13Z</time>
      </trkpt>
      <trkpt lat="45.05898" lon="2.76191">
        <ele>1821.4</ele>
        <time>2014-08-17T08:09:01Z</time>
      </trkpt>
      <trkpt lat="45.05887" lon="2.76152">
        <ele>1817.8</ele>
        <time>2014-08-17T08:09:55Z</time>
      </trkpt>
      <trkpt lat="45.05845" lon="2.7617">
        <ele>1823.3</ele>
        <time>2014-08-17T08:17:56Z</time>
      </trkpt>
      <trkpt lat="45.05797" lon="2.76151">
        <ele>1814.4</ele>
        <time>2014-08-17T08:19:39Z</time>
      </trkpt>
      <trkpt lat="45.05758" lon="2.76117">
        <ele>1811.1</ele>
        <time>2014-08-17T08:20:37Z</time>
      </trkpt>
      <trkpt lat="45.05717" lon="2.76089">
        <ele>1806.3</ele>
        <time>2014-08-17T08:21:26Z</time>
      </trkpt>
      <trkpt lat="45.05675" lon="2.76078">
        <ele>1789.8</ele>
        <time>2014-08-17T08:22:24Z</time>
      </trkpt>
      <trkpt lat="45.05646" lon="2.76013">
        <ele>1792.7</ele>
        <time>2014-08-17T08:23:08Z</time>
      </trkpt>
      <trkpt lat="45.05632" lon="2.75951">
        <ele>1775.7</ele>
        <time>2014-08-17T08:23:58Z</time>
      </trkpt>
      <trkpt lat="45.05609" lon="2.75895">
        <ele>1758.2</ele>
        <time>2014-08-17T08:25:06Z</time>
      </trkpt>
      <trkpt lat="45.05584" lon="2.75841">
        <ele>1753.7</ele>
        <time>2014-08-17T08:25:50Z</time>
      </trkpt>
      <trkpt lat="45.05555" lon="2.7579">
        <ele>1756.4</ele>
        <time>2014-08-17T08:26:36Z</time>
      </trkpt>
      <trkpt lat="45.05527" lon="2.75739">
        <ele>1745.5</ele>
        <time>2014-08-17T08:27:26Z</time>
      </trkpt>
      <trkpt lat="45.05502" lon="2.75686">
        <ele>1744.3</ele>
        <time>2014-08-17T08:28:11Z</time>
      </trkpt>
      <trkpt lat="45.05477" lon="2.75631">
        <ele>1757</ele>
        <time>2014-08-17T08:28:53Z</time>
      </trkpt>
      <trkpt lat="45.05467" lon="2.75569">
        <ele>1755.5</ele>
        <time>2014-08-17T08:29:37Z</time>
      </trkpt>
      <trkpt lat="45.05456" lon="2.75507">
        <ele>1752.7</ele>
        <time>2014-08-17T08:30:18Z</time>
      </trkpt>
      <trkpt lat="45.0545" lon="2.75444">
        <ele>1751.1</ele>
        <time>2014-08-17T08:31:25Z</time>
      </trkpt>
      <trkpt lat="45.05413" lon="2.75409">
        <ele>1742.5</ele>
        <time>2014-08-17T08:32:36Z</time>
      </trkpt>
      <trkpt lat="45.05366" lon="2.75415">
        <ele>1742.1</ele>
        <time>2014-08-17T08:35:01Z</time>
      </trkpt>
      <trkpt lat="45.0532" lon="2.75417">
        <ele>1744</ele>
        <time>2014-08-17T08:35:48Z</time>
      </trkpt>
      <trkpt lat="45.05275" lon="2.75418">
        <ele>1742.5</ele>
        <time>2014-08-17T08:36:44Z</time>
      </trkpt>
      <trkpt lat="45.0523" lon="2.75415">
        <ele>1716.5</ele>
        <time>2014-08-17T08:37:31Z</time>
      </trkpt>
      <trkpt lat="45.05187" lon="2.75393">
        <ele>1708.4</ele>
        <time>2014-08-17T08:38:20Z</time>
      </trkpt>
      <trkpt lat="45.0515" lon="2.75353">
        <ele>1702</ele>
        <time>2014-08-17T08:39:06Z</time>
      </trkpt>
      <trkpt lat="45.05109" lon="2.75328">
        <ele>1685.1</ele>
        <time>2014-08-17T08:39:51Z</time>
      </trkpt>
      <trkpt lat="45.05066" lon="2.75309">
        <ele>1683.2</ele>
        <time>2014-08-17T08:41:33Z</time>
      </trkpt>
      <trkpt lat="45.0502" lon="2.75311">
        <ele>1677.8</ele>
        <time>2014-08-17T08:42:17Z</time>
      </trkpt>
      <trkpt lat="45.04976" lon="2.75295">
        <ele>1672.8</ele>
        <time>2014-08-17T08:43:11Z</time>
      </trkpt>
      <trkpt lat="45.04933" lon="2.75272">
        <ele>1669.2</ele>
        <time>2014-08-17T08:43:54Z</time>
      </trkpt>
      <trkpt lat="45.04894" lon="2.75241">
        <ele>1656.9</ele>
        <time>2014-08-17T08:47:12Z</time>
      </trkpt>
      <trkpt lat="45.04856" lon="2.75206">
        <ele>1653.1</ele>
        <time>2014-08-17T08:47:52Z</time>
      </trkpt>
      <trkpt lat="45.04816" lon="2.75176">
        <ele>1655.1</ele>
        <time>2014-08-17T08:48:31Z</time>
      </trkpt>
      <trkpt lat="45.04779" lon="2.75138">
        <ele>1639.6</ele>
        <time>2014-08-17T08:49:10Z</time>
      </trkpt>
      <trkpt lat="45.04749" lon="2.75091">
        <ele>1650.7</ele>
        <time>2014-08-17T08:49:50Z</time>
      </trkpt>
      <trkpt lat="45.04725" lon="2.75036">
        <ele>1640.2</ele>
        <time>2014-08-17T08:50:30Z</time>
      </trkpt>
      <trkpt lat="45.04684" lon="2.75006">
        <ele>1639.5</ele>
        <time>2014-08-17T08:51:11Z</time>
      </trkpt>
      <trkpt lat="45.04643" lon="2.74979">
        <ele>1635.7</ele>
        <time>2014-08-17T08:51:56Z</time>
      </trkpt>
      <trkpt lat="45.046" lon="2.74958">
        <ele>1635</ele>
        <time>2014-08-17T08:52:55Z</time>
      </trkpt>
      <trkpt lat="45.04556" lon="2.74946">
        <ele>1645.5</ele>
        <time>2014-08-17T08:53:33Z</time>
      </trkpt>
      <trkpt lat="45.04513" lon="2.74922">
        <ele>1649.1</ele>
        <time>2014-08-17T08:54:29Z</time>
      </trkpt>
      <trkpt lat="45.04472" lon="2.74894">
        <ele>1647.6</ele>
        <time>2014-08-17T08:55:09Z</time>
      </trkpt>
      <trkpt lat="45.04437" lon="2.74854">
        <ele>1656.6</ele>
        <time>2014-08-17T08:55:57Z</time>
      </trkpt>
      <trkpt lat="45.04394" lon="2.74835">
        <ele>1678</ele>
        <time>2014-08-17T09:01:25Z</time>
      </trkpt>
      <trkpt lat="45.0436" lon="2.74792">
        <ele>1664.3</ele>
        <time>2014-08-17T09:02:07Z</time>
      </trkpt>
      <trkpt lat="45.04324" lon="2.74753">
        <ele>1673.7</ele>
        <time>2014-08-17T09:02:43Z</time>
      </trkpt>
      <trkpt lat="45.04288" lon="2.74713">
        <ele>1659.7</ele>
        <time>2014-08-17T09:03:22Z</time>
      </trkpt>
      <trkpt lat="45.04253" lon="2.74674">
        <ele>1663.1</ele>
        <time>2014-08-17T09:04:14Z</time>
      </trkpt>
      <trkpt lat="45.04233" lon="2.74617">
        <ele>1676.5</ele>
        <time>2014-08-17T09:05:04Z</time>
      </trkpt>
      <trkpt lat="45.04213" lon="2.74559">
        <ele>1679.2</ele>
        <time>2014-08-17T09:05:57Z</time>
      </trkpt>
      <trkpt lat="45.04172" lon="2.74532">
        <ele>1678.9</ele>
        <time>2014-08-17T09:06:49Z</time>
      </trkpt>
      <trkpt lat="45.04136" lon="2.74493">
        <ele>1678.3</ele>
        <time>2014-08-17T09:07:34Z</time>
      </trkpt>
      <trkpt lat="45.04106" lon="2.74446">
        <ele>1678</ele>
        <time>2014-08-17T09:08:13Z</time>
      </trkpt>
      <trkpt lat="45.04077" lon="2.74396">
        <ele>1668.5</ele>
        <time>2014-08-17T09:08:51Z</time>
      </trkpt>
      <trkpt lat="45.04048" lon="2.74345">
        <ele>1663.6</ele>
        <time>2014-08-17T09:09:35Z</time>
      </trkpt>
      <trkpt lat="45.04009" lon="2.74311">
        <ele>1655.4</ele>
        <time>2014-08-17T09:10:14Z</time>
      </trkpt>
      <trkpt lat="45.03968" lon="2.74281">
        <ele>1652.7</ele>
        <time>2014-08-17T09:10:50Z</time>
      </trkpt>
      <trkpt lat="45.03931" lon="2.74244">
        <ele>1645</ele>
        <time>2014-08-17T09:11:27Z</time>
      </trkpt>
      <trkpt lat="45.03889" lon="2.74222">
        <ele>1645.4</ele>
        <time>2014-08-17T09:12:08Z</time>
      </trkpt>
      <trkpt lat="45.03846" lon="2.74199">
        <ele>1644.5</ele>
        <time>2014-08-17T09:14:04Z</time>
      </trkpt>
      <trkpt lat="45.03804" lon="2.74173">
        <ele>1642.2</ele>
        <time>2014-08-17T09:14:41Z</time>
      </trkpt>
      <trkpt lat="45.03763" lon="2.74145">
        <ele>1633.4</ele>
        <time>2014-08-17T09:15:16Z</time>
      </trkpt>
      <trkpt lat="45.03724" lon="2.74111">
        <ele>1628.6</ele>
        <time>2014-08-17T09:15:52Z</time>
      </trkpt>
      <trkpt lat="45.03685" lon="2.74078">
        <ele>1617.5</ele>
        <time>2014-08-17T09:16:28Z</time>
      </trkpt>
      <trkpt lat="45.03642" lon="2.74054">
        <ele>1618.3</ele>
        <time>2014-08-17T09:17:10Z</time>
      </trkpt>
      <trkpt lat="45.03597" lon="2.74036">
        <ele>1617</ele>
        <time>2014-08-17T09:17:50Z</time>
      </trkpt>
      <trkpt lat="45.03556" lon="2.74006">
        <ele>1614.4</ele>
        <time>2014-08-17T09:18:37Z</time>
      </trkpt>
      <trkpt lat="45.03512" lon="2.73997">
        <ele>1610.7</ele>
        <time>2014-08-17T09:19:28Z</time>
      </trkpt>
      <trkpt lat="45.03468" lon="2.73978">
        <ele>1613.5</ele>
        <time>2014-08-17T09:20:12Z</time>
      </trkpt>
      <trkpt lat="45.03423" lon="2.7399">
        <ele>1617.3</ele>
        <time>2014-08-17T09:21:07Z</time>
      </trkpt>
      <trkpt lat="45.03377" lon="2.7399">
        <ele>1626.1</ele>
        <time>2014-08-17T09:21:48Z</time>
      </trkpt>
      <trkpt lat="45.03331" lon="2.74001">
        <ele>1631</ele>
        <time>2014-08-17T09:22:43Z</time>
      </trkpt>
      <trkpt lat="45.03288" lon="2.74024">
        <ele>1628.4</ele>
        <time>2014-08-17T09:24:43Z</time>
      </trkpt>
      <trkpt lat="45.03249" lon="2.74057">
        <ele>1622.8</ele>
        <time>2014-08-17T09:25:21Z</time>
      </trkpt>
      <trkpt lat="45.03207" lon="2.74081">
        <ele>1620.2</ele>
        <time>2014-08-17T09:25:57Z</time>
      </trkpt>
      <trkpt lat="45.03165" lon="2.74102">
        <ele>1611.6</ele>
        <time>2014-08-17T09:26:34Z</time>
      </trkpt>
      <trkpt lat="45.03125" lon="2.74132">
        <ele>1608</ele>
        <time>2014-08-17T09:27:10Z</time>
      </trkpt>
      <trkpt lat="45.0308" lon="2.74127">
        <ele>1603.9</ele>
        <time>2014-08-17T09:28:12Z</time>
      </trkpt>
      <trkpt lat="45.03038" lon="2.74103">
        <ele>1601.6</ele>
        <time>2014-08-17T09:28:48Z</time>
      </trkpt>
      <trkpt lat="45.02994" lon="2.74081">
        <ele>1596.9</ele>
        <time>2014-08-17T09:29:22Z</time>
      </trkpt>
      <trkpt lat="45.02952" lon="2.74055">
        <ele>1595</ele>
        <time>2014-08-17T09:29:57Z</time>
      </trkpt>
      <trkpt lat="45.0291" lon="2.74031">
        <ele>1590.8</ele>
        <time>2014-08-17T09:30:32Z</time>
      </trkpt>
      <trkpt lat="45.02867" lon="2.74005">
        <ele>1588.7</ele>
        <time>2014-08-17T09:31:08Z</time>
      </trkpt>
      <trkpt lat="45.02826" lon="2.73979">
        <ele>1581.4</ele>
        <time>2014-08-17T09:31:44Z</time>
      </trkpt>
      <trkpt lat="45.02781" lon="2.73975">
        <ele>1578</ele>
        <time>2014-08-17T09:32:47Z</time>
      </trkpt>
      <trkpt lat="45.02741" lon="2.73943">
        <ele>1572.3</ele>
        <time>2014-08-17T09:34:04Z</time>
      </trkpt>
      <trkpt lat="45.02697" lon="2.73918">
        <ele>1569.5</ele>
        <time>2014-08-17T09:34:43Z</time>
      </trkpt>
      <trkpt lat="45.02655" lon="2.73895">
        <ele>1561.3</ele>
        <time>2014-08-17T09:35:27Z</time>
      </trkpt>
      <trkpt lat="45.02612" lon="2.73872">
        <ele>1557.3</ele>
        <time>2014-08-17T09:36:05Z</time>
      </trkpt>
      <trkpt lat="45.0257" lon="2.73849">
        <ele>1547.3</ele>
        <time>2014-08-17T09:36:41Z</time>
      </trkpt>
      <trkpt lat="45.02528" lon="2.73825">
        <ele>1540.2</ele>
        <time>2014-08-17T09:37:21Z</time>
      </trkpt>
      <trkpt lat="45.02486" lon="2.73801">
        <ele>1532.1</ele>
        <time>2014-08-17T09:38:11Z</time>
      </trkpt>
      <trkpt lat="45.02465" lon="2.73743">
        <ele>1529.8</ele>
        <time>2014-08-17T09:39:34Z</time>
      </trkpt>
      <trkpt lat="45.0245" lon="2.7368">
        <ele>1528.4</ele>
        <time>2014-08-17T09:40:13Z</time>
      </trkpt>
      <trkpt lat="45.02412" lon="2.73645">
        <ele>1524.1</ele>
        <time>2014-08-17T09:41:12Z</time>
      </trkpt>
      <trkpt lat="45.02416" lon="2.73581">
        <ele>1527.8</ele>
        <time>2014-08-17T09:42:22Z</time>
      </trkpt>
      <trkpt lat="45.02403" lon="2.73518">
        <ele>1529.9</ele>
        <time>2014-08-17T09:43:08Z</time>
      </trkpt>
      <trkpt lat="45.0239" lon="2.73456">
        <ele>1537.5</ele>
        <time>2014-08-17T09:47:05Z</time>
      </trkpt>
      <trkpt lat="45.02355" lon="2.73413">
        <ele>1545.5</ele>
        <time>2014-08-17T09:47:43Z</time>
      </trkpt>
      <trkpt lat="45.02319" lon="2.73374">
        <ele>1546.1</ele>
        <time>2014-08-17T09:48:24Z</time>
      </trkpt>
      <trkpt lat="45.02287" lon="2.73328">
        <ele>1552.4</ele>
        <time>2014-08-17T09:49:18Z</time>
      </trkpt>
      <trkpt lat="45.02246" lon="2.733">
        <ele>1549.6</ele>
        <time>2014-08-17T09:50:01Z</time>
      </trkpt>
      <trkpt lat="45.02211" lon="2.73259">
        <ele>1549.3</ele>
        <time>2014-08-17T09:50:43Z</time>
      </trkpt>
      <trkpt lat="45.02179" lon="2.73214">
        <ele>1549.7</ele>
        <time>2014-08-17T09:52:13Z</time>
      </trkpt>
      <trkpt lat="45.02135" lon="2.73192">
        <ele>1546.7</ele>
        <time>2014-08-17T09:53:09Z</time>
      </trkpt>
      <trkpt lat="45.02091" lon="2.73173">
        <ele>1545.4</ele>
        <time>2014-08-17T09:53:50Z</time>
      </trkpt>
      <trkpt lat="45.02048" lon="2.73153">
        <ele>1542</ele>
        <time>2014-08-17T09:54:30Z</time>
      </trkpt>
      <trkpt lat="45.02044" lon="2.7309">
        <ele>1540.2</ele>
        <time>2014-08-17T10:03:34Z</time>
      </trkpt>
      <trkpt lat="45.0202" lon="2.73036">
        <ele>1536.5</ele>
        <time>2014-08-17T10:04:12Z</time>
      </trkpt>
      <trkpt lat="45.01994" lon="2.72983">
        <ele>1532.1</ele>
        <time>2014-08-17T10:04:47Z</time>
      </trkpt>
      <trkpt lat="45.01976" lon="2.72925">
        <ele>1529.3</ele>
        <time>2014-08-17T10:05:24Z</time>
      </trkpt>
      <trkpt lat="45.01953" lon="2.7287">
        <ele>1521.5</ele>
        <time>2014-08-17T10:06:01Z</time>
      </trkpt>
      <trkpt lat="45.01929" lon="2.72816">
        <ele>1510.5</ele>
        <time>2014-08-17T10:06:36Z</time>
      </trkpt>
      <trkpt lat="45.01913" lon="2.72756">
        <ele>1515.7</ele>
        <time>2014-08-17T10:07:09Z</time>
      </trkpt>
      <trkpt lat="45.01888" lon="2.72703">
        <ele>1507.2</ele>
        <time>2014-08-17T10:07:42Z</time>
      </trkpt>
      <trkpt lat="45.01861" lon="2.7265">
        <ele>1500.5</ele>
        <time>2014-08-17T10:08:16Z</time>
      </trkpt>
      <trkpt lat="45.01838" lon="2.72594">
        <ele>1498.1</ele>
        <time>2014-08-17T10:08:51Z</time>
      </trkpt>
      <trkpt lat="45.01823" lon="2.72535">
        <ele>1510.4</ele>
        <time>2014-08-17T10:09:34Z</time>
      </trkpt>
      <trkpt lat="45.01803" lon="2.72476">
        <ele>1511.6</ele>
        <time>2014-08-17T10:10:16Z</time>
      </trkpt>
      <trkpt lat="45.01779" lon="2.72423">
        <ele>1512.1</ele>
        <time>2014-08-17T10:10:53Z</time>
      </trkpt>
      <trkpt lat="45.01745" lon="2.7238">
        <ele>1510.4</ele>
        <time>2014-08-17T10:11:44Z</time>
      </trkpt>
      <trkpt lat="45.0171" lon="2.72338">
        <ele>1508.3</ele>
        <time>2014-08-17T10:12:30Z</time>
      </trkpt>
      <trkpt lat="45.01679" lon="2.72292">
        <ele>1493.3</ele>
        <time>2014-08-17T10:13:04Z</time>
      </trkpt>
      <trkpt lat="45.01639" lon="2.72258">
        <ele>1493.6</ele>
        <time>2014-08-17T10:13:37Z</time>
      </trkpt>
      <trkpt lat="45.016" lon="2.72224">
        <ele>1479</ele>
        <time>2014-08-17T10:14:11Z</time>
      </trkpt>
      <trkpt lat="45.01565" lon="2.72182">
        <ele>1482.8</ele>
        <time>2014-08-17T10:14:47Z</time>
      </trkpt>
      <trkpt lat="45.0153" lon="2.72141">
        <ele>1474</ele>
        <time>2014-08-17T10:15:53Z</time>
      </trkpt>
      <trkpt lat="45.01499" lon="2.72094">
        <ele>1478.5</ele>
        <time>2014-08-17T10:16:30Z</time>
      </trkpt>
      <trkpt lat="45.01475" lon="2.7204">
        <ele>1471.1</ele>
        <time>2014-08-17T10:17:06Z</time>
      </trkpt>
      <trkpt lat="45.01443" lon="2.71995">
        <ele>1461.1</ele>
        <time>2014-08-17T10:17:49Z</time>
      </trkpt>
      <trkpt lat="45.01415" lon="2.71945">
        <ele>1460.6</ele>
        <time>2014-08-17T10:18:24Z</time>
      </trkpt>
      <trkpt lat="45.01382" lon="2.71901">
        <ele>1453.7</ele>
        <time>2014-08-17T10:19:17Z</time>
      </trkpt>
      <trkpt lat="45.01356" lon="2.71849">
        <ele>1450.2</ele>
        <time>2014-08-17T10:19:51Z</time>
      </trkpt>
      <trkpt lat="45.01326" lon="2.71801">
        <ele>1441.8</ele>
        <time>2014-08-17T10:20:25Z</time>
      </trkpt>
      <trkpt lat="45.01297" lon="2.71751">
        <ele>1437.2</ele>
        <time>2014-08-17T10:21:02Z</time>
      </trkpt>
      <trkpt lat="45.01259" lon="2.71716">
        <ele>1427.7</ele>
        <time>2014-08-17T10:21:36Z</time>
      </trkpt>
      <trkpt lat="45.01224" lon="2.71674">
        <ele>1425.9</ele>
        <time>2014-08-17T10:22:09Z</time>
      </trkpt>
      <trkpt lat="45.01193" lon="2.71627">
        <ele>1420.4</ele>
        <time>2014-08-17T10:22:43Z</time>
      </trkpt>
      <trkpt lat="45.01161" lon="2.71582">
        <ele>1416</ele>
        <time>2014-08-17T10:23:17Z</time>
      </trkpt>
      <trkpt lat="45.01128" lon="2.71537">
        <ele>1413.4</ele>
        <time>2014-08-17T10:23:52Z</time>
      </trkpt>
      <trkpt lat="45.01091" lon="2.71497">
        <ele>1406.7</ele>
        <time>2014-08-17T10:24:28Z</time>
      </trkpt>
      <trkpt lat="45.01052" lon="2.71464">
        <ele>1404.7</ele>
        <time>2014-08-17T10:25:02Z</time>
      </trkpt>
      <trkpt lat="45.01011" lon="2.71433">
        <ele>1401.7</ele>
        <time>2014-08-17T10:25:37Z</time>
      </trkpt>
      <trkpt lat="45.00968" lon="2.71413">
        <ele>1394.4</ele>
        <time>2014-08-17T10:26:09Z</time>
      </trkpt>
      <trkpt lat="45.00929" lon="2.71379">
        <ele>1392.1</ele>
        <time>2014-08-17T10:27:03Z</time>
      </trkpt>
      <trkpt lat="45.00888" lon="2.71349">
        <ele>1388.8</ele>
        <time>2014-08-17T10:28:36Z</time>
      </trkpt>
      <trkpt lat="45.00844" lon="2.71329">
        <ele>1382.2</ele>
        <time>2014-08-17T10:29:08Z</time>
      </trkpt>
      <trkpt lat="45.00807" lon="2.71292">
        <ele>1380.9</ele>
        <time>2014-08-17T10:29:42Z</time>
      </trkpt>
      <trkpt lat="45.00766" lon="2.71264">
        <ele>1379.1</ele>
        <time>2014-08-17T10:30:16Z</time>
      </trkpt>
      <trkpt lat="45.00729" lon="2.71227">
        <ele>1374.6</ele>
        <time>2014-08-17T10:30:53Z</time>
      </trkpt>
      <trkpt lat="45.00691" lon="2.71192">
        <ele>1372.6</ele>
        <time>2014-08-17T10:31:28Z</time>
      </trkpt>
      <trkpt lat="45.00652" lon="2.71158">
        <ele>1368</ele>
        <time>2014-08-17T10:32:03Z</time>
      </trkpt>
      <trkpt lat="45.00622" lon="2.71105">
        <ele>1366</ele>
        <time>2014-08-17T10:32:57Z</time>
      </trkpt>
      <trkpt lat="45.00596" lon="2.71052">
        <ele>1360.7</ele>
        <time>2014-08-17T10:33:30Z</time>
      </trkpt>
      <trkpt lat="45.0058" lon="2.70991">
        <ele>1359.7</ele>
        <time>2014-08-17T10:34:14Z</time>
      </trkpt>
      <trkpt lat="45.00562" lon="2.70934">
        <ele>1357.8</ele>
        <time>2014-08-17T10:34:52Z</time>
      </trkpt>
      <trkpt lat="45.00554" lon="2.70871">
        <ele>1353.4</ele>
        <time>2014-08-17T10:35:53Z</time>
      </trkpt>
      <trkpt lat="45.00542" lon="2.70808">
        <ele>1348</ele>
        <time>2014-08-17T10:36:27Z</time>
      </trkpt>
      <trkpt lat="45.0052" lon="2.70752">
        <ele>1347</ele>
        <time>2014-08-17T10:37:02Z</time>
      </trkpt>
      <trkpt lat="45.00504" lon="2.70691">
        <ele>1344.3</ele>
        <time>2014-08-17T10:37:37Z</time>
      </trkpt>
      <trkpt lat="45.00493" lon="2.70629">
        <ele>1342.3</ele>
        <time>2014-08-17T10:38:12Z</time>
      </trkpt>
      <trkpt lat="45.00482" lon="2.70567">
        <ele>1344.4</ele>
        <time>2014-08-17T10:38:47Z</time>
      </trkpt>
      <trkpt lat="45.00466" lon="2.70506">
        <ele>1344.4</ele>
        <time>2014-08-17T10:39:31Z</time>
      </trkpt>
      <trkpt lat="45.00439" lon="2.70454">
        <ele>1341.4</ele>
        <time>2014-08-17T10:40:07Z</time>
      </trkpt>
      <trkpt lat="45.0041" lon="2.70404">
        <ele>1337</ele>
        <time>2014-08-17T10:40:42Z</time>
      </trkpt>
      <trkpt lat="45.00377" lon="2.70361">
        <ele>1333</ele>
        <time>2014-08-17T10:41:48Z</time>
      </trkpt>
      <trkpt lat="45.00346" lon="2.70313">
        <ele>1323</ele>
        <time>2014-08-17T10:42:25Z</time>
      </trkpt>
      <trkpt lat="45.00316" lon="2.70264">
        <ele>1326.6</ele>
        <time>2014-08-17T10:43:07Z</time>
      </trkpt>
      <trkpt lat="45.00303" lon="2.70204">
        <ele>1325.2</ele>
        <time>2014-08-17T10:43:43Z</time>
      </trkpt>
      <trkpt lat="45.00281" lon="2.70146">
        <ele>1325.8</ele>
        <time>2014-08-17T10:44:19Z</time>
      </trkpt>
      <trkpt lat="45.00261" lon="2.70089">
        <ele>1326.2</ele>
        <time>2014-08-17T10:45:01Z</time>
      </trkpt>
      <trkpt lat="45.00236" lon="2.70035">
        <ele>1327</ele>
        <time>2014-08-17T10:45:42Z</time>
      </trkpt>
      <trkpt lat="45.00217" lon="2.69976">
        <ele>1327.7</ele>
        <time>2014-08-17T10:46:19Z</time>
      </trkpt>
      <trkpt lat="45.00193" lon="2.69922">
        <ele>1328.4</ele>
        <time>2014-08-17T10:46:54Z</time>
      </trkpt>
      <trkpt lat="45.00171" lon="2.69865">
        <ele>1329.7</ele>
        <time>2014-08-17T10:47:28Z</time>
      </trkpt>
      <trkpt lat="45.00141" lon="2.69817">
        <ele>1332.8</ele>
        <time>2014-08-17T10:48:05Z</time>
      </trkpt>
      <trkpt lat="45.00115" lon="2.69764">
        <ele>1334.1</ele>
        <time>2014-08-17T10:48:39Z</time>
      </trkpt>
      <trkpt lat="45.00093" lon="2.69709">
        <ele>1335.5</ele>
        <time>2014-08-17T10:49:18Z</time>
      </trkpt>
      <trkpt lat="45.00123" lon="2.69662">
        <ele>1336</ele>
        <time>2014-08-17T10:53:01Z</time>
      </trkpt>
      <trkpt lat="45.00166" lon="2.69642">
        <ele>1334.4</ele>
        <time>2014-08-17T10:53:45Z</time>
      </trkpt>
      <trkpt lat="45.00209" lon="2.69663">
        <ele>1327.5</ele>
        <time>2014-08-17T10:54:46Z</time>
      </trkpt>
      <trkpt lat="45.0025" lon="2.69634">
        <ele>1327</ele>
        <time>2014-08-17T10:55:30Z</time>
      </trkpt>
      <trkpt lat="45.0025" lon="2.69624">
        <ele>1327</ele>
        <time>2014-08-17T11:49:57Z</time>
      </trkpt>
      <trkpt lat="45.00287" lon="2.69595">
        <ele>1310.4</ele>
        <time>2014-08-17T11:50:02Z</time>
      </trkpt>
      <trkpt lat="45.00283" lon="2.69536">
        <ele>1296.9</ele>
        <time>2014-08-17T11:51:20Z</time>
      </trkpt>
      <trkpt lat="45.00291" lon="2.69473">
        <ele>1280.3</ele>
        <time>2014-08-17T11:52:01Z</time>
      </trkpt>
      <trkpt lat="45.00282" lon="2.69444">
        <ele>1276.8</ele>
        <time>2014-08-17T11:52:22Z</time>
      </trkpt>
      <trkpt lat="45.00267" lon="2.69435">
        <ele>1274.1</ele>
        <time>2014-08-17T11:52:38Z</time>
      </trkpt>
      <trkpt lat="45.00311" lon="2.69416">
        <ele>1259.3</ele>
        <time>2014-08-17T11:53:24Z</time>
      </trkpt>
      <trkpt lat="45.00343" lon="2.69424">
        <ele>1255.7</ele>
        <time>2014-08-17T11:54:23Z</time>
      </trkpt>
      <trkpt lat="45.00348" lon="2.69374">
        <ele>1247.4</ele>
        <time>2014-08-17T11:55:28Z</time>
      </trkpt>
      <trkpt lat="45.00371" lon="2.69355">
        <ele>1245.1</ele>
        <time>2014-08-17T11:55:47Z</time>
      </trkpt>
      <trkpt lat="45.00396" lon="2.69357">
        <ele>1243</ele>
        <time>2014-08-17T11:56:05Z</time>
      </trkpt>
      <trkpt lat="45.00418" lon="2.69358">
        <ele>1237.8</ele>
        <time>2014-08-17T11:56:25Z</time>
      </trkpt>
      <trkpt lat="45.00432" lon="2.69343">
        <ele>1235.5</ele>
        <time>2014-08-17T11:56:42Z</time>
      </trkpt>
      <trkpt lat="45.0047" lon="2.69307">
        <ele>1229.6</ele>
        <time>2014-08-17T11:57:27Z</time>
      </trkpt>
      <trkpt lat="45.00494" lon="2.69357">
        <ele>1232.7</ele>
        <time>2014-08-17T11:59:06Z</time>
      </trkpt>
      <trkpt lat="45.0049" lon="2.69424">
        <ele>1234.2</ele>
        <time>2014-08-17T11:59:52Z</time>
      </trkpt>
      <trkpt lat="45.00488" lon="2.6949">
        <ele>1231.3</ele>
        <time>2014-08-17T12:00:21Z</time>
      </trkpt>
      <trkpt lat="45.00512" lon="2.69561">
        <ele>1220</ele>
        <time>2014-08-17T12:01:04Z</time>
      </trkpt>
      <trkpt lat="45.00515" lon="2.69623">
        <ele>1220</ele>
        <time>2014-08-17T12:01:37Z</time>
      </trkpt>
      <trkpt lat="45.00517" lon="2.69676">
        <ele>1221</ele>
        <time>2014-08-17T12:02:16Z</time>
      </trkpt>
      <trkpt lat="45.00526" lon="2.69735">
        <ele>1221.4</ele>
        <time>2014-08-17T12:02:58Z</time>
      </trkpt>
      <trkpt lat="45.00531" lon="2.69812">
        <ele>1224</ele>
        <time>2014-08-17T12:03:34Z</time>
      </trkpt>
      <trkpt lat="45.00565" lon="2.69872">
        <ele>1224</ele>
        <time>2014-08-17T12:04:15Z</time>
      </trkpt>
      <trkpt lat="45.00597" lon="2.69912">
        <ele>1213</ele>
        <time>2014-08-17T12:04:58Z</time>
      </trkpt>
      <trkpt lat="45.00616" lon="2.69973">
        <ele>1216.1</ele>
        <time>2014-08-17T12:05:37Z</time>
      </trkpt>
      <trkpt lat="45.00621" lon="2.70036">
        <ele>1218.5</ele>
        <time>2014-08-17T12:06:15Z</time>
      </trkpt>
      <trkpt lat="45.00615" lon="2.70107">
        <ele>1219.4</ele>
        <time>2014-08-17T12:06:55Z</time>
      </trkpt>
      <trkpt lat="45.00647" lon="2.70164">
        <ele>1218.7</ele>
        <time>2014-08-17T12:07:42Z</time>
      </trkpt>
      <trkpt lat="45.00691" lon="2.70204">
        <ele>1215.6</ele>
        <time>2014-08-17T12:08:26Z</time>
      </trkpt>
      <trkpt lat="45.00721" lon="2.70234">
        <ele>1216.2</ele>
        <time>2014-08-17T12:08:58Z</time>
      </trkpt>
      <trkpt lat="45.00755" lon="2.70277">
        <ele>1220.7</ele>
        <time>2014-08-17T12:09:39Z</time>
      </trkpt>
      <trkpt lat="45.00793" lon="2.70311">
        <ele>1223.8</ele>
        <time>2014-08-17T12:10:17Z</time>
      </trkpt>
      <trkpt lat="45.00826" lon="2.70355">
        <ele>1231</ele>
        <time>2014-08-17T12:10:54Z</time>
      </trkpt>
      <trkpt lat="45.00858" lon="2.70404">
        <ele>1217</ele>
        <time>2014-08-17T12:11:33Z</time>
      </trkpt>
      <trkpt lat="45.00892" lon="2.70449">
        <ele>1214</ele>
        <time>2014-08-17T12:12:16Z</time>
      </trkpt>
      <trkpt lat="45.00931" lon="2.70481">
        <ele>1198.5</ele>
        <time>2014-08-17T12:12:56Z</time>
      </trkpt>
      <trkpt lat="45.01008" lon="2.70534">
        <ele>1190</ele>
        <time>2014-08-17T12:13:36Z</time>
      </trkpt>
      <trkpt lat="45.01042" lon="2.70528">
        <ele>1186.4</ele>
        <time>2014-08-17T12:14:22Z</time>
      </trkpt>
      <trkpt lat="45.01061" lon="2.70518">
        <ele>1184.2</ele>
        <time>2014-08-17T12:14:48Z</time>
      </trkpt>
      <trkpt lat="45.0104" lon="2.70488">
        <ele>1173</ele>
        <time>2014-08-17T12:15:29Z</time>
      </trkpt>
      <trkpt lat="45.01016" lon="2.70453">
        <ele>1169.2</ele>
        <time>2014-08-17T12:16:14Z</time>
      </trkpt>
      <trkpt lat="45.00999" lon="2.70384">
        <ele>1165.7</ele>
        <time>2014-08-17T12:16:54Z</time>
      </trkpt>
      <trkpt lat="45.00995" lon="2.70319">
        <ele>1157.3</ele>
        <time>2014-08-17T12:17:35Z</time>
      </trkpt>
      <trkpt lat="45.01004" lon="2.70278">
        <ele>1144.4</ele>
        <time>2014-08-17T12:17:53Z</time>
      </trkpt>
      <trkpt lat="45.01013" lon="2.70261">
        <ele>1143.6</ele>
        <time>2014-08-17T12:18:02Z</time>
      </trkpt>
      <trkpt lat="45.01063" lon="2.70339">
        <ele>1142.8</ele>
        <time>2014-08-17T12:18:51Z</time>
      </trkpt>
      <trkpt lat="45.01075" lon="2.70263">
        <ele>1137</ele>
        <time>2014-08-17T12:20:06Z</time>
      </trkpt>
      <trkpt lat="45.01073" lon="2.70199">
        <ele>1129.7</ele>
        <time>2014-08-17T12:20:37Z</time>
      </trkpt>
      <trkpt lat="45.01077" lon="2.70138">
        <ele>1121.8</ele>
        <time>2014-08-17T12:21:07Z</time>
      </trkpt>
      <trkpt lat="45.01073" lon="2.70077">
        <ele>1114.5</ele>
        <time>2014-08-17T12:21:48Z</time>
      </trkpt>
      <trkpt lat="45.01088" lon="2.70016">
        <ele>1104</ele>
        <time>2014-08-17T12:22:34Z</time>
      </trkpt>
      <trkpt lat="45.01127" lon="2.7005">
        <ele>1099.2</ele>
        <time>2014-08-17T12:23:12Z</time>
      </trkpt>
      <trkpt lat="45.01146" lon="2.70042">
        <ele>1097.1</ele>
        <time>2014-08-17T12:23:27Z</time>
      </trkpt>
      <trkpt lat="45.01155" lon="2.7">
        <ele>1091.8</ele>
        <time>2014-08-17T12:23:52Z</time>
      </trkpt>
      <trkpt lat="45.01173" lon="2.69941">
        <ele>1084.5</ele>
        <time>2014-08-17T12:24:32Z</time>
      </trkpt>
      <trkpt lat="45.01191" lon="2.69882">
        <ele>1077.6</ele>
        <time>2014-08-17T12:25:15Z</time>
      </trkpt>
      <trkpt lat="45.01199" lon="2.69869">
        <ele>1076.8</ele>
        <time>2014-08-17T12:25:24Z</time>
      </trkpt>
      <trkpt lat="45.01235" lon="2.69865">
        <ele>1074.6</ele>
        <time>2014-08-17T12:25:53Z</time>
      </trkpt>
      <trkpt lat="45.01264" lon="2.69873">
        <ele>1071.8</ele>
        <time>2014-08-17T12:26:19Z</time>
      </trkpt>
      <trkpt lat="45.01276" lon="2.6984">
        <ele>1070.2</ele>
        <time>2014-08-17T12:26:42Z</time>
      </trkpt>
      <trkpt lat="45.0131" lon="2.69797">
        <ele>1063.2</ele>
        <time>2014-08-17T12:27:15Z</time>
      </trkpt>
      <trkpt lat="45.01352" lon="2.69775">
        <ele>1053.3</ele>
        <time>2014-08-17T12:27:51Z</time>
      </trkpt>
      <trkpt lat="45.01397" lon="2.69759">
        <ele>1046.5</ele>
        <time>2014-08-17T12:28:27Z</time>
      </trkpt>
      <trkpt lat="45.01438" lon="2.69791">
        <ele>1031.4</ele>
        <time>2014-08-17T12:29:04Z</time>
      </trkpt>
      <trkpt lat="45.01492" lon="2.69806">
        <ele>1029</ele>
        <time>2014-08-17T12:29:38Z</time>
      </trkpt>
      <trkpt lat="45.01562" lon="2.69847">
        <ele>1029.9</ele>
        <time>2014-08-17T12:30:12Z</time>
      </trkpt>
      <trkpt lat="45.01537" lon="2.69788">
        <ele>1013.6</ele>
        <time>2014-08-17T12:31:16Z</time>
      </trkpt>
      <trkpt lat="45.01505" lon="2.69752">
        <ele>1007.9</ele>
        <time>2014-08-17T12:32:09Z</time>
      </trkpt>
      <trkpt lat="45.01479" lon="2.69725">
        <ele>1005.1</ele>
        <time>2014-08-17T12:32:46Z</time>
      </trkpt>
      <trkpt lat="45.01479" lon="2.69709">
        <ele>1004.1</ele>
        <time>2014-08-17T12:33:00Z</time>
      </trkpt>
      <trkpt lat="45.01523" lon="2.69723">
        <ele>994.7</ele>
        <time>2014-08-17T12:33:55Z</time>
      </trkpt>
      <trkpt lat="45.01511" lon="2.69687">
        <ele>992.3</ele>
        <time>2014-08-17T12:34:15Z</time>
      </trkpt>
      <trkpt lat="45.01545" lon="2.69703">
        <ele>989.3</ele>
        <time>2014-08-17T12:34:42Z</time>
      </trkpt>
      <trkpt lat="45.01541" lon="2.6966">
        <ele>982.1</ele>
        <time>2014-08-17T12:35:05Z</time>
      </trkpt>
      <trkpt lat="45.01525" lon="2.69629">
        <ele>979.9</ele>
        <time>2014-08-17T12:35:25Z</time>
      </trkpt>
      <trkpt lat="45.01542" lon="2.69622">
        <ele>978.3</ele>
        <time>2014-08-17T12:35:36Z</time>
      </trkpt>
      <trkpt lat="45.0158" lon="2.69638">
        <ele>975</ele>
        <time>2014-08-17T12:36:01Z</time>
      </trkpt>
      <trkpt lat="45.01567" lon="2.69605">
        <ele>973.4</ele>
        <time>2014-08-17T12:36:31Z</time>
      </trkpt>
      <trkpt lat="45.01577" lon="2.69574">
        <ele>967.8</ele>
        <time>2014-08-17T12:36:58Z</time>
      </trkpt>
      <trkpt lat="45.01621" lon="2.69561">
        <ele>962.8</ele>
        <time>2014-08-17T12:37:35Z</time>
      </trkpt>
      <trkpt lat="45.01662" lon="2.6959">
        <ele>963.2</ele>
        <time>2014-08-17T12:38:07Z</time>
      </trkpt>
      <trkpt lat="45.01703" lon="2.6962">
        <ele>956</ele>
        <time>2014-08-17T12:38:43Z</time>
      </trkpt>
      <trkpt lat="45.01747" lon="2.6963">
        <ele>952.4</ele>
        <time>2014-08-17T12:39:16Z</time>
      </trkpt>
      <trkpt lat="45.01787" lon="2.696">
        <ele>946.8</ele>
        <time>2014-08-17T12:39:53Z</time>
      </trkpt>
      <trkpt lat="45.0178" lon="2.69536">
        <ele>944</ele>
        <time>2014-08-17T12:40:39Z</time>
      </trkpt>
      <trkpt lat="45.01745" lon="2.69495">
        <ele>942.9</ele>
        <time>2014-08-17T12:43:17Z</time>
      </trkpt>
      <trkpt lat="45.01719" lon="2.69442">
        <ele>939.8</ele>
        <time>2014-08-17T12:44:52Z</time>
      </trkpt>
      <trkpt lat="45.01737" lon="2.69383">
        <ele>936.3</ele>
        <time>2014-08-17T12:45:27Z</time>
      </trkpt>
      <trkpt lat="45.01766" lon="2.69333">
        <ele>927.5</ele>
        <time>2014-08-17T12:46:40Z</time>
      </trkpt>
      <trkpt lat="45.01766" lon="2.69268">
        <ele>928.1</ele>
        <time>2014-08-17T12:47:22Z</time>
      </trkpt>
      <trkpt lat="45.01739" lon="2.69212">
        <ele>933.4</ele>
        <time>2014-08-17T12:48:48Z</time>
      </trkpt>
      <trkpt lat="45.01723" lon="2.69153">
        <ele>933</ele>
        <time>2014-08-17T12:49:42Z</time>
      </trkpt>
      <trkpt lat="45.01732" lon="2.6909">
        <ele>924.8</ele>
        <time>2014-08-17T12:50:13Z</time>
      </trkpt>
      <trkpt lat="45.01771" lon="2.69057">
        <ele>907.7</ele>
        <time>2014-08-17T12:50:55Z</time>
      </trkpt>
      <trkpt lat="45.0177" lon="2.68992">
        <ele>894.8</ele>
        <time>2014-08-17T12:51:41Z</time>
      </trkpt>
      <trkpt lat="45.01775" lon="2.68925">
        <ele>888.6</ele>
        <time>2014-08-17T12:52:13Z</time>
      </trkpt>
      <trkpt lat="45.01753" lon="2.68868">
        <ele>878</ele>
        <time>2014-08-17T12:52:55Z</time>
      </trkpt>
      <trkpt lat="45.01733" lon="2.6881">
        <ele>878.5</ele>
        <time>2014-08-17T12:53:32Z</time>
      </trkpt>
      <trkpt lat="45.01703" lon="2.68761">
        <ele>876.9</ele>
        <time>2014-08-17T12:54:01Z</time>
      </trkpt>
      <trkpt lat="45.01667" lon="2.68723">
        <ele>868.4</ele>
        <time>2014-08-17T12:54:32Z</time>
      </trkpt>
      <trkpt lat="45.01632" lon="2.68684">
        <ele>874.6</ele>
        <time>2014-08-17T12:55:08Z</time>
      </trkpt>
      <trkpt lat="45.01588" lon="2.68667">
        <ele>875.2</ele>
        <time>2014-08-17T12:55:37Z</time>
      </trkpt>
      <trkpt lat="45.01548" lon="2.68637">
        <ele>869.1</ele>
        <time>2014-08-17T12:56:05Z</time>
      </trkpt>
      <trkpt lat="45.01517" lon="2.68591">
        <ele>865.3</ele>
        <time>2014-08-17T12:56:45Z</time>
      </trkpt>
      <trkpt lat="45.01484" lon="2.68547">
        <ele>860.2</ele>
        <time>2014-08-17T12:57:21Z</time>
      </trkpt>
      <trkpt lat="45.01496" lon="2.68484">
        <ele>853</ele>
        <time>2014-08-17T12:58:04Z</time>
      </trkpt>
      <trkpt lat="45.01514" lon="2.68425">
        <ele>848.7</ele>
        <time>2014-08-17T12:58:44Z</time>
      </trkpt>
      <trkpt lat="45.01546" lon="2.68379">
        <ele>845.2</ele>
        <time>2014-08-17T12:59:28Z</time>
      </trkpt>
      <trkpt lat="45.01536" lon="2.68314">
        <ele>841.9</ele>
        <time>2014-08-17T13:00:11Z</time>
      </trkpt>
      <trkpt lat="45.01512" lon="2.68261">
        <ele>841.3</ele>
        <time>2014-08-17T13:00:43Z</time>
      </trkpt>
      <trkpt lat="45.01493" lon="2.68201">
        <ele>841</ele>
        <time>2014-08-17T13:01:16Z</time>
      </trkpt>
      <trkpt lat="45.015" lon="2.68137">
        <ele>834.7</ele>
        <time>2014-08-17T13:01:46Z</time>
      </trkpt>
      <trkpt lat="45.01488" lon="2.68075">
        <ele>830.7</ele>
        <time>2014-08-17T13:02:23Z</time>
      </trkpt>
      <trkpt lat="45.01477" lon="2.68013">
        <ele>827.5</ele>
        <time>2014-08-17T13:02:56Z</time>
      </trkpt>
      <trkpt lat="45.01474" lon="2.67949">
        <ele>820.6</ele>
        <time>2014-08-17T13:04:18Z</time>
      </trkpt>
      <trkpt lat="45.01438" lon="2.67909">
        <ele>812.9</ele>
        <time>2014-08-17T13:04:56Z</time>
      </trkpt>
      <trkpt lat="45.01407" lon="2.6786">
        <ele>810.8</ele>
        <time>2014-08-17T13:05:32Z</time>
      </trkpt>
      <trkpt lat="45.01384" lon="2.67803">
        <ele>804.7</ele>
        <time>2014-08-17T13:06:08Z</time>
      </trkpt>
      <trkpt lat="45.01354" lon="2.67756">
        <ele>801.9</ele>
        <time>2014-08-17T13:07:02Z</time>
      </trkpt>
      <trkpt lat="45.01376" lon="2.677">
        <ele>797.9</ele>
        <time>2014-08-17T13:07:38Z</time>
      </trkpt>
      <trkpt lat="45.0139" lon="2.67639">
        <ele>791.3</ele>
        <time>2014-08-17T13:08:12Z</time>
      </trkpt>
      <trkpt lat="45.01384" lon="2.67576">
        <ele>782.6</ele>
        <time>2014-08-17T13:08:49Z</time>
      </trkpt>
      <trkpt lat="45.01376" lon="2.67513">
        <ele>779</ele>
        <time>2014-08-17T13:09:24Z</time>
      </trkpt>
      <trkpt lat="45.01351" lon="2.67458">
        <ele>772.3</ele>
        <time>2014-08-17T13:10:24Z</time>
      </trkpt>
      <trkpt lat="45.01356" lon="2.67422">
        <ele>770.2</ele>
        <time>2014-08-17T13:10:45Z</time>
      </trkpt>
      <trkpt lat="45.01372" lon="2.67408">
        <ele>767</ele>
        <time>2014-08-17T13:11:02Z</time>
      </trkpt>
      <trkpt lat="45.0141" lon="2.67418">
        <ele>769.4</ele>
        <time>2014-08-17T13:11:27Z</time>
      </trkpt>
      <trkpt lat="45.01423" lon="2.67391">
        <ele>769.9</ele>
        <time>2014-08-17T13:11:42Z</time>
      </trkpt>
      <trkpt lat="45.0143" lon="2.67326">
        <ele>770.1</ele>
        <time>2014-08-17T13:12:17Z</time>
      </trkpt>
      <trkpt lat="45.01423" lon="2.67263">
        <ele>771</ele>
        <time>2014-08-17T13:12:52Z</time>
      </trkpt>
      <trkpt lat="45.01415" lon="2.67199">
        <ele>771.4</ele>
        <time>2014-08-17T13:13:26Z</time>
      </trkpt>
      <trkpt lat="45.01448" lon="2.67141">
        <ele>777</ele>
        <time>2014-08-17T13:14:01Z</time>
      </trkpt>
      <trkpt lat="45.01469" lon="2.671">
        <ele>778.2</ele>
        <time>2014-08-17T13:14:46Z</time>
      </trkpt>
      <trkpt lat="45.01473" lon="2.67029">
        <ele>780.6</ele>
        <time>2014-08-17T13:15:42Z</time>
      </trkpt>
      <trkpt lat="45.01451" lon="2.66973">
        <ele>783.1</ele>
        <time>2014-08-17T13:16:19Z</time>
      </trkpt>
      <trkpt lat="45.0144" lon="2.66911">
        <ele>787.9</ele>
        <time>2014-08-17T13:17:13Z</time>
      </trkpt>
      <trkpt lat="45.01461" lon="2.66852">
        <ele>791.4</ele>
        <time>2014-08-17T13:19:39Z</time>
      </trkpt>
      <trkpt lat="45.01461" lon="2.66788">
        <ele>798.4</ele>
        <time>2014-08-17T13:20:50Z</time>
      </trkpt>
      <trkpt lat="45.01458" lon="2.66725">
        <ele>803.3</ele>
        <time>2014-08-17T13:21:50Z</time>
      </trkpt>
      <trkpt lat="45.01454" lon="2.66661">
        <ele>808.1</ele>
        <time>2014-08-17T13:22:31Z</time>
      </trkpt>
      <trkpt lat="45.01443" lon="2.666">
        <ele>811</ele>
        <time>2014-08-17T13:23:14Z</time>
      </trkpt>
      <trkpt lat="45.01444" lon="2.66535">
        <ele>811</ele>
        <time>2014-08-17T13:24:03Z</time>
      </trkpt>
    </trkseg>
  </trk>
</gpx>